
Distance (Route):
Temperature : -6.2°C
Humidity : 5.5%
Pressure : 587.6hPa| Receiver | Frames | First received | Last received |
|---|---|---|---|
| DL1XH-west | 332 | 2026-09-05 23:57:42 | 2026-09-06 00:57:30 |
| DM0DOS-11 | 228 | 2026-09-06 00:02:45 | 2026-09-06 00:54:40 |
| BIOWL1-15 | 187 | 2026-09-06 00:11:08 | 2026-09-06 00:50:54 |
| DJ2DS-15 | 114 | 2026-09-05 23:52:25 | 2026-09-06 01:00:21 |
| GOEST3-10 | 85 | 2026-09-06 00:16:05 | 2026-09-06 00:50:18 |
| BIOWL9-15 | 18 | 2026-09-06 00:15:29 | 2026-09-06 00:50:09 |
| DF5WG-10 | 5 | 2026-09-06 00:42:16 | 2026-09-06 00:43:49 |
| Receiver | Date | Latitude | Longitude | Direction | Speed | Altitude | Climb | Temperature | Humidity | Pressure | Voltage | Killtimer | Uptime | BKT | XDATA |
|---|---|---|---|---|---|---|---|---|---|---|---|---|---|---|---|
| DJ2DS-15 | 2026-09-06 01:00:21 | 55.90953 | 5.56759 | 119° | 78km/h | 4492m | -12.2m/s | -6.2°C | 5.5% | 587.6hPa | 2.5V | 00:00:00 | 00:00:00 | 00:00:00 | |
| DJ2DS-15 | 2026-09-06 00:59:45 | 55.91213 | 5.55972 | 120° | 84km/h | 4775m | -12.9m/s | -7.7°C | 9.8% | 566.7hPa | 2.5V | 00:00:00 | 00:00:00 | 00:00:00 | |
| DJ2DS-15 | 2026-09-06 00:59:28 | 55.91384 | 5.55408 | 117° | 82km/h | 4966m | -12.9m/s | -8.8°C | 28.9% | 552.8hPa | 2.5V | 00:00:00 | 02:06:07 | 00:00:00 | |
| DJ2DS-15 | 2026-09-06 00:59:09 | 55.91554 | 5.54777 | 115° | 80km/h | 5198m | -12.1m/s | -10.9°C | 25.7% | 536.5hPa | 2.5V | 00:00:00 | 00:00:00 | 00:00:00 | |
| DJ2DS-15 | 2026-09-06 00:59:08 | 55.91563 | 5.54743 | 116° | 84km/h | 5210m | -12.5m/s | -11.0°C | 27.7% | 535.6hPa | 2.5V | 00:00:00 | 02:05:47 | 00:00:00 | |
| DJ2DS-15 | 2026-09-06 00:58:48 | 55.91762 | 5.54066 | 121° | 102km/h | 5443m | -12.1m/s | -12.5°C | 66.3% | 519.6hPa | 2.5V | 00:00:00 | 02:05:27 | 00:00:00 | |
| DJ2DS-15 | 2026-09-06 00:58:28 | 55.92028 | 5.53275 | 123° | 113km/h | 5668m | -11.4m/s | -12.3°C | 77.9% | 504.5hPa | 2.5V | 00:00:00 | 02:05:07 | 00:00:00 | |
| DJ2DS-15 | 2026-09-06 00:58:08 | 55.92342 | 5.52425 | 125° | 117km/h | 5902m | -12.6m/s | -13.6°C | 87.2% | 489.2hPa | 2.4V | 00:00:00 | 02:04:47 | 00:00:00 | |
| DJ2DS-15 | 2026-09-06 00:57:57 | 55.92524 | 5.51960 | 125° | 115km/h | 6034m | -12.6m/s | -14.1°C | 77.1% | 480.9hPa | 2.4V | 00:00:00 | 00:00:00 | 00:00:00 | |
| DJ2DS-15 | 2026-09-06 00:57:48 | 55.92680 | 5.51572 | 125° | 122km/h | 6143m | -12.9m/s | -14.0°C | 74.3% | 474.3hPa | 2.4V | 00:00:00 | 02:04:27 | 00:00:00 | |
| DL1XH-west | 2026-09-06 00:57:30 | 55.92995 | 5.50763 | 124° | 124km/h | 6355m | -12.6m/s | -14.8°C | 70.5% | 461hPa | 2.4V | 08:16:08 | 02:04:09 | 00:00:00 | |
| DL1XH-west | 2026-09-06 00:57:17 | 55.93227 | 5.50151 | 124° | 128km/h | 6512m | -12.8m/s | -15.8°C | 71.1% | 451.5hPa | 2.4V | 08:16:08 | 02:03:56 | 00:00:00 | |
| DL1XH-west | 2026-09-06 00:57:07 | 55.93408 | 5.49672 | 124° | 130km/h | 6632m | -12.2m/s | -16.6°C | 70.8% | 444.4hPa | 2.5V | 08:16:08 | 02:03:46 | 00:00:00 | |
| DL1XH-west | 2026-09-06 00:56:56 | 55.93605 | 5.49131 | 123° | 130km/h | 6761m | -12.1m/s | -17.4°C | 71.4% | 436.8hPa | 2.5V | 08:16:08 | 02:03:35 | 00:00:00 | |
| DL1XH-west | 2026-09-06 00:56:45 | 55.93801 | 5.48589 | 124° | 130km/h | 6891m | -13.7m/s | -18.3°C | 70.1% | 429.1hPa | 2.4V | 08:16:08 | 02:03:24 | 00:00:00 | |
| DL1XH-west | 2026-09-06 00:56:34 | 55.93998 | 5.48049 | 123° | 130km/h | 7024m | -12.9m/s | -19.3°C | 69.7% | 421.6hPa | 2.5V | 08:16:59 | 02:03:13 | 00:00:00 | |
| DL1XH-west | 2026-09-06 00:56:23 | 55.94198 | 5.47512 | 124° | 131km/h | 7152m | -11.7m/s | -20.3°C | 71.4% | 414.4hPa | 2.5V | 08:16:59 | 02:03:02 | 00:00:00 | |
| DL1XH-west | 2026-09-06 00:56:12 | 55.94401 | 5.46969 | 123° | 131km/h | 7284m | -13.2m/s | -21.2°C | 69.7% | 407.1hPa | 2.4V | 08:16:59 | 02:02:51 | 00:00:00 | |
| DL1XH-west | 2026-09-06 00:56:01 | 55.94605 | 5.46420 | 124° | 133km/h | 7415m | -12.8m/s | -22.2°C | 66.9% | 399.9hPa | 2.5V | 08:16:59 | 02:02:40 | 00:00:00 | |
| DL1XH-west | 2026-09-06 00:55:51 | 55.94790 | 5.45923 | 123° | 133km/h | 7535m | -11.6m/s | -23.2°C | 67.5% | 393.4hPa | 2.4V | 08:16:59 | 02:02:30 | 00:00:00 | |
| DL1XH-west | 2026-09-06 00:55:40 | 55.94992 | 5.45369 | 123° | 133km/h | 7669m | -12.3m/s | -24.2°C | 67.2% | 386.1hPa | 2.4V | 08:17:50 | 02:02:19 | 00:00:00 | |
| DL1XH-west | 2026-09-06 00:55:29 | 55.95198 | 5.44816 | 124° | 133km/h | 7803m | -10.7m/s | -25°C | 63.3% | 379.3hPa | 2.4V | 08:17:50 | 02:02:08 | 00:00:00 | |
| DL1XH-west | 2026-09-06 00:55:18 | 55.95405 | 5.44265 | 124° | 131km/h | 7932m | -12.7m/s | -25.9°C | 60.1% | 372.5hPa | 2.4V | 08:17:50 | 02:01:57 | 00:00:00 | |
| DL1XH-west | 2026-09-06 00:55:08 | 55.95597 | 5.43772 | 125° | 131km/h | 8052m | -13.8m/s | -26.9°C | 58.4% | 366.5hPa | 2.4V | 08:17:50 | 02:01:47 | 00:00:00 | |
| DL1XH-west | 2026-09-06 00:54:57 | 55.95807 | 5.43242 | 127° | 130km/h | 8187m | -13.8m/s | -27.9°C | 58.5% | 359.6hPa | 2.4V | 08:17:50 | 02:01:36 | 00:00:00 | |
| DL1XH-west | 2026-09-06 00:54:47 | 55.95998 | 5.42776 | 126° | 126km/h | 8315m | -13.2m/s | -28.9°C | 58.6% | 353.3hPa | 2.5V | 08:18:41 | 02:01:26 | 00:00:00 | |
| DM0DOS-11 | 2026-09-06 00:54:40 | 55.96221 | 5.42216 | 124° | 126km/h | 8471m | -13.6m/s | -30.1°C | 54.2% | 345.7hPa | 2.4V | 08:18:09 | 02:01:14 | 00:00:00 | |
| DL1XH-west | 2026-09-06 00:54:36 | 55.96203 | 5.42263 | 125° | 128km/h | 8458m | -13.3m/s | -30°C | 58.1% | 346.4hPa | 2.4V | 08:18:41 | 02:01:15 | 00:00:00 | |
| DM0DOS-11 | 2026-09-06 00:54:30 | 55.96408 | 5.41742 | 125° | 128km/h | 8599m | -12.8m/s | -31.2°C | 51.4% | 339.4hPa | 2.5V | 08:18:19 | 02:01:04 | 00:00:00 | |
| DL1XH-west | 2026-09-06 00:54:25 | 55.96408 | 5.41742 | 125° | 128km/h | 8599m | -12.9m/s | -31.2°C | 54.4% | 339.4hPa | 2.5V | 08:18:41 | 02:01:04 | 00:00:00 | |
| DL1XH-west | 2026-09-06 00:54:15 | 55.96594 | 5.41263 | 124° | 128km/h | 8727m | -14.4m/s | -32.2°C | 53.2% | 333.4hPa | 2.5V | 08:18:41 | 02:00:54 | 00:00:00 | |
| DL1XH-west | 2026-09-06 00:54:05 | 55.96770 | 5.40779 | 123° | 128km/h | 8861m | -15m/s | -33.3°C | 54.1% | 327.1hPa | 2.4V | 08:18:41 | 02:00:44 | 00:00:00 | |
| DM0DOS-11 | 2026-09-06 00:53:59 | 55.96957 | 5.40245 | 121° | 124km/h | 9016m | -16.6m/s | -34.5°C | 49.8% | 319.8hPa | 2.4V | 08:18:50 | 02:00:33 | 00:00:00 | |
| DL1XH-west | 2026-09-06 00:53:54 | 55.96956 | 5.40245 | 122° | 124km/h | 9016m | -16.6m/s | -34.5°C | 53.4% | 319.8hPa | 2.4V | 08:19:32 | 02:00:33 | 00:00:00 | |
| DJ2DS-15 | 2026-09-06 00:53:48 | 55.97057 | 5.39955 | 123° | 128km/h | 9106m | -14.9m/s | -35.3°C | 52.4% | 315.7hPa | 2.4V | 00:00:00 | 02:00:27 | 00:00:00 | |
| DM0DOS-11 | 2026-09-06 00:53:47 | 55.97126 | 5.39761 | 121° | 128km/h | 9163m | -15.4m/s | -35.8°C | 52.9% | 313.3hPa | 2.4V | 08:19:00 | 02:00:23 | 00:00:00 | |
| DL1XH-west | 2026-09-06 00:53:43 | 55.97142 | 5.39712 | 121° | 128km/h | 9177m | -14.5m/s | -35.9°C | 55.4% | 312.6hPa | 2.4V | 08:19:32 | 02:00:22 | 00:00:00 | |
| DM0DOS-11 | 2026-09-06 00:53:37 | 55.97290 | 5.39265 | 119° | 130km/h | 9304m | -15.2m/s | -37°C | 54.5% | 306.9hPa | 2.4V | 08:19:10 | 02:00:13 | 00:00:00 | |
| DL1XH-west | 2026-09-06 00:53:33 | 55.97306 | 5.39214 | 119° | 130km/h | 9318m | -14.8m/s | -37.2°C | 57.3% | 306.3hPa | 2.4V | 08:19:32 | 02:00:12 | 00:00:00 | |
| DJ2DS-15 | 2026-09-06 00:53:28 | 55.97383 | 5.38956 | 118° | 133km/h | 9387m | -14.2m/s | -37.6°C | 56.7% | 303.1hPa | 2.4V | 00:00:00 | 02:00:07 | 00:00:00 | |
| DM0DOS-11 | 2026-09-06 00:53:27 | 55.97443 | 5.38746 | 117° | 133km/h | 9447m | -15.8m/s | -38.1°C | 57.5% | 300.5hPa | 2.4V | 08:19:20 | 02:00:03 | 00:00:00 | |
| DL1XH-west | 2026-09-06 00:53:22 | 55.97474 | 5.38640 | 117° | 131km/h | 9477m | -14.8m/s | -38.3°C | 60.1% | 299.3hPa | 2.4V | 08:19:32 | 02:00:01 | 00:00:00 | |
| DM0DOS-11 | 2026-09-06 00:53:16 | 55.97591 | 5.38212 | 114° | 133km/h | 9589m | -14.2m/s | -39.2°C | 59.4% | 294.5hPa | 2.5V | 08:19:30 | 01:59:53 | 00:00:00 | |
| DL1XH-west | 2026-09-06 00:53:12 | 55.97620 | 5.38103 | 116° | 133km/h | 9616m | -13.8m/s | -39.5°C | 62.2% | 293.3hPa | 2.4V | 08:19:32 | 01:59:51 | 00:00:00 | |
| DJ2DS-15 | 2026-09-06 00:53:08 | 55.97677 | 5.37885 | 115° | 135km/h | 9672m | -15.0m/s | -39.9°C | 61.4% | 290.9hPa | 2.5V | 00:00:00 | 01:59:47 | 00:00:00 | |
| DM0DOS-11 | 2026-09-06 00:53:06 | 55.97734 | 5.37664 | 114° | 137km/h | 9730m | -15.8m/s | -40.5°C | 62.4% | 288.4hPa | 2.5V | 08:19:40 | 01:59:43 | 00:00:00 | |
| DL1XH-west | 2026-09-06 00:53:01 | 55.97776 | 5.37496 | 114° | 137km/h | 9775m | -14.8m/s | -40.8°C | 66.2% | 286.5hPa | 2.4V | 08:20:23 | 01:59:40 | 00:00:00 | |
| DM0DOS-11 | 2026-09-06 00:52:56 | 55.97871 | 5.37100 | 112° | 137km/h | 9877m | -16.1m/s | -41.7°C | 68.2% | 282.3hPa | 2.4V | 08:19:50 | 01:59:33 | 00:00:00 | |
| DL1XH-west | 2026-09-06 00:52:50 | 55.97923 | 5.36873 | 113° | 137km/h | 9937m | -15m/s | -42.3°C | 73.7% | 279.8hPa | 2.4V | 08:20:23 | 01:59:29 | 00:00:00 | |
| DM0DOS-11 | 2026-09-06 00:52:49 | 55.98000 | 5.36531 | 111° | 137km/h | 10024m | -14.5m/s | -43.1°C | 72.3% | 276.3hPa | 2.4V | 08:20:00 | 01:59:23 | 00:00:00 | |
| DL1XH-west | 2026-09-06 00:52:39 | 55.98065 | 5.36244 | 112° | 139km/h | 10095m | -15.2m/s | -43.8°C | 74.2% | 273.3hPa | 2.4V | 08:20:23 | 01:59:18 | 00:00:00 | |
| DM0DOS-11 | 2026-09-06 00:52:29 | 55.98272 | 5.35310 | 112° | 141km/h | 10332m | -15.2m/s | -45.8°C | 68.6% | 263.8hPa | 2.5V | 08:20:21 | 01:59:02 | 00:00:00 | |
| DL1XH-west | 2026-09-06 00:52:29 | 55.98192 | 5.35663 | 111° | 141km/h | 10242m | -16.1m/s | -45°C | 72.4% | 267.4hPa | 2.5V | 08:20:23 | 01:59:08 | 00:00:00 | |
| DL1XH-west | 2026-09-06 00:52:18 | 55.98345 | 5.35017 | 114° | 142km/h | 10409m | -15.7m/s | -46.4°C | 68.2% | 260.8hPa | 2.5V | 08:21:14 | 01:58:57 | 00:00:00 | |
| DM0DOS-11 | 2026-09-06 00:52:18 | 55.98420 | 5.34723 | 115° | 144km/h | 10486m | -15.4m/s | -47.1°C | 65.2% | 257.9hPa | 2.5V | 08:20:31 | 01:58:52 | 00:00:00 | |
| DL1XH-west | 2026-09-06 00:52:07 | 55.98515 | 5.34367 | 116° | 146km/h | 10573m | -14.8m/s | -47.9°C | 66% | 254.4hPa | 2.5V | 08:21:14 | 01:58:46 | 00:00:00 | |
| DM0DOS-11 | 2026-09-06 00:52:03 | 55.98662 | 5.33823 | 115° | 150km/h | 10708m | -17.7m/s | -48.9°C | 62.5% | 249.3hPa | 2.4V | 08:20:46 | 01:58:37 | 00:00:00 | |
| DL1XH-west | 2026-09-06 00:51:56 | 55.98694 | 5.33701 | 115° | 150km/h | 10739m | -15m/s | -49.2°C | 65.2% | 248.1hPa | 2.5V | 08:21:14 | 01:58:35 | 00:00:00 | |
| DM0DOS-11 | 2026-09-06 00:51:53 | 55.98824 | 5.33208 | 115° | 153km/h | 10869m | -16.5m/s | -50.2°C | 61.4% | 243.3hPa | 2.4V | 08:20:56 | 01:58:27 | 00:00:00 | |
| DL1XH-west | 2026-09-06 00:51:45 | 55.98873 | 5.33018 | 115° | 155km/h | 10919m | -15.6m/s | -50.6°C | 63.7% | 241.4hPa | 2.5V | 08:21:14 | 01:58:24 | 00:00:00 | |
| DM0DOS-11 | 2026-09-06 00:51:42 | 55.98988 | 5.32572 | 114° | 157km/h | 11029m | -17.2m/s | -51.5°C | 60.8% | 237.3hPa | 2.5V | 08:21:06 | 01:58:17 | 00:00:00 | |
| DL1XH-west | 2026-09-06 00:51:35 | 55.99039 | 5.32379 | 115° | 157km/h | 11077m | -16.9m/s | -51.9°C | 59.9% | 235.5hPa | 2.4V | 08:21:14 | 01:58:14 | 00:00:00 | |
| DM0DOS-11 | 2026-09-06 00:51:32 | 55.99158 | 5.31930 | 115° | 157km/h | 11193m | -17.4m/s | -52.7°C | 58.8% | 231.4hPa | 2.5V | 08:21:16 | 01:58:07 | 00:00:00 | |
| DL1XH-west | 2026-09-06 00:51:24 | 55.99229 | 5.31676 | 117° | 159km/h | 11256m | -16.9m/s | -53.3°C | 58.9% | 229.1hPa | 2.4V | 08:22:05 | 01:58:03 | 00:00:00 | |
| DM0DOS-11 | 2026-09-06 00:51:22 | 55.99345 | 5.31298 | 119° | 162km/h | 11355m | -16.5m/s | -53.6°C | 53.5% | 225.7hPa | 2.4V | 08:21:26 | 01:57:57 | 00:00:00 | |
| DL1XH-west | 2026-09-06 00:51:13 | 55.99449 | 5.30978 | 121° | 166km/h | 11442m | -17.1m/s | -54°C | 56% | 222.6hPa | 2.4V | 08:22:05 | 01:57:52 | 00:00:00 | |
| DL1XH-west | 2026-09-06 00:51:03 | 55.99669 | 5.30326 | 120° | 170km/h | 11626m | -19.2m/s | -55.2°C | 55.7% | 216.3hPa | 2.4V | 08:22:05 | 01:57:42 | 00:00:00 | |
| BIOWL1-15 | 2026-09-06 00:50:54 | 55.99864 | 5.29713 | 120° | 177km/h | 11800m | -20.3m/s | -56.4°C | 54.3% | 210.4hPa | 2.5V | 08:22:56 | 01:57:33 | 00:00:00 | |
| DL1XH-west | 2026-09-06 00:50:52 | 55.99909 | 5.29574 | 120° | 177km/h | 11840m | -20.8m/s | -56.6°C | 53.9% | 209.1hPa | 2.4V | 08:22:05 | 01:57:31 | 00:00:00 | |
| DM0DOS-11 | 2026-09-06 00:50:51 | 56.00045 | 5.29156 | 120° | 179km/h | 11966m | -21.6m/s | -57.3°C | 50.5% | 204.9hPa | 2.4V | 08:21:58 | 01:57:25 | 00:00:00 | |
| DL1XH-west | 2026-09-06 00:50:41 | 56.00162 | 5.28811 | 122° | 177km/h | 12073m | -21.9m/s | -58.1°C | 49.6% | 201.5hPa | 2.4V | 08:22:05 | 01:57:20 | 00:00:00 | |
| DM0DOS-11 | 2026-09-06 00:50:41 | 56.00282 | 5.28472 | 122° | 177km/h | 12178m | -20m/s | -58.8°C | 47.2% | 198.2hPa | 2.4V | 08:22:08 | 01:57:15 | 00:00:00 | |
| DL1XH-west | 2026-09-06 00:50:31 | 56.00404 | 5.28142 | 124° | 175km/h | 12282m | -22.2m/s | -59.6°C | 44.8% | 194.9hPa | 2.5V | 08:22:56 | 01:57:10 | 00:00:00 | |
| DL1XH-west | 2026-09-06 00:50:21 | 56.00634 | 5.27511 | 121° | 159km/h | 12490m | -21.9m/s | -60.5°C | 39.7% | 188.5hPa | 2.5V | 08:22:56 | 01:57:00 | 00:00:00 | |
| GOEST3-10 | 2026-09-06 00:50:18 | 56.00695 | 5.27329 | 121° | 139km/h | 12554m | -21.2m/s | -60.9°C | 39.3% | 186.5hPa | 2.5V | 00:00:00 | 00:00:00 | 00:00:00 | |
| DM0DOS-11 | 2026-09-06 00:50:11 | 56.00906 | 5.26671 | 118° | 126km/h | 12804m | -22.1m/s | -61.4°C | 31.6% | 179.2hPa | 2.5V | 08:22:38 | 01:56:45 | 00:00:00 | |
| DL1XH-west | 2026-09-06 00:50:10 | 56.00842 | 5.26877 | 120° | 135km/h | 12720m | -20.6m/s | -61.2°C | 33.4% | 181.6hPa | 2.4V | 08:22:56 | 01:56:49 | 00:00:00 | |
| BIOWL1-15 | 2026-09-06 00:50:10 | 56.00875 | 5.26772 | 120° | 131km/h | 12761m | -21.5m/s | -61.2°C | 32.3% | 180.4hPa | 2.4V | 08:22:56 | 01:56:47 | 00:00:00 | |
| BIOWL9-15 | 2026-09-06 00:50:09 | 56.00858 | 5.26824 | 119° | 133km/h | 12740m | -20.8m/s | -61.2°C | 24.7% | 181.0hPa | 2.4V | 00:00:00 | 00:00:00 | 00:00:00 | |
| DJ2DS-15 | 2026-09-06 00:50:08 | 56.00875 | 5.26772 | 120° | 124km/h | 12761m | -21.4m/s | -61.1°C | 32.9% | 180.4hPa | 2.4V | 00:00:00 | 01:56:47 | 00:00:00 | |
| DM0DOS-11 | 2026-09-06 00:50:01 | 56.01042 | 5.26172 | 112° | 122km/h | 13017m | -19.8m/s | -62.8°C | 30% | 173.1hPa | 2.4V | 08:22:48 | 01:56:35 | 00:00:00 | |
| DL1XH-west | 2026-09-06 00:50:00 | 56.00992 | 5.26374 | 116° | 122km/h | 12935m | -21.5m/s | -62.3°C | 27.9% | 175.4hPa | 2.4V | 08:22:56 | 01:56:39 | 00:00:00 | |
| BIOWL1-15 | 2026-09-06 00:49:58 | 56.01076 | 5.26016 | 109° | 124km/h | 13078m | -20.3m/s | -63°C | 24.1% | 171.4hPa | 2.4V | 08:22:56 | 01:56:32 | 00:00:00 | |
| DL1XH-west | 2026-09-06 00:49:49 | 56.01115 | 5.25801 | 107° | 128km/h | 13156m | -20.2m/s | -63.6°C | 21.8% | 169.3hPa | 2.5V | 08:22:56 | 01:56:28 | 00:00:00 | |
| DJ2DS-15 | 2026-09-06 00:49:48 | 56.01124 | 5.25746 | 106° | 137km/h | 13177m | -19.6m/s | -63.7°C | 27.3% | 168.7hPa | 2.4V | 00:00:00 | 01:56:27 | 00:00:00 | |
| DM0DOS-11 | 2026-09-06 00:49:46 | 56.01150 | 5.25576 | 104° | 133km/h | 13238m | -20.4m/s | -64°C | 25.6% | 167hPa | 2.4V | 08:22:59 | 01:56:24 | 00:00:00 | |
| BIOWL1-15 | 2026-09-06 00:49:42 | 56.01242 | 5.25035 | 111° | 142km/h | 13408m | -18.7m/s | -63.2°C | 12.2% | 162.4hPa | 2.5V | 08:23:47 | 01:56:15 | 00:00:00 | |
| DL1XH-west | 2026-09-06 00:49:38 | 56.01217 | 5.25156 | 108° | 142km/h | 13372m | -17.3m/s | -63.7°C | 13.9% | 163.4hPa | 2.4V | 08:23:47 | 01:56:17 | 00:00:00 | |
| DM0DOS-11 | 2026-09-06 00:49:36 | 56.01255 | 5.24975 | 112° | 142km/h | 13426m | -18.8m/s | -62.9°C | 16.7% | 161.9hPa | 2.5V | 08:23:09 | 01:56:14 | 00:00:00 | |
| DL1XH-west | 2026-09-06 00:49:28 | 56.01363 | 5.24588 | 118° | 130km/h | 13559m | -20.4m/s | -60.1°C | 7.4% | 158.5hPa | 2.5V | 08:23:47 | 01:56:07 | 00:00:00 | |
| DJ2DS-15 | 2026-09-06 00:49:28 | 56.01362 | 5.24588 | 118° | 120km/h | 13559m | -20.3m/s | -60.0°C | 10.8% | 158.5hPa | 2.5V | 00:00:00 | 01:56:07 | 00:00:00 | |
| BIOWL1-15 | 2026-09-06 00:49:28 | 56.01378 | 5.24537 | 118° | 128km/h | 13578m | -19.2m/s | -59.9°C | 7.1% | 158hPa | 2.4V | 08:23:47 | 01:56:06 | 00:00:00 | |
| DM0DOS-11 | 2026-09-06 00:49:26 | 56.01408 | 5.24437 | 118° | 124km/h | 13617m | -19.6m/s | -60°C | 10.3% | 157hPa | 2.4V | 08:23:19 | 01:56:04 | 00:00:00 | |
| BIOWL1-15 | 2026-09-06 00:49:19 | 56.01594 | 5.23815 | 118° | 120km/h | 13875m | -21.1m/s | -60.6°C | 3.4% | 150.6hPa | 2.4V | 08:23:47 | 01:55:51 | 00:00:00 | |
| DL1XH-west | 2026-09-06 00:49:18 | 56.01524 | 5.24055 | 117° | 119km/h | 13774m | -19.7m/s | -60.4°C | 4.6% | 153.1hPa | 2.4V | 08:23:47 | 01:55:56 | 00:00:00 | |
| DM0DOS-11 | 2026-09-06 00:49:16 | 56.01552 | 5.23959 | 117° | 120km/h | 13814m | -19.5m/s | -60.5°C | 8.5% | 152.1hPa | 2.5V | 08:23:29 | 01:55:54 | 00:00:00 | |
| DL1XH-west | 2026-09-06 00:49:07 | 56.01661 | 5.23588 | 117° | 110km/h | 13975m | -18.8m/s | -58.5°C | 2.4% | 148.2hPa | 2.5V | 08:23:47 | 01:55:46 | 00:00:00 | |
| DM0DOS-11 | 2026-09-06 00:49:06 | 56.01685 | 5.23501 | 115° | 108km/h | 14017m | -22.3m/s | -58.1°C | 6.1% | 147.2hPa | 2.4V | 08:23:39 | 01:55:44 | 00:00:00 | |
| BIOWL1-15 | 2026-09-06 00:49:01 | 56.01797 | 5.23055 | 114° | 110km/h | 14236m | -24m/s | -57.8°C | 2% | 142.2hPa | 2.4V | 08:25:29 | 01:55:34 | 00:00:00 | |
| DL1XH-west | 2026-09-06 00:48:57 | 56.01786 | 5.23100 | 114° | 110km/h | 14213m | -23.4m/s | -57.7°C | 1.9% | 142.7hPa | 2.4V | 08:24:38 | 01:55:35 | 00:00:00 | |
| DM0DOS-11 | 2026-09-06 00:48:56 | 56.01797 | 5.23055 | 114° | 110km/h | 14236m | -24m/s | -57.8°C | 5.9% | 142.2hPa | 2.4V | 08:23:49 | 01:55:34 | 00:00:00 | |
| GOEST3-10 | 2026-09-06 00:48:56 | 56.01786 | 5.23100 | 114° | 110km/h | 14213m | -23.3m/s | -57.6°C | 5.8% | 142.7hPa | 2.4V | 00:00:00 | 00:00:00 | 00:00:00 | |
| GOEST3-10 | 2026-09-06 00:48:51 | 56.01843 | 5.22878 | 116° | 104km/h | 14327m | -21.8m/s | -57.8°C | 5.8% | 140.1hPa | 2.4V | 08:23:00 | 01:55:30 | 00:00:00 | |
| DJ2DS-15 | 2026-09-06 00:48:48 | 56.01878 | 5.22749 | 116° | 100km/h | 14394m | -23.9m/s | -58.2°C | 5.9% | 138.7hPa | 2.4V | 00:00:00 | 01:55:27 | 00:00:00 | |
| DM0DOS-11 | 2026-09-06 00:48:46 | 56.01912 | 5.22624 | 115° | 102km/h | 14462m | -22.4m/s | -58°C | 5.8% | 137.2hPa | 2.4V | 08:23:59 | 01:55:24 | 00:00:00 | |
| DL1XH-west | 2026-09-06 00:48:45 | 56.01912 | 5.22624 | 116° | 102km/h | 14462m | -22.4m/s | -58°C | 1.7% | 137.2hPa | 2.4V | 08:24:38 | 01:55:24 | 00:00:00 | |
| GOEST3-10 | 2026-09-06 00:48:44 | 56.01923 | 5.22582 | 116° | 99km/h | 14484m | -21.8m/s | -57.9°C | 5.9% | 136.7hPa | 2.4V | 00:00:00 | 00:00:00 | 00:00:00 | |
| GOEST3-10 | 2026-09-06 00:48:39 | 56.01978 | 5.22382 | 116° | 99km/h | 14589m | -21.2m/s | -57.5°C | 5.5% | 134.4hPa | 2.4V | 00:00:00 | 01:55:18 | 00:00:00 | |
| DM0DOS-11 | 2026-09-06 00:48:36 | 56.02021 | 5.22221 | 115° | 100km/h | 14671m | -21.6m/s | -57.1°C | 5.4% | 132.7hPa | 2.4V | 08:24:09 | 01:55:14 | 00:00:00 | |
| DL1XH-west | 2026-09-06 00:48:35 | 56.02021 | 5.22221 | 115° | 100km/h | 14672m | -21.7m/s | -57.1°C | 1.4% | 132.7hPa | 2.4V | 08:24:38 | 01:55:14 | 00:00:00 | |
| GOEST3-10 | 2026-09-06 00:48:33 | 56.02043 | 5.22139 | 118° | 102km/h | 14714m | -21.8m/s | -56.5°C | 5.1% | 131.8hPa | 2.5V | 00:00:00 | 00:00:00 | 00:00:00 | |
| DJ2DS-15 | 2026-09-06 00:48:28 | 56.02103 | 5.21936 | 119° | 95km/h | 14821m | -22.9m/s | -56.2°C | 5.0% | 129.6hPa | 2.5V | 08:24:00 | 01:55:07 | 00:00:00 | |
| DM0DOS-11 | 2026-09-06 00:48:26 | 56.02140 | 5.21818 | 118° | 99km/h | 14885m | -21m/s | -56.3°C | 5.1% | 128.3hPa | 2.4V | 08:24:19 | 01:55:04 | 00:00:00 | |
| BIOWL1-15 | 2026-09-06 00:48:24 | 56.02175 | 5.21702 | 119° | 97km/h | 14943m | -19.8m/s | -56.6°C | 1.2% | 127.1hPa | 2.5V | 08:25:29 | 01:55:01 | 00:00:00 | |
| DL1XH-west | 2026-09-06 00:48:24 | 56.02152 | 5.21780 | 119° | 97km/h | 14905m | -19.2m/s | -56.5°C | 1.2% | 127.9hPa | 2.4V | 08:24:38 | 01:55:03 | 00:00:00 | |
| GOEST3-10 | 2026-09-06 00:48:23 | 56.02164 | 5.21741 | 119° | 97km/h | 14924m | -20.3m/s | -56.5°C | 5.1% | 127.5hPa | 2.4V | 00:00:00 | 00:00:00 | 00:00:00 | |
| GOEST3-10 | 2026-09-06 00:48:18 | 56.02222 | 5.21549 | 119° | 97km/h | 15021m | -19.7m/s | -56.7°C | 5.1% | 125.6hPa | 2.4V | 00:00:00 | 01:54:57 | 00:00:00 | |
| DM0DOS-11 | 2026-09-06 00:48:16 | 56.02258 | 5.21435 | 119° | 97km/h | 15085m | -22m/s | -56°C | 4.8% | 124.3hPa | 2.4V | 08:24:29 | 01:54:54 | 00:00:00 | |
| DL1XH-west | 2026-09-06 00:48:14 | 56.02282 | 5.21360 | 120° | 95km/h | 15124m | -18.6m/s | -55.9°C | 1% | 123.6hPa | 2.5V | 08:24:38 | 01:54:52 | 00:00:00 | |
| BIOWL1-15 | 2026-09-06 00:48:12 | 56.02305 | 5.21287 | 120° | 91km/h | 15161m | -19.9m/s | -55.7°C | 0.9% | 122.8hPa | 2.4V | 08:25:29 | 01:54:50 | 00:00:00 | |
| DJ2DS-15 | 2026-09-06 00:48:08 | 56.02340 | 5.21183 | 121° | 75km/h | 15219m | -20.7m/s | -55.6°C | 4.5% | 121.6hPa | 2.4V | 00:00:00 | 01:54:47 | 00:00:00 | |
| DM0DOS-11 | 2026-09-06 00:48:06 | 56.02373 | 5.21086 | 121° | 80km/h | 15284m | -22.5m/s | -55.7°C | 4.6% | 120.5hPa | 2.4V | 08:24:39 | 01:54:44 | 00:00:00 | |
| DL1XH-west | 2026-09-06 00:48:02 | 56.02406 | 5.20997 | 123° | 77km/h | 15351m | -22.9m/s | -55.6°C | 0.8% | 119.2hPa | 2.5V | 08:25:29 | 01:54:41 | 00:00:00 | |
| BIOWL1-15 | 2026-09-06 00:48:01 | 56.02471 | 5.20797 | 118° | 71km/h | 15509m | -21.9m/s | -56.9°C | 1% | 116.3hPa | 2.5V | 08:25:29 | 01:54:34 | 00:00:00 | |
| DM0DOS-11 | 2026-09-06 00:48:00 | 56.02471 | 5.20797 | 117° | 71km/h | 15509m | -21.9m/s | -56.9°C | 5% | 116.3hPa | 2.5V | 08:24:49 | 01:54:34 | 00:00:00 | |
| DL1XH-west | 2026-09-06 00:47:52 | 56.02496 | 5.20713 | 116° | 69km/h | 15573m | -21.5m/s | -57.2°C | 1.1% | 115.1hPa | 2.4V | 08:25:29 | 01:54:31 | 00:00:00 | |
| BIOWL1-15 | 2026-09-06 00:47:51 | 56.02503 | 5.20684 | 117° | 71km/h | 15594m | -22.2m/s | -57.1°C | 1.1% | 114.7hPa | 2.4V | 08:25:29 | 01:54:30 | 00:00:00 | |
| DM0DOS-11 | 2026-09-06 00:47:48 | 56.02552 | 5.20509 | 118° | 75km/h | 15725m | -22.3m/s | -57.1°C | 5.1% | 112.4hPa | 2.4V | 08:24:59 | 01:54:24 | 00:00:00 | |
| DL1XH-west | 2026-09-06 00:47:42 | 56.02588 | 5.20393 | 120° | 71km/h | 15814m | -23.5m/s | -56.5°C | 1% | 110.8hPa | 2.5V | 08:25:29 | 01:54:20 | 00:00:00 | |
| BIOWL1-15 | 2026-09-06 00:47:41 | 56.02597 | 5.20365 | 121° | 71km/h | 15836m | -22.6m/s | -56.1°C | 0.9% | 110.4hPa | 2.4V | 08:25:29 | 01:54:19 | 00:00:00 | |
| GOEST3-10 | 2026-09-06 00:47:38 | 56.02615 | 5.20314 | 122° | 62km/h | 15882m | -22.8m/s | -55.5°C | 4.5% | 109.6hPa | 2.5V | 00:00:00 | 01:54:17 | 00:00:00 | |
| DM0DOS-11 | 2026-09-06 00:47:36 | 56.02640 | 5.20242 | 121° | 60km/h | 15951m | -24.4m/s | -55.8°C | 4.6% | 108.4hPa | 2.5V | 08:25:09 | 01:54:14 | 00:00:00 | |
| DL1XH-west | 2026-09-06 00:47:31 | 56.02668 | 5.20150 | 116° | 57km/h | 16042m | -21m/s | -56°C | 0.8% | 106.9hPa | 2.5V | 08:25:29 | 01:54:10 | 00:00:00 | |
| BIOWL1-15 | 2026-09-06 00:47:30 | 56.02674 | 5.20126 | 113° | 58km/h | 16063m | -21m/s | -56.1°C | 0.9% | 106.5hPa | 2.5V | 08:25:29 | 01:54:09 | 00:00:00 | |
| DJ2DS-15 | 2026-09-06 00:47:28 | 56.02686 | 5.20077 | 111° | 68km/h | 16108m | -21.8m/s | -56.2°C | 4.9% | 105.8hPa | 2.4V | 00:00:00 | 01:54:07 | 00:00:00 | |
| DM0DOS-11 | 2026-09-06 00:47:26 | 56.02701 | 5.19998 | 106° | 64km/h | 16169m | -20.8m/s | -56.4°C | 5.1% | 104.8hPa | 2.5V | 08:25:19 | 01:54:04 | 00:00:00 | |
| BIOWL1-15 | 2026-09-06 00:47:20 | 56.02726 | 5.19853 | 108° | 69km/h | 16271m | -22.7m/s | -56.2°C | 1% | 103.1hPa | 2.4V | 08:25:29 | 01:53:59 | 00:00:00 | |
| BIOWL1-15 | 2026-09-06 00:47:11 | 56.02823 | 5.19395 | 107° | 60km/h | 16621m | -21m/s | -54.2°C | 0.5% | 97.5hPa | 2.4V | 08:26:20 | 01:53:43 | 00:00:00 | |
| DL1XH-west | 2026-09-06 00:47:10 | 56.02790 | 5.19558 | 112° | 69km/h | 16488m | -20.9m/s | -54.2°C | 0.6% | 99.7hPa | 2.4V | 08:26:20 | 01:53:49 | 00:00:00 | |
| DL1XH-west | 2026-09-06 00:46:59 | 56.02844 | 5.19265 | 104° | 60km/h | 16728m | -21.3m/s | -54.3°C | 0.6% | 96hPa | 2.5V | 08:26:20 | 01:53:38 | 00:00:00 | |
| DM0DOS-11 | 2026-09-06 00:46:59 | 56.02858 | 5.19154 | 105° | 66km/h | 16812m | -19.7m/s | -53.9°C | 4.2% | 94.7hPa | 2.5V | 08:25:49 | 01:53:34 | 00:00:00 | |
| BIOWL1-15 | 2026-09-06 00:46:58 | 56.02847 | 5.19238 | 101° | 62km/h | 16749m | -21.9m/s | -54.2°C | 0.6% | 95.7hPa | 2.4V | 08:26:20 | 01:53:37 | 00:00:00 | |
| DL1XH-west | 2026-09-06 00:46:49 | 56.02893 | 5.18982 | 114° | 68km/h | 16942m | -21.8m/s | -54°C | 0.6% | 92.9hPa | 2.5V | 08:26:20 | 01:53:28 | 00:00:00 | |
| BIOWL1-15 | 2026-09-06 00:46:47 | 56.02907 | 5.18926 | 116° | 68km/h | 16983m | -20.8m/s | -54.2°C | 0.6% | 92.3hPa | 2.5V | 08:26:20 | 01:53:26 | 00:00:00 | |
| DM0DOS-11 | 2026-09-06 00:46:46 | 56.02923 | 5.18873 | 117° | 66km/h | 17024m | -21m/s | -54.3°C | 4.4% | 91.7hPa | 2.4V | 08:25:59 | 01:53:24 | 00:00:00 | |
| DL1XH-west | 2026-09-06 00:46:38 | 56.02975 | 5.18682 | 110° | 51km/h | 17203m | -21.3m/s | -53.7°C | 0.6% | 89.2hPa | 2.5V | 08:26:20 | 01:53:16 | 00:00:00 | |
| DM0DOS-11 | 2026-09-06 00:46:38 | 56.02984 | 5.18638 | 107° | 51km/h | 17246m | -22m/s | -53.2°C | 4% | 88.5hPa | 2.4V | 08:26:09 | 01:53:14 | 00:00:00 | |
| BIOWL1-15 | 2026-09-06 00:46:36 | 56.02993 | 5.18571 | 102° | 53km/h | 17310m | -22.6m/s | -52.8°C | 0.3% | 87.7hPa | 2.4V | 08:26:20 | 01:53:11 | 00:00:00 | |
| GOEST3-10 | 2026-09-06 00:46:33 | 56.02991 | 5.18594 | 104° | 55km/h | 17289m | -21.2m/s | -52.8°C | 3.9% | 87.9hPa | 2.4V | 08:26:00 | 00:00:00 | 00:00:00 | |
| DJ2DS-15 | 2026-09-06 00:46:32 | 56.02996 | 5.18548 | 101° | 53km/h | 17332m | -23.2m/s | -52.8°C | 1.1% | 87.4hPa | 2.4V | 00:00:00 | 00:00:00 | 00:00:00 | |
| DJ2DS-15 | 2026-09-06 00:46:28 | 56.03003 | 5.18474 | 99° | 53km/h | 17400m | -22.7m/s | -53.0°C | 4.0% | 86.4hPa | 2.4V | 00:00:00 | 01:53:07 | 00:00:00 | |
| DM0DOS-11 | 2026-09-06 00:46:26 | 56.03010 | 5.18398 | 100° | 57km/h | 17460m | -19.6m/s | -52.9°C | 3.9% | 85.6hPa | 2.4V | 08:26:19 | 01:53:04 | 00:00:00 | |
| DL1XH-west | 2026-09-06 00:46:26 | 56.03008 | 5.18423 | 100° | 58km/h | 17442m | -19.8m/s | -53.2°C | 0.4% | 85.9hPa | 2.4V | 08:26:20 | 01:53:05 | 00:00:00 | |
| BIOWL1-15 | 2026-09-06 00:46:23 | 56.03030 | 5.18279 | 111° | 53km/h | 17566m | -21.6m/s | -53°C | 0.4% | 84.2hPa | 2.4V | 08:27:11 | 01:52:59 | 00:00:00 | |
| GOEST3-10 | 2026-09-06 00:46:23 | 56.03017 | 5.18349 | 106° | 55km/h | 17503m | -22.3m/s | -52.7°C | 3.8% | 85.0hPa | 2.4V | 00:00:00 | 00:00:00 | 00:00:00 | |
| DM0DOS-11 | 2026-09-06 00:46:18 | 56.03053 | 5.18169 | 107° | 51km/h | 17682m | -24.9m/s | -53.4°C | 4.1% | 82.7hPa | 2.4V | 08:26:29 | 01:52:54 | 00:00:00 | |
| DL1XH-west | 2026-09-06 00:46:16 | 56.03049 | 5.18191 | 109° | 49km/h | 17657m | -25.5m/s | -53.3°C | 0.4% | 83hPa | 2.4V | 08:27:11 | 01:52:55 | 00:00:00 | |
| BIOWL1-15 | 2026-09-06 00:46:15 | 56.03059 | 5.18124 | 102° | 53km/h | 17732m | -26m/s | -53.2°C | 0.4% | 82.1hPa | 2.5V | 08:27:11 | 01:52:52 | 00:00:00 | |
| GOEST3-10 | 2026-09-06 00:46:13 | 56.03059 | 5.18124 | 102° | 53km/h | 17732m | -26.0m/s | -53.2°C | 4.0% | 82.0hPa | 2.4V | 00:00:00 | 00:00:00 | 00:00:00 | |
| DM0DOS-11 | 2026-09-06 00:46:08 | 56.03076 | 5.17913 | 99° | 51km/h | 17941m | -24.4m/s | -54°C | 4.3% | 79.5hPa | 2.4V | 08:26:40 | 01:52:43 | 00:00:00 | |
| BIOWL1-15 | 2026-09-06 00:46:06 | 56.03080 | 5.17868 | 97° | 49km/h | 17988m | -23.2m/s | -53.8°C | 0.6% | 78.9hPa | 2.4V | 08:27:11 | 01:52:41 | 00:00:00 | |
| DL1XH-west | 2026-09-06 00:46:06 | 56.03073 | 5.17959 | 97° | 53km/h | 17893m | -23.9m/s | -54.1°C | 0.6% | 80.1hPa | 2.5V | 08:27:11 | 01:52:45 | 00:00:00 | |
| GOEST3-10 | 2026-09-06 00:46:03 | 56.03078 | 5.17890 | 98° | 49km/h | 17965m | -24.4m/s | -53.8°C | 4.3% | 79.1hPa | 2.4V | 00:00:00 | 00:00:00 | 00:00:00 | |
| BIOWL9-15 | 2026-09-06 00:46:01 | 56.03081 | 5.17845 | 96° | 49km/h | 18011m | -23.1m/s | -53.7°C | 1.2% | 78.6hPa | 2.5V | 00:00:00 | 00:00:00 | 00:00:00 | |
| DM0DOS-11 | 2026-09-06 00:46:00 | 56.03094 | 5.17652 | 97° | 58km/h | 18190m | -23m/s | -53.1°C | 4% | 76.4hPa | 2.5V | 08:26:51 | 01:52:32 | 00:00:00 | |
| DL1XH-west | 2026-09-06 00:45:56 | 56.03094 | 5.17652 | 98° | 58km/h | 18190m | -23m/s | -53.1°C | 0.4% | 76.4hPa | 2.5V | 08:27:11 | 01:52:32 | 00:00:00 | |
| BIOWL1-15 | 2026-09-06 00:45:52 | 56.03114 | 5.17479 | 105° | 49km/h | 18347m | -23.4m/s | -53.2°C | 0.5% | 74.6hPa | 2.4V | 08:27:11 | 01:52:25 | 00:00:00 | |
| DM0DOS-11 | 2026-09-06 00:45:48 | 56.03120 | 5.17437 | 106° | 46km/h | 18392m | -21.6m/s | -53.3°C | 4.2% | 74.1hPa | 2.4V | 08:27:00 | 01:52:23 | 00:00:00 | |
| DL1XH-west | 2026-09-06 00:45:43 | 56.03123 | 5.17418 | 105° | 44km/h | 18413m | -22m/s | -53.3°C | 0.6% | 73.8hPa | 2.5V | 08:27:11 | 01:52:22 | 00:00:00 | |
| BIOWL1-15 | 2026-09-06 00:45:39 | 56.03133 | 5.17348 | 102° | 38km/h | 18505m | -24.5m/s | -52.3°C | 0.4% | 72.8hPa | 2.4V | 08:27:11 | 01:52:18 | 00:00:00 | |
| GOEST3-10 | 2026-09-06 00:45:38 | 56.03135 | 5.17331 | 106° | 38km/h | 18529m | -25.0m/s | -52.4°C | 4.0% | 72.5hPa | 2.4V | 00:00:00 | 01:52:17 | 00:00:00 | |
| DM0DOS-11 | 2026-09-06 00:45:37 | 56.03143 | 5.17263 | 100° | 38km/h | 18628m | -23.4m/s | -53°C | 4.1% | 71.4hPa | 2.4V | 08:27:10 | 01:52:13 | 00:00:00 | |
| DL1XH-west | 2026-09-06 00:45:32 | 56.03146 | 5.17228 | 99° | 40km/h | 18674m | -23.1m/s | -53°C | 0.5% | 70.9hPa | 2.4V | 08:28:02 | 01:52:11 | 00:00:00 | |
| BIOWL1-15 | 2026-09-06 00:45:28 | 56.03156 | 5.17094 | 97° | 46km/h | 18826m | -21.5m/s | -51.5°C | 0.3% | 69.2hPa | 2.5V | 08:28:02 | 01:52:04 | 00:00:00 | |
| DJ2DS-15 | 2026-09-06 00:45:28 | 56.03152 | 5.17154 | 98° | 53km/h | 18762m | -20.9m/s | -52.7°C | 4.1% | 69.9hPa | 2.4V | 08:27:00 | 01:52:07 | 00:00:00 | |
| GOEST3-10 | 2026-09-06 00:45:23 | 56.03159 | 5.17051 | 100° | 53km/h | 18870m | -22.5m/s | -51.0°C | 3.5% | 68.7hPa | 2.4V | 00:00:00 | 00:00:00 | 00:00:00 | |
| DM0DOS-11 | 2026-09-06 00:45:22 | 56.03164 | 5.17006 | 101° | 53km/h | 18917m | -25.3m/s | -51.2°C | 3.5% | 68.3hPa | 2.4V | 08:27:23 | 01:52:00 | 00:00:00 | |
| DL1XH-west | 2026-09-06 00:45:22 | 56.03164 | 5.17006 | 102° | 53km/h | 18917m | -25.3m/s | -51.2°C | 0.1% | 68.3hPa | 2.4V | 08:28:02 | 01:52:00 | 00:00:00 | |
| BIOWL1-15 | 2026-09-06 00:45:17 | 56.03182 | 5.16885 | 108° | 58km/h | 19040m | -25.4m/s | -51.8°C | 0.3% | 67hPa | 2.4V | 08:28:02 | 01:51:55 | 00:00:00 | |
| GOEST3-10 | 2026-09-06 00:45:13 | 56.03198 | 5.16812 | 114° | 57km/h | 19115m | -23.7m/s | -52.2°C | 3.9% | 66.2hPa | 2.5V | 00:00:00 | 00:00:00 | 00:00:00 | |
| DM0DOS-11 | 2026-09-06 00:45:12 | 56.03210 | 5.16764 | 115° | 57km/h | 19157m | -18.7m/s | -52.3°C | 4% | 65.8hPa | 2.5V | 08:27:33 | 01:51:50 | 00:00:00 | |
| DL1XH-west | 2026-09-06 00:45:11 | 56.03216 | 5.16741 | 117° | 57km/h | 19176m | -20.9m/s | -52.3°C | 0.4% | 65.6hPa | 2.4V | 08:28:02 | 01:51:49 | 00:00:00 | |
| DJ2DS-15 | 2026-09-06 00:45:08 | 56.03228 | 5.16698 | 120° | 40km/h | 19223m | -25.2m/s | -52.3°C | 3.9% | 65.0hPa | 2.5V | 00:00:00 | 01:51:47 | 00:00:00 | |
| DM0DOS-11 | 2026-09-06 00:45:07 | 56.03262 | 5.16575 | 105° | 35km/h | 19394m | -24.6m/s | -52°C | 3.8% | 63.4hPa | 2.5V | 08:27:43 | 01:51:40 | 00:00:00 | |
| BIOWL1-15 | 2026-09-06 00:45:06 | 56.03255 | 5.16606 | 115° | 38km/h | 19345m | -24.7m/s | -52.1°C | 0.3% | 63.9hPa | 2.4V | 08:28:02 | 01:51:42 | 00:00:00 | |
| DL1XH-west | 2026-09-06 00:44:59 | 56.03265 | 5.16544 | 98° | 35km/h | 19440m | -23.9m/s | -52°C | 0.3% | 63hPa | 2.5V | 08:28:02 | 01:51:38 | 00:00:00 | |
| BIOWL9-15 | 2026-09-06 00:44:59 | 56.03266 | 5.16529 | 94° | 35km/h | 19464m | -24.0m/s | -52.0°C | 1.0% | 62.7hPa | 2.4V | 00:00:00 | 00:00:00 | 00:00:00 | |
| GOEST3-10 | 2026-09-06 00:44:58 | 56.03266 | 5.16529 | 95° | 37km/h | 19464m | -24.0m/s | -51.9°C | 3.8% | 62.7hPa | 2.4V | 00:00:00 | 01:51:37 | 00:00:00 | |
| DM0DOS-11 | 2026-09-06 00:44:56 | 56.03265 | 5.16410 | 83° | 38km/h | 19621m | -22.9m/s | -52°C | 4% | 61.2hPa | 2.4V | 08:27:53 | 01:51:30 | 00:00:00 | |
| BIOWL1-15 | 2026-09-06 00:44:54 | 56.03267 | 5.16463 | 88° | 38km/h | 19555m | -22m/s | -51.8°C | 0.3% | 61.9hPa | 2.5V | 08:28:02 | 01:51:33 | 00:00:00 | |
| DL1XH-west | 2026-09-06 00:44:48 | 56.03261 | 5.16357 | 82° | 38km/h | 19688m | -21.6m/s | -52.1°C | 0.5% | 60.6hPa | 2.5V | 08:28:02 | 01:51:27 | 00:00:00 | |
| DJ2DS-15 | 2026-09-06 00:44:48 | 56.03261 | 5.16357 | 83° | 38km/h | 19688m | -21.5m/s | -52.1°C | 4.1% | 60.5hPa | 2.5V | 00:00:00 | 01:51:27 | 00:00:00 | |
| DM0DOS-11 | 2026-09-06 00:44:46 | 56.03255 | 5.16231 | 91° | 42km/h | 19858m | -22m/s | -52.7°C | 4.4% | 59hPa | 2.5V | 08:28:03 | 01:51:20 | 00:00:00 | |
| BIOWL1-15 | 2026-09-06 00:44:43 | 56.03257 | 5.16267 | 85° | 40km/h | 19811m | -26.3m/s | -52.4°C | 0.5% | 59.5hPa | 2.5V | 08:28:02 | 01:51:22 | 00:00:00 | |
| DL1XH-west | 2026-09-06 00:44:37 | 56.03261 | 5.16157 | 106° | 42km/h | 19947m | -24.3m/s | -52.3°C | 0.6% | 58.2hPa | 2.4V | 08:28:53 | 01:51:16 | 00:00:00 | |
| DM0DOS-11 | 2026-09-06 00:44:36 | 56.03282 | 5.16058 | 113° | 31km/h | 20089m | -22m/s | -51.1°C | 4% | 56.9hPa | 2.5V | 08:28:13 | 01:51:10 | 00:00:00 | |
| BIOWL1-15 | 2026-09-06 00:44:32 | 56.03287 | 5.16023 | 93° | 24km/h | 20159m | -25.1m/s | -49.1°C | 0% | 56.3hPa | 2.4V | 08:28:53 | 01:51:07 | 00:00:00 | |
| DL1XH-west | 2026-09-06 00:44:27 | 56.03287 | 5.16013 | 89° | 20km/h | 20184m | -26.8m/s | -48.5°C | 0% | 56.1hPa | 2.4V | 08:28:53 | 01:51:06 | 00:00:00 | |
| BIOWL1-15 | 2026-09-06 00:44:20 | 56.03276 | 5.15939 | 72° | 20km/h | 20401m | -24.1m/s | -48.9°C | 0% | 54.3hPa | 2.5V | 08:28:53 | 01:50:57 | 00:00:00 | |
| DL1XH-west | 2026-09-06 00:44:16 | 56.03273 | 5.15922 | 72° | 20km/h | 20450m | -24.5m/s | -49.3°C | 0% | 53.9hPa | 2.4V | 08:28:53 | 01:50:55 | 00:00:00 | |
| BIOWL1-15 | 2026-09-06 00:44:07 | 56.03260 | 5.15794 | 92° | 31km/h | 20725m | -25.9m/s | -51.3°C | 0.4% | 51.6hPa | 2.5V | 08:28:53 | 01:50:44 | 00:00:00 | |
| DL1XH-west | 2026-09-06 00:44:06 | 56.03260 | 5.15807 | 90° | 31km/h | 20699m | -26.8m/s | -51.3°C | 0.2% | 51.9hPa | 2.5V | 08:28:53 | 01:50:45 | 00:00:00 | |
| GOEST3-10 | 2026-09-06 00:44:03 | 56.03262 | 5.15767 | 100° | 29km/h | 20778m | -26.5m/s | -50.7°C | 3.5% | 51.2hPa | 2.4V | 00:00:00 | 00:00:00 | 00:00:00 | |
| BIOWL9-15 | 2026-09-06 00:43:57 | 56.03276 | 5.15681 | 107° | 24km/h | 20957m | -26.6m/s | -50.9°C | 0.9% | 49.9hPa | 2.4V | 00:00:00 | 00:00:00 | 00:00:00 | |
| DM0DOS-11 | 2026-09-06 00:43:55 | 56.03283 | 5.15624 | 99° | 20km/h | 21109m | -25m/s | -51.3°C | 3.5% | 48.6hPa | 2.4V | 08:28:54 | 01:50:29 | 00:00:00 | |
| BIOWL1-15 | 2026-09-06 00:43:55 | 56.03278 | 5.15670 | 107° | 24km/h | 20982m | -26.5m/s | -50.6°C | 0.1% | 49.6hPa | 2.5V | 08:28:53 | 01:50:34 | 00:00:00 | |
| GOEST3-10 | 2026-09-06 00:43:53 | 56.03280 | 5.15651 | 103° | 20km/h | 21034m | -25.1m/s | -50.7°C | 3.4% | 49.2hPa | 2.4V | 00:00:00 | 00:00:00 | 00:00:00 | |
| DF5WG-10 | 2026-09-06 00:43:49 | 56.03283 | 5.15615 | 91° | 24km/h | 21132m | -24.0m/s | 0°C | 0% | 0hPa | 2.4V | 00:00:00 | 01:50:28 | 00:00:00 | |
| DJ2DS-15 | 2026-09-06 00:43:48 | 56.03283 | 5.15606 | 91° | 29km/h | 21156m | -23.1m/s | -51.7°C | 3.7% | 48.3hPa | 2.4V | 00:00:00 | 01:50:27 | 00:00:00 | |
| DM0DOS-11 | 2026-09-06 00:43:45 | 56.03272 | 5.15525 | 75° | 29km/h | 21358m | -26.8m/s | -52.4°C | 3.9% | 46.8hPa | 2.4V | 08:29:04 | 01:50:19 | 00:00:00 | |
| DL1XH-west | 2026-09-06 00:43:45 | 56.03282 | 5.15581 | 78° | 22km/h | 21229m | -25.2m/s | -52°C | 0.3% | 47.8hPa | 2.4V | 08:29:44 | 01:50:24 | 00:00:00 | |
| BIOWL1-15 | 2026-09-06 00:43:44 | 56.03276 | 5.15550 | 72° | 26km/h | 21304m | -26.6m/s | -52°C | 0.4% | 47.2hPa | 2.5V | 08:29:44 | 01:50:21 | 00:00:00 | |
| GOEST3-10 | 2026-09-06 00:43:43 | 56.03278 | 5.15561 | 71° | 29km/h | 21279m | -25.2m/s | -52.0°C | 3.8% | 47.4hPa | 2.5V | 00:00:00 | 00:00:00 | 00:00:00 | |
| DF5WG-10 | 2026-09-06 00:43:39 | 56.03270 | 5.15512 | 75° | 35km/h | 21384m | -26.0m/s | 0°C | 0% | 0hPa | 2.5V | 00:00:00 | 01:50:18 | 00:00:00 | |
| GOEST3-10 | 2026-09-06 00:43:38 | 56.03267 | 5.15497 | 73° | 37km/h | 21410m | -25.5m/s | -52.7°C | 4.1% | 46.4hPa | 2.5V | 00:00:00 | 01:50:17 | 00:00:00 | |
| DM0DOS-11 | 2026-09-06 00:43:35 | 56.03259 | 5.15369 | 91° | 31km/h | 21604m | -24.9m/s | -52.9°C | 4.3% | 45.1hPa | 2.5V | 08:29:14 | 01:50:09 | 00:00:00 | |
| DL1XH-west | 2026-09-06 00:43:34 | 56.03260 | 5.15416 | 85° | 37km/h | 21532m | -24.2m/s | -53°C | 0.7% | 45.6hPa | 2.4V | 08:29:44 | 01:50:12 | 00:00:00 | |
| BIOWL1-15 | 2026-09-06 00:43:32 | 56.03259 | 5.15400 | 89° | 37km/h | 21555m | -22.5m/s | -53°C | 0.6% | 45.4hPa | 2.4V | 08:29:44 | 01:50:11 | 00:00:00 | |
| DL1XH-west | 2026-09-06 00:43:22 | 56.03268 | 5.15283 | 108° | 18km/h | 21792m | -23.2m/s | -50.9°C | 0.1% | 43.8hPa | 2.4V | 08:29:44 | 01:50:01 | 00:00:00 | |
| BIOWL1-15 | 2026-09-06 00:43:21 | 56.03273 | 5.15257 | 113° | 22km/h | 21857m | -23.2m/s | -51.1°C | 0.1% | 43.3hPa | 2.5V | 08:29:44 | 01:49:58 | 00:00:00 | |
| DF5WG-10 | 2026-09-06 00:43:19 | 56.03273 | 5.15257 | 114° | 27km/h | 21857m | -23.2m/s | 0°C | 0% | 0hPa | 2.5V | 00:00:00 | 01:49:58 | 00:00:00 | |
| GOEST3-10 | 2026-09-06 00:43:18 | 56.03275 | 5.15247 | 111° | 27km/h | 21879m | -20.9m/s | -51.1°C | 3.6% | 43.1hPa | 2.5V | 00:00:00 | 01:49:57 | 00:00:00 | |
| DM0DOS-11 | 2026-09-06 00:43:15 | 56.03305 | 5.15162 | 126° | 27km/h | 22045m | -21.8m/s | -51.5°C | 3.7% | 42.1hPa | 2.4V | 08:29:34 | 01:49:49 | 00:00:00 | |
| DL1XH-west | 2026-09-06 00:43:12 | 56.03296 | 5.15183 | 125° | 29km/h | 22004m | -21.8m/s | -51.3°C | 0.2% | 42.4hPa | 2.5V | 08:29:44 | 01:49:51 | 00:00:00 | |
| BIOWL1-15 | 2026-09-06 00:43:09 | 56.03329 | 5.15104 | 126° | 26km/h | 22173m | -21.1m/s | -52°C | 0.4% | 41.3hPa | 2.4V | 08:29:44 | 01:49:43 | 00:00:00 | |
| DJ2DS-15 | 2026-09-06 00:43:09 | 56.03313 | 5.15143 | 129° | 26km/h | 22088m | -21.9m/s | -51.7°C | 3.8% | 41.8hPa | 2.5V | 00:00:00 | 01:49:47 | 00:00:00 | |
| DM0DOS-11 | 2026-09-06 00:43:05 | 56.03344 | 5.15069 | 126° | 26km/h | 22259m | -21.9m/s | -52.6°C | 4% | 40.7hPa | 2.5V | 08:29:44 | 01:49:39 | 00:00:00 | |
| DL1XH-west | 2026-09-06 00:43:01 | 56.03341 | 5.15077 | 132° | 24km/h | 22238m | -22.4m/s | -52.4°C | 0.4% | 40.9hPa | 2.4V | 08:29:44 | 01:49:40 | 00:00:00 | |
| DF5WG-10 | 2026-09-06 00:42:59 | 56.03348 | 5.15060 | 128° | 24km/h | 22281m | -21.8m/s | 0°C | 0% | 0hPa | 2.4V | 00:00:00 | 01:49:38 | 00:00:00 | |
| GOEST3-10 | 2026-09-06 00:42:58 | 56.03352 | 5.15051 | 128° | 24km/h | 22303m | -21.9m/s | -52.7°C | 4.1% | 40.4hPa | 2.4V | 00:00:00 | 01:49:37 | 00:00:00 | |
| DM0DOS-11 | 2026-09-06 00:42:55 | 56.03369 | 5.14967 | 91° | 31km/h | 22471m | -19.3m/s | -51.9°C | 3.9% | 39.4hPa | 2.4V | 08:30:00 | 01:49:29 | 00:00:00 | |
| BIOWL1-15 | 2026-09-06 00:42:53 | 56.03367 | 5.14992 | 101° | 29km/h | 22430m | -21.5m/s | -52.4°C | 0.5% | 39.6hPa | 2.5V | 18:12:15 | 01:49:31 | 00:00:00 | |
| DL1XH-west | 2026-09-06 00:42:51 | 56.03368 | 5.14980 | 97° | 27km/h | 22451m | -20.6m/s | -52.2°C | 0.5% | 39.5hPa | 2.4V | 18:12:15 | 01:49:30 | 00:00:00 | |
| DJ2DS-15 | 2026-09-06 00:42:48 | 56.03369 | 5.14938 | 93° | 27km/h | 22508m | -20.5m/s | -51.5°C | 3.7% | 39.1hPa | 2.5V | 00:00:00 | 01:49:27 | 00:00:00 | |
| DM0DOS-11 | 2026-09-06 00:42:45 | 56.03380 | 5.14828 | 114° | 27km/h | 22661m | -16.9m/s | -51.7°C | 3.7% | 38.2hPa | 2.5V | 08:30:00 | 01:49:19 | 00:00:00 | |
| BIOWL1-15 | 2026-09-06 00:42:42 | 56.03375 | 5.14852 | 108° | 29km/h | 22622m | -22.1m/s | -51.7°C | 0.3% | 38.5hPa | 2.5V | 18:12:15 | 01:49:21 | 00:00:00 | |
| DL1XH-west | 2026-09-06 00:42:41 | 56.03380 | 5.14828 | 115° | 27km/h | 22661m | -17m/s | -51.7°C | 0.3% | 38.2hPa | 2.5V | 18:12:15 | 01:49:19 | 00:00:00 | |
| GOEST3-10 | 2026-09-06 00:42:38 | 56.03387 | 5.14807 | 124° | 26km/h | 22694m | -15.5m/s | -51.6°C | 3.7% | 38.0hPa | 2.5V | 00:00:00 | 01:49:17 | 00:00:00 | |
| DM0DOS-11 | 2026-09-06 00:42:35 | 56.03408 | 5.14733 | 96° | 20km/h | 22791m | -10.6m/s | -51.8°C | 4% | 37.5hPa | 2.5V | 08:30:00 | 01:49:09 | 00:00:00 | |
| BIOWL1-15 | 2026-09-06 00:42:32 | 56.03406 | 5.14751 | 109° | 20km/h | 22769m | -11.1m/s | -51.9°C | 0.4% | 37.6hPa | 2.4V | 18:12:15 | 01:49:11 | 00:00:00 | |
| DL1XH-west | 2026-09-06 00:42:29 | 56.03409 | 5.14723 | 95° | 22km/h | 22802m | -10.5m/s | -51.7°C | 0.5% | 37.4hPa | 2.5V | 18:12:15 | 01:49:08 | 00:00:00 | |
| DJ2DS-15 | 2026-09-06 00:42:28 | 56.03409 | 5.14713 | 94° | 26km/h | 22813m | -10.5m/s | -51.6°C | 3.9% | 37.3hPa | 2.4V | 00:00:00 | 01:49:07 | 08:30:00 | |
| DM0DOS-11 | 2026-09-06 00:42:25 | 56.03415 | 5.14634 | 100° | 20km/h | 22898m | -14m/s | -51.1°C | 3.5% | 36.9hPa | 2.4V | 08:30:00 | 01:48:59 | 00:00:00 | |
| BIOWL1-15 | 2026-09-06 00:42:24 | 56.03413 | 5.14652 | 105° | 20km/h | 22872m | -11.6m/s | -51.1°C | 0.2% | 37hPa | 2.5V | 18:12:15 | 01:49:01 | 00:00:00 | |
| DL1XH-west | 2026-09-06 00:42:19 | 56.03416 | 5.14625 | 93° | 22km/h | 22913m | -16.3m/s | -51.3°C | 0.2% | 36.8hPa | 2.4V | 18:12:15 | 01:48:58 | 00:00:00 | |
| GOEST3-10 | 2026-09-06 00:42:18 | 56.03415 | 5.14614 | 81° | 29km/h | 22930m | -17.9m/s | -51.3°C | 3.6% | 36.6hPa | 2.4V | 00:00:00 | 01:48:57 | 00:00:00 | |
| DF5WG-10 | 2026-09-06 00:42:16 | 56.03412 | 5.14590 | 68° | 24km/h | 22963m | -15.2m/s | 0°C | 0% | 0hPa | 2.5V | 00:00:00 | 01:48:55 | 00:00:00 | |
| DM0DOS-11 | 2026-09-06 00:42:15 | 56.03394 | 5.14520 | 74° | 22km/h | 22956m | 4.9m/s | -51.5°C | 3.8% | 36.5hPa | 2.5V | 08:30:00 | 01:48:49 | 00:00:00 | |
| BIOWL1-15 | 2026-09-06 00:42:12 | 56.03398 | 5.14540 | 65° | 27km/h | 22966m | 5.7m/s | -51.6°C | 0.3% | 36.4hPa | 2.4V | 18:12:15 | 01:48:51 | 00:00:00 | |
| DL1XH-west | 2026-09-06 00:42:09 | 56.03392 | 5.14501 | 81° | 24km/h | 22945m | 4.8m/s | -51.5°C | 0.4% | 36.6hPa | 2.4V | 18:12:15 | 01:48:47 | 00:00:00 | |
| BIOWL1-15 | 2026-09-06 00:42:01 | 56.03387 | 5.14402 | 77° | 24km/h | 22897m | 4.9m/s | -51.1°C | 0.2% | 36.8hPa | 2.5V | 18:12:15 | 01:48:38 | 00:00:00 | |
| DM0DOS-11 | 2026-09-06 00:42:01 | 56.03388 | 5.14413 | 77° | 26km/h | 22903m | 6.1m/s | -51.1°C | 3.6% | 36.8hPa | 2.4V | 08:30:00 | 01:48:39 | 00:00:00 | |
| DL1XH-west | 2026-09-06 00:41:59 | 56.03386 | 5.14392 | 79° | 22km/h | 22893m | 4.4m/s | -51.1°C | 0.2% | 36.9hPa | 2.5V | 18:12:15 | 01:48:37 | 00:00:00 | |
| BIOWL9-15 | 2026-09-06 00:41:53 | 56.03389 | 5.14333 | 113° | 24km/h | 22863m | 5.4m/s | -51.3°C | 0.9% | 37.0hPa | 2.4V | 00:00:00 | 00:00:00 | 00:00:00 | |
| DM0DOS-11 | 2026-09-06 00:41:51 | 56.03392 | 5.14312 | 93° | 24km/h | 22852m | 4.3m/s | -51.5°C | 3.7% | 37.1hPa | 2.4V | 08:30:00 | 01:48:29 | 00:00:00 | |
| BIOWL1-15 | 2026-09-06 00:41:50 | 56.03390 | 5.14273 | 77° | 20km/h | 22833m | 4.6m/s | -51.6°C | 0.3% | 37.2hPa | 2.5V | 18:12:15 | 01:48:25 | 00:00:00 | |
| DL1XH-west | 2026-09-06 00:41:48 | 56.03392 | 5.14291 | 82° | 22km/h | 22843m | 6m/s | -51.5°C | 0.3% | 37.1hPa | 2.4V | 18:12:15 | 01:48:27 | 00:00:00 | |
| DJ2DS-15 | 2026-09-06 00:41:48 | 56.03392 | 5.14291 | 83° | 22km/h | 22843m | 5.9m/s | -51.5°C | 3.7% | 37.1hPa | 2.5V | 00:00:00 | 01:48:27 | 00:00:00 | |
| GOEST3-10 | 2026-09-06 00:41:43 | 56.03387 | 5.14244 | 88° | 22km/h | 22818m | 3.8m/s | -51.6°C | 3.8% | 37.3hPa | 2.5V | 00:00:00 | 00:00:00 | 00:00:00 | |
| DM0DOS-11 | 2026-09-06 00:41:41 | 56.03391 | 5.14218 | 126° | 22km/h | 22802m | 5m/s | -51.8°C | 3.9% | 37.4hPa | 2.5V | 08:30:00 | 01:48:19 | 00:00:00 | |
| BIOWL1-15 | 2026-09-06 00:41:41 | 56.03395 | 5.14210 | 128° | 24km/h | 22797m | 6m/s | -51.9°C | 0.3% | 37.5hPa | 2.4V | 18:12:15 | 01:48:18 | 00:00:00 | |
| GOEST3-10 | 2026-09-06 00:41:38 | 56.03399 | 5.14201 | 129° | 22km/h | 22792m | 4.5m/s | -51.8°C | 3.9% | 37.4hPa | 2.5V | 00:00:00 | 01:48:17 | 00:00:00 | |
| DL1XH-west | 2026-09-06 00:41:38 | 56.03399 | 5.14201 | 129° | 26km/h | 22792m | 4.6m/s | -51.9°C | 0.4% | 37.5hPa | 2.4V | 18:12:15 | 01:48:17 | 00:00:00 | |
| GOEST3-10 | 2026-09-06 00:41:33 | 56.03416 | 5.14163 | 113° | 22km/h | 22766m | 5.8m/s | -51.8°C | 3.8% | 37.6hPa | 2.5V | 00:00:00 | 00:00:00 | 00:00:00 | |
| DM0DOS-11 | 2026-09-06 00:41:31 | 56.03421 | 5.14136 | 114° | 20km/h | 22750m | 4.5m/s | -51.7°C | 3.8% | 37.7hPa | 2.4V | 08:30:00 | 01:48:09 | 00:00:00 | |
| BIOWL1-15 | 2026-09-06 00:41:29 | 56.03424 | 5.14128 | 120° | 22km/h | 22746m | 4.6m/s | -51.7°C | 0.4% | 37.7hPa | 2.4V | 18:12:15 | 01:48:08 | 00:00:00 | |
| DL1XH-west | 2026-09-06 00:41:28 | 56.03427 | 5.14119 | 120° | 24km/h | 22740m | 6m/s | -51.7°C | 0.3% | 37.7hPa | 2.5V | 18:12:15 | 01:48:07 | 00:00:00 | |
| DM0DOS-11 | 2026-09-06 00:41:25 | 56.03458 | 5.14031 | 108° | 27km/h | 22700m | 6.1m/s | -51.7°C | 3.8% | 38hPa | 2.5V | 08:30:00 | 01:47:59 | 00:00:00 | |
| BIOWL1-15 | 2026-09-06 00:41:18 | 56.03462 | 5.14009 | 105° | 24km/h | 22690m | 4.6m/s | -51.7°C | 0.3% | 38hPa | 2.4V | 18:12:15 | 01:47:57 | 00:00:00 | |
| DL1XH-west | 2026-09-06 00:41:18 | 56.03463 | 5.13998 | 102° | 26km/h | 22685m | 5.3m/s | -51.7°C | 0.3% | 38.1hPa | 2.4V | 18:12:15 | 01:47:56 | 00:00:00 | |
| DM0DOS-11 | 2026-09-06 00:41:15 | 56.03484 | 5.13907 | 117° | 38km/h | 22648m | 4.6m/s | -51.8°C | 3.8% | 38.3hPa | 2.5V | 08:30:00 | 01:47:49 | 00:00:00 | |
| DL1XH-west | 2026-09-06 00:41:07 | 56.03496 | 5.13864 | 112° | 31km/h | 22633m | 4m/s | -51.9°C | 0.3% | 38.4hPa | 2.4V | 18:12:15 | 01:47:46 | 00:00:00 | |
| BIOWL1-15 | 2026-09-06 00:41:07 | 56.03502 | 5.13768 | 94° | 35km/h | 22595m | 5.4m/s | -51.7°C | 0.4% | 38.6hPa | 2.4V | 18:12:15 | 01:47:39 | 00:00:00 | |
| DM0DOS-11 | 2026-09-06 00:41:04 | 56.03503 | 5.13753 | 98° | 35km/h | 22591m | 4.5m/s | -51.7°C | 3.7% | 38.6hPa | 2.4V | 08:30:00 | 01:47:38 | 00:00:00 | |
| DL1XH-west | 2026-09-06 00:40:57 | 56.03510 | 5.13708 | 107° | 33km/h | 22575m | 4.9m/s | -51.7°C | 0.3% | 38.7hPa | 2.5V | 18:12:15 | 01:47:35 | 00:00:00 | |
| GOEST3-10 | 2026-09-06 00:40:53 | 56.03516 | 5.13659 | 97° | 37km/h | 22560m | 4.0m/s | -51.5°C | 3.7% | 38.8hPa | 2.4V | 00:00:00 | 00:00:00 | 00:00:00 | |
| DM0DOS-11 | 2026-09-06 00:40:52 | 56.03518 | 5.13593 | 89° | 35km/h | 22540m | 5.8m/s | -51.5°C | 3.7% | 38.9hPa | 2.4V | 08:30:00 | 01:47:28 | 00:00:00 | |
| BIOWL1-15 | 2026-09-06 00:40:50 | 56.03518 | 5.13609 | 91° | 35km/h | 22545m | 4.3m/s | -51.5°C | 0.3% | 38.9hPa | 2.4V | 18:12:15 | 01:47:29 | 00:00:00 | |
| DL1XH-west | 2026-09-06 00:40:45 | 56.03517 | 5.13535 | 90° | 29km/h | 22519m | 5m/s | -51.6°C | 0.3% | 39.1hPa | 2.5V | 18:12:15 | 01:47:24 | 00:00:00 | |
| BIOWL1-15 | 2026-09-06 00:40:40 | 56.03521 | 5.13466 | 100° | 29km/h | 22491m | 4.6m/s | -51.9°C | 0.2% | 39.2hPa | 2.4V | 18:12:15 | 01:47:19 | 00:00:00 | |
| DL1XH-west | 2026-09-06 00:40:35 | 56.03525 | 5.13397 | 96° | 27km/h | 22467m | 5.9m/s | -52.3°C | 0.3% | 39.4hPa | 2.4V | 18:12:15 | 01:47:14 | 00:00:00 | |
| BIOWL1-15 | 2026-09-06 00:40:30 | 56.03529 | 5.13348 | 102° | 20km/h | 22440m | 4.9m/s | -52.6°C | 0.3% | 39.5hPa | 2.4V | 18:12:15 | 01:47:09 | 00:00:00 | |
| DL1XH-west | 2026-09-06 00:40:25 | 56.03553 | 5.13272 | 127° | 31km/h | 22403m | 4.4m/s | -52.8°C | 0.4% | 39.7hPa | 2.4V | 18:12:15 | 01:47:02 | 00:00:00 | |
| BIOWL1-15 | 2026-09-06 00:40:19 | 56.03574 | 5.13212 | 129° | 20km/h | 22374m | 4.7m/s | -52.9°C | 0.5% | 40hPa | 2.4V | 18:12:15 | 01:46:56 | 00:00:00 | |
| GOEST3-10 | 2026-09-06 00:40:18 | 56.03570 | 5.13220 | 126° | 22km/h | 22379m | 5.0m/s | -52.8°C | 4.0% | 39.9hPa | 2.4V | 00:00:00 | 01:46:57 | 00:00:00 | |
| DM0DOS-11 | 2026-09-06 00:40:14 | 56.03605 | 5.13148 | 121° | 24km/h | 22335m | 4.6m/s | -53°C | 4.1% | 40.2hPa | 2.5V | 08:30:00 | 01:46:48 | 00:00:00 | |
| DL1XH-west | 2026-09-06 00:40:13 | 56.03589 | 5.13180 | 136° | 26km/h | 22354m | 5.3m/s | -53°C | 0.5% | 40.1hPa | 2.4V | 18:12:15 | 01:46:52 | 00:00:00 | |
| BIOWL1-15 | 2026-09-06 00:40:08 | 56.03608 | 5.13139 | 123° | 24km/h | 22329m | 5.6m/s | -53°C | 0.5% | 40.2hPa | 2.5V | 18:12:15 | 01:46:47 | 00:00:00 | |
| DL1XH-west | 2026-09-06 00:40:03 | 56.03625 | 5.13093 | 121° | 26km/h | 22303m | 5.1m/s | -52.8°C | 0.5% | 40.4hPa | 2.5V | 18:12:15 | 01:46:42 | 00:00:00 | |
| GOEST3-10 | 2026-09-06 00:40:03 | 56.03625 | 5.13093 | 122° | 26km/h | 22304m | 5.0m/s | -52.8°C | 4.1% | 40.3hPa | 2.5V | 00:00:00 | 00:00:00 | 00:00:00 | |
| DM0DOS-11 | 2026-09-06 00:40:02 | 56.03640 | 5.13055 | 120° | 27km/h | 22284m | 5.3m/s | -52.8°C | 4.1% | 40.5hPa | 2.4V | 08:30:00 | 01:46:38 | 00:00:00 | |
| BIOWL1-15 | 2026-09-06 00:39:58 | 56.03654 | 5.13011 | 126° | 27km/h | 22264m | 4.1m/s | -52.7°C | 0.5% | 40.6hPa | 2.5V | 18:12:15 | 01:46:34 | 00:00:00 | |
| DM0DOS-11 | 2026-09-06 00:39:54 | 56.03679 | 5.12949 | 129° | 27km/h | 22235m | 4.9m/s | -52.4°C | 4% | 40.9hPa | 2.5V | 08:30:00 | 01:46:28 | 00:00:00 | |
| DL1XH-west | 2026-09-06 00:39:52 | 56.03666 | 5.12981 | 121° | 29km/h | 22250m | 4.7m/s | -52.6°C | 0.5% | 40.7hPa | 2.4V | 18:12:15 | 01:46:31 | 00:00:00 | |
| BIOWL1-15 | 2026-09-06 00:39:46 | 56.03697 | 5.12905 | 133° | 22km/h | 22210m | 5.1m/s | -52.2°C | 0.4% | 41hPa | 2.5V | 18:12:15 | 01:46:23 | 00:00:00 | |
| DM0DOS-11 | 2026-09-06 00:39:44 | 56.03714 | 5.12868 | 135° | 24km/h | 22186m | 4.4m/s | -52.1°C | 3.9% | 41.2hPa | 2.5V | 08:30:00 | 01:46:18 | 00:00:00 | |
| DL1XH-west | 2026-09-06 00:39:41 | 56.03707 | 5.12882 | 127° | 22km/h | 22196m | 4.2m/s | -52.1°C | 0.4% | 41.1hPa | 2.4V | 18:12:15 | 01:46:20 | 00:00:00 | |
| GOEST3-10 | 2026-09-06 00:39:38 | 56.03718 | 5.12860 | 132° | 27km/h | 22181m | 5.9m/s | -52.0°C | 3.9% | 41.1hPa | 2.4V | 00:00:00 | 01:46:17 | 00:00:00 | |
| DM0DOS-11 | 2026-09-06 00:39:34 | 56.03759 | 5.12775 | 134° | 26km/h | 22135m | 4.5m/s | -52°C | 3.9% | 41.5hPa | 2.4V | 08:30:00 | 01:46:08 | 00:00:00 | |
| BIOWL1-15 | 2026-09-06 00:39:34 | 56.03751 | 5.12793 | 125° | 26km/h | 22145m | 3.6m/s | -52°C | 0.4% | 41.4hPa | 2.5V | 18:12:15 | 01:46:10 | 00:00:00 | |
| DL1XH-west | 2026-09-06 00:39:30 | 56.03755 | 5.12784 | 128° | 26km/h | 22140m | 5.6m/s | -52°C | 0.4% | 41.4hPa | 2.4V | 18:12:15 | 01:46:09 | 00:00:00 | |
| DJ2DS-15 | 2026-09-06 00:39:28 | 56.03764 | 5.12767 | 138° | 31km/h | 22131m | 4.4m/s | -52.0°C | 3.9% | 41.5hPa | 2.4V | 00:00:00 | 01:46:07 | 08:30:00 | |
| DM0DOS-11 | 2026-09-06 00:39:24 | 56.03807 | 5.12679 | 121° | 37km/h | 22086m | 4m/s | -51.9°C | 3.9% | 41.8hPa | 2.5V | 08:30:00 | 01:45:58 | 00:00:00 | |
| DL1XH-west | 2026-09-06 00:39:20 | 56.03803 | 5.12692 | 124° | 33km/h | 22091m | 4.9m/s | -51.9°C | 0.4% | 41.7hPa | 2.5V | 18:12:15 | 01:45:59 | 00:00:00 | |
| DJ2DS-15 | 2026-09-06 00:39:19 | 56.03807 | 5.12679 | 121° | 35km/h | 22086m | 4.1m/s | -51.9°C | 1.0% | 41.8hPa | 2.5V | 00:00:00 | 00:00:00 | 00:00:00 | |
| BIOWL9-15 | 2026-09-06 00:39:18 | 56.03818 | 5.12652 | 126° | 37km/h | 22077m | 4.8m/s | -51.8°C | 0.9% | 41.9hPa | 2.5V | 00:00:00 | 00:00:00 | 00:00:00 | |
| DM0DOS-11 | 2026-09-06 00:39:14 | 56.03853 | 5.12560 | 115° | 29km/h | 22035m | 4.4m/s | -51.5°C | 3.8% | 42.1hPa | 2.5V | 08:30:00 | 01:45:48 | 00:00:00 | |
| BIOWL1-15 | 2026-09-06 00:39:10 | 56.03869 | 5.12512 | 125° | 31km/h | 22016m | 4.5m/s | -51.6°C | 0.3% | 42.2hPa | 2.4V | 18:12:15 | 01:45:44 | 00:00:00 | |
| DL1XH-west | 2026-09-06 00:39:10 | 56.03850 | 5.12572 | 121° | 29km/h | 22040m | 5.8m/s | -51.6°C | 0.3% | 42.1hPa | 2.4V | 18:12:15 | 01:45:49 | 00:00:00 | |
| DL1XH-west | 2026-09-06 00:39:00 | 56.03888 | 5.12456 | 127° | 26km/h | 21991m | 4.8m/s | -51.5°C | 0.3% | 42.4hPa | 2.4V | 18:12:15 | 01:45:39 | 00:00:00 | |
| BIOWL1-15 | 2026-09-06 00:38:55 | 56.03906 | 5.12407 | 123° | 24km/h | 21966m | 5.5m/s | -51.6°C | 0.3% | 42.5hPa | 2.5V | 18:12:15 | 01:45:34 | 00:00:00 | |
| DM0DOS-11 | 2026-09-06 00:38:54 | 56.03930 | 5.12338 | 128° | 26km/h | 21933m | 4m/s | -51.7°C | 3.8% | 42.8hPa | 2.5V | 08:30:00 | 01:45:27 | 00:00:00 | |
| DL1XH-west | 2026-09-06 00:38:50 | 56.03922 | 5.12356 | 123° | 27km/h | 21942m | 5.6m/s | -51.7°C | 0.3% | 42.7hPa | 2.5V | 18:12:15 | 01:45:29 | 00:00:00 | |
| BIOWL9-15 | 2026-09-06 00:38:46 | 56.03938 | 5.12319 | 122° | 24km/h | 21923m | 4.1m/s | -51.6°C | 1.0% | 42.9hPa | 2.5V | 00:00:00 | 00:00:00 | 00:00:00 | |
| BIOWL1-15 | 2026-09-06 00:38:44 | 56.03946 | 5.12296 | 129° | 16km/h | 21910m | 4.3m/s | -51.5°C | 0.3% | 43hPa | 2.5V | 18:12:15 | 01:45:22 | 00:00:00 | |
| DM0DOS-11 | 2026-09-06 00:38:43 | 56.03959 | 5.12260 | 121° | 20km/h | 21886m | 5.4m/s | -51.5°C | 3.8% | 43.1hPa | 2.5V | 08:30:00 | 01:45:17 | 00:00:00 | |
| DL1XH-west | 2026-09-06 00:38:40 | 56.03954 | 5.12276 | 119° | 20km/h | 21896m | 4.1m/s | -51.5°C | 0.3% | 43hPa | 2.4V | 18:12:15 | 01:45:19 | 00:00:00 | |
| BIOWL1-15 | 2026-09-06 00:38:34 | 56.03968 | 5.12228 | 110° | 20km/h | 21867m | 4.1m/s | -51.3°C | 0.3% | 43.2hPa | 2.4V | 18:12:15 | 01:45:13 | 00:00:00 | |
| DL1XH-west | 2026-09-06 00:38:30 | 56.03977 | 5.12196 | 115° | 22km/h | 21848m | 5.6m/s | -51.3°C | 0.3% | 43.4hPa | 2.5V | 18:12:15 | 01:45:09 | 00:00:00 | |
| BIOWL1-15 | 2026-09-06 00:38:23 | 56.03987 | 5.12139 | 102° | 22km/h | 21815m | 3.6m/s | -51.5°C | 0.2% | 43.6hPa | 2.4V | 18:12:15 | 01:45:02 | 00:00:00 | |
| DL1XH-west | 2026-09-06 00:38:20 | 56.03992 | 5.12103 | 104° | 20km/h | 21796m | 4.5m/s | -51.7°C | 0.2% | 43.7hPa | 2.5V | 18:12:15 | 01:44:58 | 00:00:00 | |
| GOEST3-10 | 2026-09-06 00:38:17 | 56.03995 | 5.12082 | 105° | 26km/h | 21786m | 4.6m/s | -51.8°C | 3.5% | 43.7hPa | 2.4V | 00:00:00 | 01:44:56 | 08:30:00 | |
| BIOWL9-15 | 2026-09-06 00:38:15 | 56.03999 | 5.12059 | 110° | 24km/h | 21776m | 4.6m/s | -52.1°C | 0.9% | 43.8hPa | 2.4V | 00:00:00 | 00:00:00 | 00:00:00 | |
| DM0DOS-11 | 2026-09-06 00:38:13 | 56.04013 | 5.11977 | 95° | 33km/h | 21741m | 6.1m/s | -52.9°C | 3.9% | 44.1hPa | 2.4V | 08:30:00 | 01:44:47 | 00:00:00 | |
| BIOWL1-15 | 2026-09-06 00:38:12 | 56.04006 | 5.12027 | 109° | 27km/h | 21761m | 5.5m/s | -52.4°C | 0.3% | 43.9hPa | 2.5V | 18:12:15 | 01:44:51 | 00:00:00 | |
| DL1XH-west | 2026-09-06 00:38:08 | 56.04013 | 5.11977 | 96° | 33km/h | 21741m | 6.1m/s | -52.9°C | 0.4% | 44.1hPa | 2.4V | 18:12:15 | 01:44:47 | 00:00:00 | |
| DJ2DS-15 | 2026-09-06 00:38:08 | 56.04013 | 5.11977 | 96° | 33km/h | 21741m | 6.1m/s | -52.9°C | 3.9% | 44.0hPa | 2.4V | 00:00:00 | 01:44:47 | 00:00:00 | |
| DJ2DS-15 | 2026-09-06 00:38:07 | 56.04014 | 5.11944 | 91° | 38km/h | 21731m | 4.2m/s | -53.1°C | 1.0% | 44.1hPa | 2.4V | 00:00:00 | 00:00:00 | 00:00:00 | |
| DM0DOS-11 | 2026-09-06 00:38:03 | 56.04020 | 5.11821 | 100° | 26km/h | 21690m | 5m/s | -53.4°C | 4.1% | 44.4hPa | 2.4V | 08:30:00 | 01:44:37 | 00:00:00 | |
| BIOWL1-15 | 2026-09-06 00:38:02 | 56.04016 | 5.11877 | 95° | 35km/h | 21711m | 5.7m/s | -53.5°C | 0.5% | 44.3hPa | 2.4V | 18:12:15 | 01:44:41 | 00:00:00 | |
| DL1XH-west | 2026-09-06 00:37:58 | 56.04021 | 5.11810 | 97° | 24km/h | 21685m | 5m/s | -53.4°C | 0.4% | 44.5hPa | 2.4V | 18:12:15 | 01:44:36 | 00:00:00 | |
| GOEST3-10 | 2026-09-06 00:37:57 | 56.04021 | 5.11810 | 98° | 26km/h | 21685m | 5.0m/s | -53.4°C | 4.0% | 44.4hPa | 2.5V | 00:00:00 | 01:44:36 | 00:00:00 | |
| DM0DOS-11 | 2026-09-06 00:37:53 | 56.04021 | 5.11684 | 90° | 42km/h | 21641m | 5.4m/s | -53.5°C | 4.1% | 44.8hPa | 2.5V | 08:30:00 | 01:44:27 | 00:00:00 | |
| BIOWL1-15 | 2026-09-06 00:37:51 | 56.04022 | 5.11737 | 89° | 33km/h | 21656m | 5.1m/s | -53.6°C | 0.6% | 44.7hPa | 2.4V | 18:12:15 | 01:44:30 | 00:00:00 | |
| DL1XH-west | 2026-09-06 00:37:47 | 56.04022 | 5.11648 | 96° | 38km/h | 21631m | 4.2m/s | -53.5°C | 0.5% | 44.8hPa | 2.4V | 18:12:15 | 01:44:25 | 00:00:00 | |
| BIOWL9-15 | 2026-09-06 00:37:44 | 56.04023 | 5.11615 | 89° | 35km/h | 21622m | 5.0m/s | -53.5°C | 1.1% | 44.9hPa | 2.4V | 00:00:00 | 00:00:00 | 00:00:00 | |
| DM0DOS-11 | 2026-09-06 00:37:43 | 56.04014 | 5.11525 | 73° | 42km/h | 21591m | 4.1m/s | -53.5°C | 4.1% | 45.1hPa | 2.4V | 08:30:00 | 01:44:17 | 00:00:00 | |
| BIOWL1-15 | 2026-09-06 00:37:40 | 56.04014 | 5.11525 | 73° | 42km/h | 21591m | 4.1m/s | -53.5°C | 0.5% | 45.1hPa | 2.4V | 18:12:15 | 01:44:17 | 00:00:00 | |
| DL1XH-west | 2026-09-06 00:37:35 | 56.04006 | 5.11467 | 80° | 44km/h | 21576m | 4.6m/s | -53.7°C | 0.5% | 45.2hPa | 2.5V | 18:12:15 | 01:44:14 | 00:00:00 | |
| DM0DOS-11 | 2026-09-06 00:37:33 | 56.04000 | 5.11341 | 86° | 40km/h | 21542m | 5.5m/s | -53.8°C | 4.3% | 45.5hPa | 2.4V | 08:30:00 | 01:44:07 | 00:00:00 | |
| BIOWL1-15 | 2026-09-06 00:37:27 | 56.03999 | 5.11323 | 83° | 42km/h | 21537m | 4.2m/s | -53.8°C | 0.6% | 45.5hPa | 2.4V | 18:12:15 | 01:44:06 | 00:00:00 | |
| DL1XH-west | 2026-09-06 00:37:24 | 56.03994 | 5.11271 | 77° | 37km/h | 21523m | 4.7m/s | -53.7°C | 0.6% | 45.6hPa | 2.5V | 18:12:15 | 01:44:03 | 00:00:00 | |
| DM0DOS-11 | 2026-09-06 00:37:23 | 56.03977 | 5.11187 | 64° | 27km/h | 21494m | 3.8m/s | -53.5°C | 4.2% | 45.8hPa | 2.5V | 08:30:00 | 01:43:57 | 00:00:00 | |
| BIOWL1-15 | 2026-09-06 00:37:16 | 56.03970 | 5.11163 | 63° | 33km/h | 21484m | 4.7m/s | -53.5°C | 0.6% | 45.9hPa | 2.4V | 18:12:15 | 01:43:55 | 00:00:00 | |
| DL1XH-west | 2026-09-06 00:37:14 | 56.03963 | 5.11136 | 65° | 33km/h | 21474m | 5.5m/s | -53.4°C | 0.6% | 46hPa | 2.4V | 18:12:15 | 01:43:53 | 00:00:00 | |
| DM0DOS-11 | 2026-09-06 00:37:13 | 56.03947 | 5.11059 | 70° | 27km/h | 21444m | 4.7m/s | -53.2°C | 4.1% | 46.2hPa | 2.5V | 08:30:00 | 01:43:47 | 00:00:00 | |
| BIOWL1-15 | 2026-09-06 00:37:05 | 56.03939 | 5.11027 | 61° | 27km/h | 21430m | 5.1m/s | -53.1°C | 0.5% | 46.3hPa | 2.5V | 18:12:15 | 01:43:44 | 00:00:00 | |
| DL1XH-west | 2026-09-06 00:37:03 | 56.03931 | 5.11005 | 54° | 29km/h | 21421m | 5.4m/s | -53°C | 0.5% | 46.4hPa | 2.4V | 18:12:15 | 01:43:42 | 00:00:00 | |
| DL1XH-west | 2026-09-06 00:36:53 | 56.03901 | 5.10904 | 61° | 27km/h | 21371m | 4m/s | -52.8°C | 0.5% | 46.7hPa | 2.4V | 18:12:15 | 01:43:32 | 00:00:00 | |
| DM0DOS-11 | 2026-09-06 00:36:53 | 56.03884 | 5.10856 | 60° | 26km/h | 21346m | 5m/s | -52.9°C | 4% | 46.9hPa | 2.5V | 08:30:00 | 01:43:27 | 00:00:00 | |
| BIOWL1-15 | 2026-09-06 00:36:46 | 56.03877 | 5.10791 | 88° | 26km/h | 21317m | 4.2m/s | -53°C | 0.5% | 47.1hPa | 2.5V | 18:12:15 | 01:43:21 | 00:00:00 | |
| DL1XH-west | 2026-09-06 00:36:43 | 56.03877 | 5.10803 | 87° | 26km/h | 21322m | 5.5m/s | -53°C | 0.5% | 47.1hPa | 2.4V | 18:12:15 | 01:43:22 | 00:00:00 | |
| BIOWL1-15 | 2026-09-06 00:36:34 | 56.03871 | 5.10687 | 72° | 22km/h | 21263m | 4.6m/s | -52.7°C | 0.5% | 47.5hPa | 2.5V | 18:12:15 | 01:43:10 | 00:00:00 | |
| DL1XH-west | 2026-09-06 00:36:33 | 56.03874 | 5.10704 | 81° | 18km/h | 21274m | 4.4m/s | -52.8°C | 0.6% | 47.4hPa | 2.4V | 18:12:15 | 01:43:12 | 00:00:00 | |
| GOEST3-10 | 2026-09-06 00:36:31 | 56.03871 | 5.10686 | 72° | 18km/h | 21263m | 4.5m/s | -52.7°C | 4.1% | 47.4hPa | 2.5V | 00:00:00 | 00:00:00 | 00:00:00 | |
| DJ2DS-15 | 2026-09-06 00:36:28 | 56.03867 | 5.10661 | 76° | 18km/h | 21248m | 4.4m/s | -52.6°C | 4.1% | 47.5hPa | 2.4V | 00:00:00 | 01:43:07 | 08:30:00 | |
| GOEST3-10 | 2026-09-06 00:36:26 | 56.03866 | 5.10648 | 89° | 15km/h | 21238m | 5.9m/s | -52.5°C | 4.1% | 47.6hPa | 2.5V | 00:00:00 | 01:43:05 | 00:00:00 | |
| DM0DOS-11 | 2026-09-06 00:36:23 | 56.03872 | 5.10587 | 90° | 22km/h | 21198m | 5.3m/s | -52.2°C | 4% | 48hPa | 2.5V | 08:30:00 | 01:42:57 | 00:00:00 | |
| BIOWL1-15 | 2026-09-06 00:36:23 | 56.03867 | 5.10628 | 108° | 15km/h | 21223m | 5.8m/s | -52.4°C | 0.5% | 47.8hPa | 2.5V | 18:12:15 | 01:43:02 | 00:00:00 | |
| DL1XH-west | 2026-09-06 00:36:22 | 56.03868 | 5.10622 | 113° | 15km/h | 21218m | 4.3m/s | -52.4°C | 0.5% | 47.8hPa | 2.4V | 18:12:15 | 01:43:01 | 00:00:00 | |
| GOEST3-10 | 2026-09-06 00:36:21 | 56.03869 | 5.10615 | 109° | 20km/h | 21213m | 4.7m/s | -52.3°C | 4.0% | 47.8hPa | 2.4V | 00:00:00 | 00:00:00 | 00:00:00 | |
| DJ2DS-15 | 2026-09-06 00:36:19 | 56.03872 | 5.10587 | 90° | 22km/h | 21199m | 5.3m/s | -52.2°C | 1.0% | 48.0hPa | 2.4V | 00:00:00 | 00:00:00 | 00:00:00 | |
| GOEST3-10 | 2026-09-06 00:36:16 | 56.03871 | 5.10569 | 86° | 20km/h | 21188m | 4.5m/s | -52.0°C | 4.0% | 48.0hPa | 2.4V | 00:00:00 | 01:42:55 | 00:00:00 | |
| DM0DOS-11 | 2026-09-06 00:36:13 | 56.03871 | 5.10500 | 95° | 20km/h | 21148m | 4.3m/s | -51.8°C | 4% | 48.4hPa | 2.4V | 08:30:00 | 01:42:47 | 00:00:00 | |
| BIOWL1-15 | 2026-09-06 00:36:13 | 56.03870 | 5.10517 | 97° | 16km/h | 21158m | 4.5m/s | -51.8°C | 0.4% | 48.3hPa | 2.4V | 18:12:15 | 01:42:49 | 00:00:00 | |
| DL1XH-west | 2026-09-06 00:36:12 | 56.03869 | 5.10532 | 86° | 18km/h | 21168m | 5.9m/s | -51.9°C | 0.5% | 48.2hPa | 2.5V | 18:12:15 | 01:42:51 | 00:00:00 | |
| BIOWL1-15 | 2026-09-06 00:36:06 | 56.03874 | 5.10395 | 113° | 22km/h | 21091m | 5.5m/s | -51.3°C | 0.4% | 48.8hPa | 2.4V | 18:12:15 | 01:42:36 | 00:00:00 | |
| GOEST3-10 | 2026-09-06 00:36:06 | 56.03871 | 5.10482 | 89° | 22km/h | 21138m | 5.4m/s | -51.6°C | 3.9% | 48.3hPa | 2.5V | 00:00:00 | 01:42:45 | 00:00:00 | |
| DM0DOS-11 | 2026-09-06 00:36:03 | 56.03872 | 5.10404 | 106° | 24km/h | 21096m | 4.4m/s | -51.4°C | 3.8% | 48.8hPa | 2.5V | 08:30:00 | 01:42:37 | 00:00:00 | |
| DL1XH-west | 2026-09-06 00:36:01 | 56.03869 | 5.10434 | 91° | 20km/h | 21112m | 5.1m/s | -51.5°C | 0.4% | 48.6hPa | 2.4V | 18:12:15 | 01:42:40 | 00:00:00 | |
| GOEST3-10 | 2026-09-06 00:36:01 | 56.03869 | 5.10434 | 92° | 22km/h | 21112m | 5.0m/s | -51.5°C | 3.8% | 48.6hPa | 2.4V | 00:00:00 | 00:00:00 | 08:30:00 | |
| GOEST3-10 | 2026-09-06 00:35:56 | 56.03876 | 5.10386 | 116° | 18km/h | 21086m | 5.0m/s | -51.2°C | 3.8% | 48.8hPa | 2.5V | 00:00:00 | 01:42:35 | 00:00:00 | |
| DM0DOS-11 | 2026-09-06 00:35:53 | 56.03884 | 5.10320 | 94° | 26km/h | 21045m | 5.3m/s | -50.9°C | 3.6% | 49.1hPa | 2.5V | 08:30:00 | 01:42:27 | 00:00:00 | |
| DL1XH-west | 2026-09-06 00:35:50 | 56.03883 | 5.10339 | 97° | 18km/h | 21056m | 4.4m/s | -51°C | 0.3% | 49hPa | 2.4V | 18:12:15 | 01:42:29 | 00:00:00 | |
| BIOWL1-15 | 2026-09-06 00:35:46 | 56.03885 | 5.10296 | 101° | 26km/h | 21035m | 6m/s | -50.9°C | 0.3% | 49.2hPa | 2.4V | 18:12:15 | 01:42:25 | 00:00:00 | |
| GOEST3-10 | 2026-09-06 00:35:46 | 56.03885 | 5.10296 | 102° | 26km/h | 21035m | 5.9m/s | -50.8°C | 3.7% | 49.2hPa | 2.4V | 00:00:00 | 01:42:25 | 00:00:00 | |
| DM0DOS-11 | 2026-09-06 00:35:43 | 56.03903 | 5.10214 | 104° | 16km/h | 20993m | 3.7m/s | -50.8°C | 3.6% | 49.5hPa | 2.4V | 08:30:00 | 01:42:17 | 00:00:00 | |
| DL1XH-west | 2026-09-06 00:35:39 | 56.03901 | 5.10222 | 113° | 18km/h | 20997m | 4.7m/s | -50.8°C | 0.2% | 49.5hPa | 2.4V | 18:12:15 | 01:42:18 | 00:00:00 | |
| BIOWL1-15 | 2026-09-06 00:35:35 | 56.03905 | 5.10170 | 105° | 22km/h | 20967m | 5.1m/s | -51.1°C | 0.3% | 49.7hPa | 2.4V | 18:12:15 | 01:42:12 | 00:00:00 | |
| DM0DOS-11 | 2026-09-06 00:35:33 | 56.03916 | 5.10110 | 108° | 29km/h | 20941m | 5.3m/s | -51.3°C | 3.8% | 49.9hPa | 2.4V | 08:30:00 | 01:42:07 | 00:00:00 | |
| DL1XH-west | 2026-09-06 00:35:28 | 56.03916 | 5.10110 | 108° | 31km/h | 20941m | 5.3m/s | -51.3°C | 0.3% | 49.9hPa | 2.4V | 18:12:15 | 01:42:07 | 00:00:00 | |
| BIOWL1-15 | 2026-09-06 00:35:26 | 56.03925 | 5.10063 | 100° | 27km/h | 20920m | 4.8m/s | -51.3°C | 0.4% | 50.1hPa | 2.6V | 18:12:15 | 01:42:03 | 00:00:00 | |
| DM0DOS-11 | 2026-09-06 00:35:23 | 56.03935 | 5.09991 | 106° | 33km/h | 20889m | 5.1m/s | -51.3°C | 3.8% | 50.3hPa | 2.4V | 08:30:00 | 01:41:57 | 00:00:00 | |
| DL1XH-west | 2026-09-06 00:35:17 | 56.03937 | 5.09977 | 107° | 33km/h | 20884m | 4.4m/s | -51.3°C | 0.3% | 50.4hPa | 2.5V | 18:12:15 | 01:41:56 | 00:00:00 | |
| BIOWL1-15 | 2026-09-06 00:35:13 | 56.03949 | 5.09900 | 104° | 24km/h | 20853m | 5.6m/s | -51°C | 0.4% | 50.6hPa | 2.5V | 18:12:15 | 01:41:50 | 00:00:00 | |
| DM0DOS-11 | 2026-09-06 00:35:13 | 56.03951 | 5.09869 | 89° | 24km/h | 20836m | 4.8m/s | -50.9°C | 3.8% | 50.7hPa | 2.4V | 08:30:00 | 01:41:47 | 00:00:00 | |
| DL1XH-west | 2026-09-06 00:35:06 | 56.03951 | 5.09848 | 88° | 22km/h | 20826m | 5.8m/s | -50.9°C | 0.3% | 50.8hPa | 2.4V | 18:12:15 | 01:41:45 | 00:00:00 | |
| GOEST3-10 | 2026-09-06 00:35:06 | 56.03951 | 5.09848 | 88° | 26km/h | 20826m | 5.7m/s | -50.8°C | 3.7% | 50.8hPa | 2.5V | 00:00:00 | 01:41:45 | 00:00:00 | |
| DM0DOS-11 | 2026-09-06 00:35:03 | 56.03954 | 5.09747 | 92° | 31km/h | 20785m | 5.9m/s | -50.6°C | 3.7% | 51.1hPa | 2.5V | 08:30:00 | 01:41:37 | 00:00:00 | |
| BIOWL1-15 | 2026-09-06 00:35:02 | 56.03953 | 5.09774 | 97° | 31km/h | 20794m | 4.4m/s | -50.6°C | 0.3% | 51.1hPa | 2.4V | 18:12:15 | 01:41:39 | 00:00:00 | |
| DL1XH-west | 2026-09-06 00:34:55 | 56.03953 | 5.09707 | 83° | 26km/h | 20769m | 5.9m/s | -50.5°C | 0.2% | 51.2hPa | 2.4V | 18:12:15 | 01:41:34 | 00:00:00 | |
| DM0DOS-11 | 2026-09-06 00:34:53 | 56.03945 | 5.09637 | 91° | 26km/h | 20732m | 4.7m/s | -50.8°C | 3.7% | 51.5hPa | 2.4V | 08:30:00 | 01:41:27 | 00:00:00 | |
| BIOWL1-15 | 2026-09-06 00:34:50 | 56.03946 | 5.09658 | 76° | 22km/h | 20743m | 5.1m/s | -50.7°C | 0.2% | 51.5hPa | 2.4V | 18:12:15 | 01:41:29 | 00:00:00 | |
| DL1XH-west | 2026-09-06 00:34:44 | 56.03945 | 5.09577 | 90° | 38km/h | 20711m | 5.7m/s | -51°C | 0.4% | 51.7hPa | 2.4V | 18:12:15 | 01:41:23 | 00:00:00 | |
| DM0DOS-11 | 2026-09-06 00:34:43 | 56.03938 | 5.09479 | 78° | 33km/h | 20681m | 5.8m/s | -51°C | 3.8% | 51.9hPa | 2.5V | 08:30:00 | 01:41:17 | 00:00:00 | |
| BIOWL1-15 | 2026-09-06 00:34:40 | 56.03937 | 5.09479 | 78° | 33km/h | 20681m | 5.8m/s | -51.1°C | 0.4% | 51.9hPa | 2.5V | 18:12:15 | 01:41:17 | 00:00:00 | |
| DL1XH-west | 2026-09-06 00:34:34 | 56.03930 | 5.09427 | 71° | 31km/h | 20660m | 4.8m/s | -50.9°C | 0.4% | 52.1hPa | 2.5V | 18:12:15 | 01:41:13 | 00:00:00 | |
| DM0DOS-11 | 2026-09-06 00:34:33 | 56.03919 | 5.09342 | 79° | 31km/h | 20629m | 5.7m/s | -50.7°C | 3.7% | 52.4hPa | 2.5V | 08:30:00 | 01:41:07 | 00:00:00 | |
| BIOWL1-15 | 2026-09-06 00:34:29 | 56.03921 | 5.09355 | 76° | 33km/h | 20635m | 4.5m/s | -50.7°C | 0.3% | 52.4hPa | 2.5V | 18:12:15 | 01:41:08 | 00:00:00 | |
| DL1XH-west | 2026-09-06 00:34:23 | 56.03910 | 5.09282 | 71° | 26km/h | 20605m | 4.9m/s | -50.5°C | 0.3% | 52.6hPa | 2.5V | 18:12:15 | 01:41:02 | 00:00:00 | |
| BIOWL1-15 | 2026-09-06 00:34:18 | 56.03900 | 5.09226 | 76° | 27km/h | 20578m | 6.1m/s | -50.4°C | 0.3% | 52.8hPa | 2.4V | 18:12:15 | 01:40:57 | 00:00:00 | |
| GOEST3-10 | 2026-09-06 00:34:16 | 56.03897 | 5.09201 | 81° | 27km/h | 20569m | 4.3m/s | -50.2°C | 3.7% | 52.8hPa | 2.4V | 00:00:00 | 01:40:55 | 00:00:00 | |
| DM0DOS-11 | 2026-09-06 00:34:13 | 56.03877 | 5.09111 | 63° | 24km/h | 20527m | 4.9m/s | -49.9°C | 3.7% | 53.2hPa | 2.5V | 08:30:00 | 01:40:47 | 00:00:00 | |
| DL1XH-west | 2026-09-06 00:34:13 | 56.03891 | 5.09165 | 66° | 27km/h | 20553m | 5.1m/s | -50.2°C | 0.3% | 53hPa | 2.4V | 18:12:15 | 01:40:52 | 00:00:00 | |
| BIOWL1-15 | 2026-09-06 00:34:08 | 56.03875 | 5.09102 | 67° | 22km/h | 20522m | 5.7m/s | -49.9°C | 0.3% | 53.2hPa | 2.5V | 18:12:15 | 01:40:46 | 00:00:00 | |
| BIOWL9-15 | 2026-09-06 00:34:07 | 56.03873 | 5.09093 | 71° | 20km/h | 20517m | 4.2m/s | -49.8°C | 0.9% | 53.3hPa | 2.4V | 00:00:00 | 00:00:00 | 00:00:00 | |
| GOEST3-10 | 2026-09-06 00:34:06 | 56.03873 | 5.09092 | 72° | 20km/h | 20517m | 4.2m/s | -49.8°C | 3.6% | 53.2hPa | 2.4V | 00:00:00 | 01:40:45 | 00:00:00 | |
| DM0DOS-11 | 2026-09-06 00:34:03 | 56.03856 | 5.09017 | 63° | 27km/h | 20476m | 4m/s | -49.4°C | 3.6% | 53.6hPa | 2.4V | 08:30:00 | 01:40:37 | 00:00:00 | |
| DL1XH-west | 2026-09-06 00:34:02 | 56.03865 | 5.09058 | 68° | 22km/h | 20497m | 5.5m/s | -49.6°C | 0.2% | 53.5hPa | 2.6V | 18:12:15 | 01:40:41 | 00:00:00 | |
| BIOWL1-15 | 2026-09-06 00:33:57 | 56.03847 | 5.08979 | 66° | 20km/h | 20457m | 5m/s | -49.3°C | 0.2% | 53.8hPa | 2.5V | 18:12:15 | 01:40:33 | 00:00:00 | |
| DJ2DS-15 | 2026-09-06 00:33:54 | 56.03847 | 5.08979 | 65° | 18km/h | 20457m | 5.0m/s | -49.3°C | 0.9% | 53.8hPa | 2.4V | 00:00:00 | 00:00:00 | 00:00:00 | |
| DM0DOS-11 | 2026-09-06 00:33:53 | 56.03830 | 5.08923 | 63° | 22km/h | 20420m | 4.3m/s | -49°C | 3.4% | 54.1hPa | 2.4V | 08:30:00 | 01:40:26 | 00:00:00 | |
| DL1XH-west | 2026-09-06 00:33:51 | 56.03839 | 5.08957 | 59° | 20km/h | 20441m | 5.5m/s | -49.1°C | 0.2% | 53.9hPa | 2.4V | 18:12:15 | 01:40:30 | 00:00:00 | |
| BIOWL1-15 | 2026-09-06 00:33:44 | 56.03823 | 5.08887 | 68° | 20km/h | 20401m | 5.3m/s | -48.8°C | 0.2% | 54.3hPa | 2.6V | 18:12:15 | 01:40:22 | 00:00:00 | |
| DM0DOS-11 | 2026-09-06 00:33:42 | 56.03809 | 5.08837 | 56° | 24km/h | 20372m | 3.6m/s | -48.6°C | 3.4% | 54.5hPa | 2.4V | 08:30:00 | 01:40:16 | 00:00:00 | |
| DL1XH-west | 2026-09-06 00:33:40 | 56.03817 | 5.08863 | 70° | 20km/h | 20386m | 4.9m/s | -48.7°C | 0.2% | 54.4hPa | 2.4V | 18:12:15 | 01:40:19 | 00:00:00 | |
| BIOWL1-15 | 2026-09-06 00:33:34 | 56.03802 | 5.08810 | 66° | 22km/h | 20358m | 3.9m/s | -48.6°C | 0.1% | 54.6hPa | 2.5V | 18:12:15 | 01:40:13 | 00:00:00 | |
| DM0DOS-11 | 2026-09-06 00:33:32 | 56.03786 | 5.08747 | 65° | 20km/h | 20323m | 5.6m/s | -48.5°C | 3.3% | 54.9hPa | 2.5V | 08:30:00 | 01:40:06 | 00:00:00 | |
| DL1XH-west | 2026-09-06 00:33:30 | 56.03792 | 5.08774 | 67° | 24km/h | 20338m | 5.3m/s | -48.5°C | 0.1% | 54.8hPa | 2.4V | 18:12:15 | 01:40:09 | 00:00:00 | |
| BIOWL1-15 | 2026-09-06 00:33:23 | 56.03781 | 5.08716 | 73° | 18km/h | 20303m | 5.1m/s | -48.5°C | 0.1% | 55.1hPa | 2.5V | 18:12:15 | 01:40:02 | 00:00:00 | |
| DM0DOS-11 | 2026-09-06 00:33:22 | 56.03773 | 5.08654 | 83° | 29km/h | 20273m | 4.4m/s | -48.3°C | 3.1% | 55.3hPa | 2.6V | 08:30:00 | 01:39:56 | 00:00:00 | |
| DL1XH-west | 2026-09-06 00:33:19 | 56.03775 | 5.08679 | 85° | 26km/h | 20283m | 4.9m/s | -48.4°C | 0% | 55.2hPa | 2.5V | 18:12:15 | 01:39:58 | 00:00:00 | |
| BIOWL1-15 | 2026-09-06 00:33:13 | 56.03773 | 5.08599 | 92° | 27km/h | 20254m | 5.6m/s | -48.2°C | 0% | 55.5hPa | 2.4V | 18:12:15 | 01:39:52 | 00:00:00 | |
| DM0DOS-11 | 2026-09-06 00:33:12 | 56.03777 | 5.08546 | 95° | 18km/h | 20224m | 5.9m/s | -48.7°C | 3.1% | 55.7hPa | 2.5V | 08:30:00 | 01:39:46 | 00:00:00 | |
| DL1XH-west | 2026-09-06 00:33:08 | 56.03776 | 5.08554 | 103° | 18km/h | 20230m | 4.4m/s | -48.6°C | 0% | 55.7hPa | 2.6V | 18:12:15 | 01:39:47 | 00:00:00 | |
| BIOWL1-15 | 2026-09-06 00:33:02 | 56.03782 | 5.08465 | 102° | 29km/h | 20192m | 5.2m/s | -49.3°C | 0% | 56hPa | 2.4V | 18:12:15 | 01:39:39 | 00:00:00 | |
| DL1XH-west | 2026-09-06 00:32:58 | 56.03787 | 5.08426 | 108° | 31km/h | 20177m | 5.3m/s | -49.4°C | 0% | 56.1hPa | 2.5V | 18:12:15 | 01:39:36 | 00:00:00 | |
| GOEST3-10 | 2026-09-06 00:32:56 | 56.03789 | 5.08413 | 112° | 26km/h | 20173m | 4.4m/s | -49.3°C | 3.2% | 56.1hPa | 2.4V | 00:00:00 | 01:39:35 | 00:00:00 | |
| DM0DOS-11 | 2026-09-06 00:32:52 | 56.03819 | 5.08328 | 122° | 27km/h | 20129m | 5.5m/s | -50.9°C | 3.5% | 56.5hPa | 2.4V | 08:30:00 | 01:39:26 | 00:00:00 | |
| BIOWL1-15 | 2026-09-06 00:32:51 | 56.03812 | 5.08347 | 126° | 22km/h | 20138m | 3.6m/s | -50.7°C | 0.1% | 56.5hPa | 2.6V | 18:12:15 | 01:39:28 | 00:00:00 | |
| DL1XH-west | 2026-09-06 00:32:47 | 56.03819 | 5.08328 | 123° | 27km/h | 20129m | 5.5m/s | -50.9°C | 0.1% | 56.5hPa | 2.4V | 18:12:15 | 01:39:26 | 00:00:00 | |
| GOEST3-10 | 2026-09-06 00:32:46 | 56.03823 | 5.08316 | 120° | 38km/h | 20124m | 4.5m/s | -51.0°C | 3.5% | 56.5hPa | 2.4V | 00:00:00 | 01:39:25 | 00:00:00 | |
| DM0DOS-11 | 2026-09-06 00:32:42 | 56.03872 | 5.08159 | 120° | 49km/h | 20075m | 5.6m/s | -51.7°C | 3.7% | 57hPa | 2.5V | 08:30:00 | 01:39:16 | 00:00:00 | |
| BIOWL1-15 | 2026-09-06 00:32:41 | 56.03846 | 5.08235 | 121° | 49km/h | 20095m | 5.3m/s | -51.5°C | 0.2% | 56.8hPa | 2.5V | 18:12:15 | 01:39:20 | 00:00:00 | |
| DL1XH-west | 2026-09-06 00:32:36 | 56.03878 | 5.08140 | 118° | 49km/h | 20070m | 4.8m/s | -51.9°C | 0.3% | 57.1hPa | 2.6V | 18:12:15 | 01:39:15 | 00:00:00 | |
| GOEST3-10 | 2026-09-06 00:32:36 | 56.03878 | 5.08140 | 119° | 47km/h | 20070m | 4.7m/s | -51.8°C | 3.7% | 57.0hPa | 2.4V | 00:00:00 | 01:39:15 | 00:00:00 | |
| BIOWL9-15 | 2026-09-06 00:32:34 | 56.03893 | 5.08082 | 110° | 46km/h | 20055m | 5.3m/s | -52.1°C | 1.0% | 57.2hPa | 2.4V | 00:00:00 | 00:00:00 | 00:00:00 | |
| DM0DOS-11 | 2026-09-06 00:32:32 | 56.03913 | 5.07966 | 108° | 44km/h | 20024m | 4.8m/s | -52.3°C | 3.9% | 57.5hPa | 2.4V | 08:30:00 | 01:39:06 | 00:00:00 | |
| BIOWL1-15 | 2026-09-06 00:32:30 | 56.03904 | 5.08022 | 107° | 46km/h | 20039m | 5.6m/s | -52.2°C | 0.3% | 57.3hPa | 2.6V | 18:12:15 | 01:39:09 | 00:00:00 | |
| DL1XH-west | 2026-09-06 00:32:26 | 56.03917 | 5.07947 | 110° | 44km/h | 20019m | 4.7m/s | -52.3°C | 0.4% | 57.5hPa | 2.4V | 18:12:15 | 01:39:05 | 00:00:00 | |
| GOEST3-10 | 2026-09-06 00:32:26 | 56.03917 | 5.07947 | 110° | 44km/h | 20019m | 4.7m/s | -52.2°C | 3.9% | 57.4hPa | 2.4V | 00:00:00 | 01:39:05 | 00:00:00 | |
| DM0DOS-11 | 2026-09-06 00:32:22 | 56.03942 | 5.07774 | 98° | 44km/h | 19974m | 4.9m/s | -52.5°C | 3.9% | 57.9hPa | 2.4V | 08:30:00 | 01:38:56 | 00:00:00 | |
| BIOWL1-15 | 2026-09-06 00:32:22 | 56.03937 | 5.07833 | 103° | 46km/h | 19989m | 5.7m/s | -52.4°C | 0.4% | 57.8hPa | 2.5V | 18:12:15 | 01:38:59 | 00:00:00 | |
| DL1XH-west | 2026-09-06 00:32:16 | 56.03944 | 5.07755 | 98° | 42km/h | 19969m | 3.7m/s | -52.5°C | 0.5% | 58hPa | 2.5V | 18:12:15 | 01:38:55 | 00:00:00 | |
| GOEST3-10 | 2026-09-06 00:32:16 | 56.03944 | 5.07755 | 99° | 37km/h | 19969m | 3.6m/s | -52.5°C | 3.9% | 57.9hPa | 2.5V | 00:00:00 | 01:38:55 | 08:30:00 | |
| DM0DOS-11 | 2026-09-06 00:32:12 | 56.03957 | 5.07605 | 99° | 44km/h | 19927m | 5.4m/s | -53°C | 4.1% | 58.3hPa | 2.4V | 08:30:00 | 01:38:46 | 00:00:00 | |
| BIOWL1-15 | 2026-09-06 00:32:09 | 56.03961 | 5.07467 | 87° | 31km/h | 19889m | 3.6m/s | -52.9°C | 0.5% | 58.7hPa | 2.4V | 18:12:15 | 01:38:38 | 00:00:00 | |
| DL1XH-west | 2026-09-06 00:32:06 | 56.03958 | 5.07585 | 101° | 46km/h | 19922m | 4.8m/s | -53°C | 0.5% | 58.4hPa | 2.5V | 18:12:15 | 01:38:45 | 00:00:00 | |
| BIOWL9-15 | 2026-09-06 00:32:03 | 56.03963 | 5.07510 | 86° | 33km/h | 19903m | 3.8m/s | -52.9°C | 1.1% | 58.6hPa | 2.5V | 00:00:00 | 00:00:00 | 00:00:00 | |
| DM0DOS-11 | 2026-09-06 00:32:02 | 56.03960 | 5.07436 | 81° | 38km/h | 19880m | 4.3m/s | -52.8°C | 4% | 58.8hPa | 2.5V | 08:30:00 | 01:38:36 | 00:00:00 | |
| BIOWL1-15 | 2026-09-06 00:32:00 | 56.03961 | 5.07452 | 84° | 35km/h | 19885m | 4.6m/s | -52.8°C | 0.5% | 58.7hPa | 2.5V | 18:12:15 | 01:38:37 | 00:00:00 | |
| DL1XH-west | 2026-09-06 00:31:55 | 56.03957 | 5.07400 | 85° | 40km/h | 19871m | 5.7m/s | -52.7°C | 0.4% | 58.9hPa | 2.6V | 18:12:15 | 01:38:34 | 00:00:00 | |
| DM0DOS-11 | 2026-09-06 00:31:52 | 56.03951 | 5.07246 | 81° | 38km/h | 19833m | 5.4m/s | -52.6°C | 4% | 59.2hPa | 2.4V | 08:30:00 | 01:38:26 | 00:00:00 | |
| BIOWL1-15 | 2026-09-06 00:31:47 | 56.03951 | 5.07246 | 82° | 38km/h | 19833m | 5.4m/s | -52.6°C | 0.5% | 59.2hPa | 2.4V | 18:12:15 | 01:38:26 | 00:00:00 | |
| DL1XH-west | 2026-09-06 00:31:45 | 56.03947 | 5.07211 | 76° | 40km/h | 19823m | 4.2m/s | -52.6°C | 0.4% | 59.3hPa | 2.5V | 18:12:15 | 01:38:24 | 00:00:00 | |
| DM0DOS-11 | 2026-09-06 00:31:42 | 56.03934 | 5.07063 | 79° | 40km/h | 19784m | 4.9m/s | -52.3°C | 4% | 59.7hPa | 2.5V | 08:30:00 | 01:38:16 | 00:00:00 | |
| BIOWL1-15 | 2026-09-06 00:31:37 | 56.03926 | 5.06997 | 81° | 35km/h | 19766m | 4.4m/s | -52.2°C | 0.5% | 59.8hPa | 2.4V | 18:12:15 | 01:38:12 | 00:00:00 | |
| DL1XH-west | 2026-09-06 00:31:35 | 56.03930 | 5.07028 | 78° | 37km/h | 19775m | 5.3m/s | -52.2°C | 0.5% | 59.7hPa | 2.5V | 18:12:15 | 01:38:14 | 00:00:00 | |
| DM0DOS-11 | 2026-09-06 00:31:32 | 56.03917 | 5.06896 | 84° | 38km/h | 19738m | 4m/s | -52°C | 4% | 60.1hPa | 2.4V | 08:30:00 | 01:38:06 | 00:00:00 | |
| DL1XH-west | 2026-09-06 00:31:24 | 56.03912 | 5.06844 | 77° | 38km/h | 19724m | 4m/s | -51.9°C | 0.4% | 60.2hPa | 2.5V | 18:12:15 | 01:38:03 | 00:00:00 | |
| DM0DOS-11 | 2026-09-06 00:31:22 | 56.03900 | 5.06734 | 77° | 35km/h | 19693m | 5.2m/s | -51.8°C | 3.8% | 60.5hPa | 2.6V | 08:30:00 | 01:37:56 | 00:00:00 | |
| BIOWL1-15 | 2026-09-06 00:31:14 | 56.03897 | 5.06686 | 85° | 37km/h | 19679m | 5.2m/s | -51.7°C | 0.4% | 60.7hPa | 2.4V | 18:12:15 | 01:37:53 | 00:00:00 | |
| DL1XH-west | 2026-09-06 00:31:13 | 56.03895 | 5.06653 | 85° | 35km/h | 19670m | 4.3m/s | -51.7°C | 0.4% | 60.7hPa | 2.5V | 18:12:15 | 01:37:51 | 00:00:00 | |
| DM0DOS-11 | 2026-09-06 00:31:12 | 56.03893 | 5.06577 | 84° | 35km/h | 19646m | 4.3m/s | -51.7°C | 3.8% | 60.9hPa | 2.6V | 08:30:00 | 01:37:46 | 00:00:00 | |
| BIOWL1-15 | 2026-09-06 00:31:07 | 56.03888 | 5.06489 | 83° | 42km/h | 19622m | 4.7m/s | -51.9°C | 0.4% | 61.2hPa | 2.5V | 18:12:15 | 01:37:41 | 00:00:00 | |
| DL1XH-west | 2026-09-06 00:31:03 | 56.03890 | 5.06508 | 82° | 42km/h | 19626m | 4.6m/s | -51.8°C | 0.4% | 61.1hPa | 2.5V | 18:12:15 | 01:37:42 | 00:00:00 | |
| DL1XH-west | 2026-09-06 00:30:52 | 56.03881 | 5.06307 | 83° | 42km/h | 19574m | 4m/s | -51.8°C | 0.4% | 61.6hPa | 2.4V | 18:12:15 | 01:37:31 | 00:00:00 | |
| BIOWL1-15 | 2026-09-06 00:30:42 | 56.03885 | 5.06117 | 96° | 37km/h | 19525m | 4m/s | -51.6°C | 0.3% | 62.1hPa | 2.6V | 18:12:15 | 01:37:21 | 00:00:00 | |
| DL1XH-west | 2026-09-06 00:30:41 | 56.03886 | 5.06101 | 98° | 35km/h | 19521m | 5.5m/s | -51.5°C | 0.4% | 62.1hPa | 2.5V | 18:12:15 | 01:37:20 | 00:00:00 | |
| BIOWL1-15 | 2026-09-06 00:30:32 | 56.03894 | 5.05957 | 95° | 35km/h | 19476m | 4.2m/s | -52°C | 0.4% | 62.6hPa | 2.4V | 18:12:15 | 01:37:11 | 00:00:00 | |
| DM0DOS-11 | 2026-09-06 00:30:32 | 56.03902 | 5.05892 | 101° | 26km/h | 19451m | 4m/s | -51.9°C | 3.9% | 62.8hPa | 2.6V | 08:30:00 | 01:37:06 | 00:00:00 | |
| DL1XH-west | 2026-09-06 00:30:31 | 56.03895 | 5.05942 | 98° | 33km/h | 19471m | 4.9m/s | -52°C | 0.4% | 62.6hPa | 2.4V | 18:12:15 | 01:37:10 | 00:00:00 | |
| BIOWL1-15 | 2026-09-06 00:30:25 | 56.03914 | 5.05810 | 102° | 38km/h | 19421m | 4.3m/s | -51.8°C | 0.4% | 63.1hPa | 2.6V | 18:12:15 | 01:37:00 | 00:00:00 | |
| GOEST3-10 | 2026-09-06 00:30:25 | 56.03905 | 5.05869 | 110° | 35km/h | 19440m | 5.1m/s | -51.8°C | 3.8% | 62.9hPa | 2.5V | 00:00:00 | 01:37:04 | 00:00:00 | |
| DM0DOS-11 | 2026-09-06 00:30:22 | 56.03929 | 5.05730 | 114° | 33km/h | 19395m | 4.1m/s | -51.8°C | 3.8% | 63.4hPa | 2.5V | 08:30:00 | 01:36:55 | 00:00:00 | |
| DL1XH-west | 2026-09-06 00:30:20 | 56.03916 | 5.05793 | 104° | 40km/h | 19416m | 5.7m/s | -51.8°C | 0.4% | 63.2hPa | 2.6V | 18:12:15 | 01:36:59 | 00:00:00 | |
| BIOWL1-15 | 2026-09-06 00:30:11 | 56.03965 | 5.05601 | 119° | 38km/h | 19351m | 5m/s | -51.7°C | 0.4% | 63.8hPa | 2.6V | 18:12:15 | 01:36:46 | 00:00:00 | |
| DL1XH-west | 2026-09-06 00:30:10 | 56.03950 | 5.05647 | 116° | 37km/h | 19365m | 5.3m/s | -51.8°C | 0.4% | 63.6hPa | 2.4V | 18:12:15 | 01:36:49 | 00:00:00 | |
| DJ2DS-15 | 2026-09-06 00:30:08 | 56.03960 | 5.05616 | 120° | 46km/h | 19356m | 4.6m/s | -51.7°C | 3.8% | 63.7hPa | 2.5V | 00:00:00 | 01:36:47 | 00:00:00 | |
| GOEST3-10 | 2026-09-06 00:30:05 | 56.03974 | 5.05569 | 118° | 42km/h | 19340m | 6.0m/s | -51.7°C | 3.8% | 63.9hPa | 2.5V | 00:00:00 | 01:36:44 | 00:00:00 | |
| DM0DOS-11 | 2026-09-06 00:30:01 | 56.04023 | 5.05408 | 119° | 47km/h | 19293m | 4.4m/s | -51.6°C | 3.8% | 64.4hPa | 2.5V | 08:30:00 | 01:36:35 | 00:00:00 | |
| DL1XH-west | 2026-09-06 00:30:00 | 56.03999 | 5.05484 | 117° | 44km/h | 19315m | 6.1m/s | -51.7°C | 0.4% | 64.2hPa | 2.6V | 18:12:15 | 01:36:39 | 00:00:00 | |
| BIOWL1-15 | 2026-09-06 00:29:58 | 56.04011 | 5.05446 | 120° | 49km/h | 19304m | 4.4m/s | -51.6°C | 0.4% | 64.3hPa | 2.4V | 18:12:15 | 01:36:37 | 00:00:00 | |
| BIOWL9-15 | 2026-09-06 00:29:58 | 56.04011 | 5.05446 | 119° | 49km/h | 19304m | 4.4m/s | -51.6°C | 1.0% | 64.3hPa | 2.5V | 00:00:00 | 00:00:00 | 00:00:00 | |
| GOEST3-10 | 2026-09-06 00:29:55 | 56.04029 | 5.05389 | 121° | 47km/h | 19289m | 4.5m/s | -51.6°C | 3.7% | 64.4hPa | 2.5V | 00:00:00 | 01:36:34 | 00:00:00 | |
| DM0DOS-11 | 2026-09-06 00:29:51 | 56.04087 | 5.05226 | 121° | 46km/h | 19242m | 4m/s | -51.8°C | 3.8% | 64.9hPa | 2.5V | 08:30:00 | 01:36:25 | 00:00:00 | |
| DL1XH-west | 2026-09-06 00:29:50 | 56.04061 | 5.05297 | 123° | 47km/h | 19262m | 6m/s | -51.8°C | 0.4% | 64.7hPa | 2.5V | 18:12:15 | 01:36:29 | 00:00:00 | |
| BIOWL1-15 | 2026-09-06 00:29:47 | 56.04094 | 5.05208 | 123° | 49km/h | 19237m | 5.2m/s | -51.8°C | 0.4% | 64.9hPa | 2.6V | 18:12:15 | 01:36:24 | 00:00:00 | |
| GOEST3-10 | 2026-09-06 00:29:45 | 56.04093 | 5.05208 | 123° | 55km/h | 19237m | 5.2m/s | -51.8°C | 3.8% | 64.9hPa | 2.6V | 00:00:00 | 01:36:24 | 00:00:00 | |
| DJ2DS-15 | 2026-09-06 00:29:42 | 56.04123 | 5.05122 | 116° | 60km/h | 19216m | 4.5m/s | -52.0°C | 1.0% | 65.1hPa | 2.4V | 00:00:00 | 00:00:00 | 00:00:00 | |
| DM0DOS-11 | 2026-09-06 00:29:41 | 56.04160 | 5.04997 | 118° | 60km/h | 19191m | 5.3m/s | -51.9°C | 3.9% | 65.4hPa | 2.4V | 08:30:00 | 01:36:15 | 00:00:00 | |
| DL1XH-west | 2026-09-06 00:29:39 | 56.04137 | 5.05072 | 118° | 64km/h | 19206m | 5.9m/s | -52°C | 0.4% | 65.2hPa | 2.6V | 18:12:15 | 01:36:18 | 00:00:00 | |
| BIOWL1-15 | 2026-09-06 00:29:37 | 56.04153 | 5.05022 | 119° | 64km/h | 19196m | 5.4m/s | -51.9°C | 0.4% | 65.3hPa | 2.4V | 18:12:15 | 01:36:16 | 00:00:00 | |
| DL1XH-west | 2026-09-06 00:29:28 | 56.04219 | 5.04814 | 116° | 58km/h | 19152m | 5.7m/s | -51.6°C | 0.4% | 65.8hPa | 2.5V | 18:12:15 | 01:36:07 | 00:00:00 | |
| BIOWL1-15 | 2026-09-06 00:29:26 | 56.04251 | 5.04686 | 116° | 66km/h | 19125m | 4.7m/s | -51.8°C | 0.4% | 66.1hPa | 2.4V | 18:12:15 | 01:36:02 | 00:00:00 | |
| DL1XH-west | 2026-09-06 00:29:18 | 56.04284 | 5.04564 | 113° | 57km/h | 19102m | 4.7m/s | -51.8°C | 0.4% | 66.3hPa | 2.6V | 18:12:15 | 01:35:57 | 00:00:00 | |
| DM0DOS-11 | 2026-09-06 00:29:15 | 56.04306 | 5.04467 | 108° | 58km/h | 19082m | 4.6m/s | -51.7°C | 3.9% | 66.5hPa | 2.5V | 08:30:00 | 01:35:53 | 00:00:00 | |
| BIOWL1-15 | 2026-09-06 00:29:12 | 56.04328 | 5.04367 | 114° | 58km/h | 19062m | 5.8m/s | -51.7°C | 0.4% | 66.7hPa | 2.5V | 18:12:15 | 01:35:49 | 00:00:00 | |
| DL1XH-west | 2026-09-06 00:29:07 | 56.04345 | 5.04293 | 113° | 62km/h | 19047m | 5.2m/s | -51.6°C | 0.4% | 66.9hPa | 2.5V | 18:12:15 | 01:35:46 | 00:00:00 | |
| DM0DOS-11 | 2026-09-06 00:29:07 | 56.04362 | 5.04212 | 107° | 66km/h | 19032m | 4.3m/s | -51.5°C | 3.8% | 67hPa | 2.6V | 08:30:00 | 01:35:43 | 00:00:00 | |
| BIOWL1-15 | 2026-09-06 00:29:00 | 56.04382 | 5.04097 | 106° | 66km/h | 19013m | 5.3m/s | -51.3°C | 0.3% | 67.2hPa | 2.5V | 18:12:15 | 01:35:39 | 00:00:00 | |
| DL1XH-west | 2026-09-06 00:28:56 | 56.04399 | 5.03992 | 108° | 58km/h | 18992m | 4.2m/s | -51.2°C | 0.3% | 67.5hPa | 2.6V | 18:12:15 | 01:35:35 | 00:00:00 | |
| DM0DOS-11 | 2026-09-06 00:28:56 | 56.04407 | 5.03943 | 104° | 57km/h | 18981m | 4.9m/s | -51.2°C | 3.8% | 67.6hPa | 2.5V | 08:30:00 | 01:35:33 | 00:00:00 | |
| BIOWL1-15 | 2026-09-06 00:28:49 | 56.04433 | 5.03761 | 104° | 60km/h | 18946m | 5.2m/s | -51.1°C | 0.3% | 67.9hPa | 2.5V | 18:12:15 | 01:35:26 | 00:00:00 | |
| DJ2DS-15 | 2026-09-06 00:28:48 | 56.04430 | 5.03787 | 103° | 58km/h | 18951m | 4.9m/s | -51.0°C | 3.7% | 67.8hPa | 2.5V | 00:00:00 | 01:35:27 | 00:00:00 | |
| DM0DOS-11 | 2026-09-06 00:28:47 | 56.04444 | 5.03683 | 102° | 58km/h | 18931m | 4.2m/s | -51.2°C | 3.8% | 68hPa | 2.5V | 08:30:00 | 01:35:23 | 00:00:00 | |
| DL1XH-west | 2026-09-06 00:28:46 | 56.04437 | 5.03735 | 104° | 58km/h | 18941m | 4m/s | -51.1°C | 0.4% | 68hPa | 2.4V | 18:12:15 | 01:35:25 | 00:00:00 | |
| BIOWL1-15 | 2026-09-06 00:28:39 | 56.04469 | 5.03466 | 102° | 60km/h | 18893m | 4m/s | -50.9°C | 0.3% | 68.5hPa | 2.6V | 18:12:15 | 01:35:15 | 00:00:00 | |
| DM0DOS-11 | 2026-09-06 00:28:36 | 56.04474 | 5.03415 | 97° | 57km/h | 18884m | 5.4m/s | -50.9°C | 3.6% | 68.6hPa | 2.4V | 08:30:00 | 01:35:13 | 00:00:00 | |
| DL1XH-west | 2026-09-06 00:28:35 | 56.04472 | 5.03440 | 101° | 58km/h | 18889m | 5.1m/s | -50.9°C | 0.3% | 68.5hPa | 2.6V | 18:12:15 | 01:35:14 | 00:00:00 | |
| GOEST3-10 | 2026-09-06 00:28:35 | 56.04472 | 5.03440 | 101° | 55km/h | 18889m | 5.1m/s | -50.8°C | 3.6% | 68.5hPa | 2.5V | 00:00:00 | 01:35:14 | 00:00:00 | |
| GOEST3-10 | 2026-09-06 00:28:30 | 56.04482 | 5.03317 | 101° | 55km/h | 18865m | 4.4m/s | -50.8°C | 3.5% | 68.7hPa | 2.5V | 00:00:00 | 00:00:00 | 08:30:00 | |
| DJ2DS-15 | 2026-09-06 00:28:29 | 56.04484 | 5.03292 | 99° | 57km/h | 18860m | 5.5m/s | -50.8°C | 0.9% | 68.8hPa | 2.6V | 00:00:00 | 00:00:00 | 00:00:00 | |
| DJ2DS-15 | 2026-09-06 00:28:28 | 56.04486 | 5.03267 | 98° | 47km/h | 18854m | 4.5m/s | -50.7°C | 3.5% | 68.8hPa | 2.6V | 00:00:00 | 01:35:07 | 00:00:00 | |
| DM0DOS-11 | 2026-09-06 00:28:27 | 56.04496 | 5.03173 | 101° | 47km/h | 18835m | 4.6m/s | -50.8°C | 3.4% | 69.1hPa | 2.5V | 08:30:00 | 01:35:03 | 00:00:00 | |
| BIOWL1-15 | 2026-09-06 00:28:27 | 56.04493 | 5.03195 | 102° | 51km/h | 18840m | 3.9m/s | -50.8°C | 0.2% | 69hPa | 2.5V | 18:12:15 | 01:35:04 | 00:00:00 | |
| DL1XH-west | 2026-09-06 00:28:24 | 56.04496 | 5.03173 | 102° | 47km/h | 18836m | 4.6m/s | -50.8°C | 0.1% | 69.1hPa | 2.5V | 18:12:15 | 01:35:03 | 00:00:00 | |
| BIOWL1-15 | 2026-09-06 00:28:17 | 56.04516 | 5.02912 | 103° | 38km/h | 18776m | 4.6m/s | -52.4°C | 0.3% | 69.8hPa | 2.5V | 18:12:15 | 01:34:51 | 00:00:00 | |
| DM0DOS-11 | 2026-09-06 00:28:17 | 56.04511 | 5.02949 | 102° | 46km/h | 18786m | 4.5m/s | -52°C | 3.7% | 69.6hPa | 2.6V | 08:30:00 | 01:34:53 | 00:00:00 | |
| DL1XH-west | 2026-09-06 00:28:13 | 56.04513 | 5.02930 | 102° | 42km/h | 18781m | 5.6m/s | -52.2°C | 0.4% | 69.7hPa | 2.4V | 18:12:15 | 01:34:52 | 00:00:00 | |
| GOEST3-10 | 2026-09-06 00:28:13 | 56.04513 | 5.02930 | 102° | 38km/h | 18781m | 5.6m/s | -52.2°C | 3.8% | 69.6hPa | 2.4V | 00:00:00 | 01:34:52 | 00:00:00 | |
| DJ2DS-15 | 2026-09-06 00:28:08 | 56.04526 | 5.02847 | 103° | 47km/h | 18756m | 4.9m/s | -52.7°C | 3.9% | 69.9hPa | 2.5V | 00:00:00 | 01:34:47 | 00:00:00 | |
| DM0DOS-11 | 2026-09-06 00:28:07 | 56.04533 | 5.02767 | 98° | 53km/h | 18737m | 4m/s | -53.1°C | 4% | 70.2hPa | 2.5V | 08:30:00 | 01:34:43 | 00:00:00 | |
| BIOWL1-15 | 2026-09-06 00:28:06 | 56.04539 | 5.02694 | 101° | 55km/h | 18723m | 5.6m/s | -53.1°C | 0.4% | 70.3hPa | 2.6V | 18:12:15 | 01:34:40 | 00:00:00 | |
| DL1XH-west | 2026-09-06 00:28:02 | 56.04537 | 5.02719 | 98° | 55km/h | 18728m | 4.4m/s | -53.1°C | 0.5% | 70.3hPa | 2.5V | 18:12:15 | 01:34:41 | 00:00:00 | |
| GOEST3-10 | 2026-09-06 00:27:58 | 56.04549 | 5.02626 | 105° | 47km/h | 18709m | 5.0m/s | -53.1°C | 4.1% | 70.4hPa | 2.5V | 00:00:00 | 00:00:00 | 00:00:00 | |
| DM0DOS-11 | 2026-09-06 00:27:56 | 56.04563 | 5.02544 | 106° | 46km/h | 18689m | 4.6m/s | -53.1°C | 4.1% | 70.7hPa | 2.6V | 08:30:00 | 01:34:33 | 00:00:00 | |
| DL1XH-west | 2026-09-06 00:27:51 | 56.04571 | 5.02484 | 103° | 46km/h | 18675m | 5.1m/s | -53.1°C | 0.5% | 70.8hPa | 2.5V | 18:12:15 | 01:34:30 | 00:00:00 | |
| DJ2DS-15 | 2026-09-06 00:27:48 | 56.04579 | 5.02426 | 105° | 40km/h | 18661m | 5.2m/s | -53.0°C | 4.0% | 70.9hPa | 2.5V | 00:00:00 | 01:34:27 | 00:00:00 | |
| DM0DOS-11 | 2026-09-06 00:27:47 | 56.04590 | 5.02353 | 105° | 44km/h | 18642m | 4.3m/s | -53.1°C | 4.1% | 71.2hPa | 2.5V | 08:30:00 | 01:34:23 | 00:00:00 | |
| BIOWL1-15 | 2026-09-06 00:27:41 | 56.04602 | 5.02258 | 103° | 42km/h | 18618m | 4.4m/s | -53.1°C | 0.5% | 71.5hPa | 2.6V | 18:12:15 | 01:34:18 | 00:00:00 | |
| DL1XH-west | 2026-09-06 00:27:40 | 56.04600 | 5.02277 | 104° | 42km/h | 18623m | 4.7m/s | -53.1°C | 0.5% | 71.4hPa | 2.6V | 18:12:15 | 01:34:19 | 00:00:00 | |
| GOEST3-10 | 2026-09-06 00:27:38 | 56.04604 | 5.02240 | 101° | 37km/h | 18613m | 5.6m/s | -53.0°C | 4.1% | 71.5hPa | 2.6V | 00:00:00 | 00:00:00 | 00:00:00 | |
| DM0DOS-11 | 2026-09-06 00:27:36 | 56.04611 | 5.02176 | 105° | 35km/h | 18594m | 4.1m/s | -52.9°C | 4% | 71.7hPa | 2.6V | 08:30:00 | 01:34:13 | 00:00:00 | |
| DL1XH-west | 2026-09-06 00:27:30 | 56.04620 | 5.02107 | 105° | 44km/h | 18575m | 5.2m/s | -52.8°C | 0.4% | 71.9hPa | 2.5V | 18:12:15 | 01:34:09 | 00:00:00 | |
| BIOWL1-15 | 2026-09-06 00:27:20 | 56.04666 | 5.01800 | 107° | 47km/h | 18493m | 5m/s | -52.7°C | 0.3% | 72.9hPa | 2.6V | 18:12:15 | 01:33:52 | 00:00:00 | |
| DL1XH-west | 2026-09-06 00:27:19 | 56.04653 | 5.01872 | 107° | 38km/h | 18512m | 4.8m/s | -52.6°C | 0.4% | 72.6hPa | 2.5V | 18:12:15 | 01:33:56 | 00:00:00 | |
| DM0DOS-11 | 2026-09-06 00:27:16 | 56.04662 | 5.01820 | 109° | 46km/h | 18497m | 4.2m/s | -52.7°C | 3.8% | 72.8hPa | 2.5V | 08:30:00 | 01:33:53 | 00:00:00 | |
| DL1XH-west | 2026-09-06 00:27:08 | 56.04684 | 5.01695 | 109° | 47km/h | 18468m | 5.4m/s | -53.1°C | 0.4% | 73.1hPa | 2.5V | 18:12:15 | 01:33:47 | 00:00:00 | |
| DJ2DS-15 | 2026-09-06 00:27:08 | 56.04684 | 5.01695 | 109° | 49km/h | 18469m | 5.4m/s | -53.0°C | 3.9% | 73.1hPa | 2.6V | 00:00:00 | 01:33:47 | 00:00:00 | |
| DM0DOS-11 | 2026-09-06 00:27:06 | 56.04699 | 5.01617 | 109° | 46km/h | 18449m | 4.1m/s | -53.3°C | 4% | 73.4hPa | 2.6V | 08:30:00 | 01:33:43 | 00:00:00 | |
| BIOWL1-15 | 2026-09-06 00:27:03 | 56.04702 | 5.01598 | 106° | 44km/h | 18444m | 5m/s | -53.4°C | 0.4% | 73.4hPa | 2.6V | 18:12:15 | 01:33:42 | 00:00:00 | |
| DL1XH-west | 2026-09-06 00:26:58 | 56.04719 | 5.01479 | 105° | 49km/h | 18416m | 3.8m/s | -53.4°C | 0.4% | 73.7hPa | 2.6V | 18:12:15 | 01:33:36 | 00:00:00 | |
| DM0DOS-11 | 2026-09-06 00:26:56 | 56.04734 | 5.01389 | 105° | 53km/h | 18396m | 4m/s | -53.5°C | 4.1% | 74hPa | 2.5V | 08:30:00 | 01:33:32 | 00:00:00 | |
| BIOWL1-15 | 2026-09-06 00:26:52 | 56.04737 | 5.01366 | 107° | 53km/h | 18391m | 4.6m/s | -53.5°C | 0.4% | 74hPa | 2.5V | 18:12:15 | 01:33:31 | 00:00:00 | |
| DL1XH-west | 2026-09-06 00:26:47 | 56.04761 | 5.01229 | 106° | 53km/h | 18364m | 5.1m/s | -53.8°C | 0.5% | 74.4hPa | 2.5V | 18:12:15 | 01:33:25 | 00:00:00 | |
| DM0DOS-11 | 2026-09-06 00:26:46 | 56.04771 | 5.01160 | 102° | 53km/h | 18350m | 5.2m/s | -53.9°C | 4.2% | 74.5hPa | 2.6V | 08:30:00 | 01:33:22 | 00:00:00 | |
| GOEST3-10 | 2026-09-06 00:26:43 | 56.04771 | 5.01160 | 103° | 57km/h | 18350m | 5.1m/s | -53.8°C | 4.2% | 74.5hPa | 2.6V | 00:00:00 | 01:33:22 | 00:00:00 | |
| DJ2DS-15 | 2026-09-06 00:26:41 | 56.04776 | 5.01111 | 99° | 57km/h | 18340m | 5.4m/s | -53.9°C | 1.2% | 74.6hPa | 2.5V | 00:00:00 | 00:00:00 | 00:00:00 | |
| BIOWL1-15 | 2026-09-06 00:26:41 | 56.04781 | 5.01058 | 98° | 58km/h | 18330m | 5.4m/s | -53.8°C | 0.5% | 74.8hPa | 2.5V | 18:12:15 | 01:33:18 | 00:00:00 | |
| GOEST3-10 | 2026-09-06 00:26:38 | 56.04783 | 5.01032 | 98° | 58km/h | 18325m | 4.2m/s | -53.8°C | 4.2% | 74.8hPa | 2.5V | 00:00:00 | 00:00:00 | 00:00:00 | |
| DM0DOS-11 | 2026-09-06 00:26:36 | 56.04797 | 5.00900 | 101° | 60km/h | 18301m | 4.4m/s | -53.9°C | 4.3% | 75.1hPa | 2.5V | 08:30:00 | 01:33:12 | 00:00:00 | |
| DL1XH-west | 2026-09-06 00:26:36 | 56.04791 | 5.00953 | 102° | 60km/h | 18311m | 4.1m/s | -53.9°C | 0.5% | 75hPa | 2.6V | 18:12:15 | 01:33:14 | 00:00:00 | |
| BIOWL1-15 | 2026-09-06 00:26:29 | 56.04809 | 5.00790 | 97° | 62km/h | 18281m | 4.6m/s | -53.8°C | 0.6% | 75.3hPa | 2.6V | 18:12:15 | 01:33:08 | 00:00:00 | |
| DJ2DS-15 | 2026-09-06 00:26:28 | 56.04810 | 5.00763 | 96° | 57km/h | 18277m | 3.8m/s | -53.7°C | 4.2% | 75.3hPa | 2.6V | 00:00:00 | 01:33:07 | 00:00:00 | |
| DM0DOS-11 | 2026-09-06 00:26:26 | 56.04816 | 5.00627 | 91° | 58km/h | 18254m | 4.3m/s | -53.6°C | 4.2% | 75.6hPa | 2.6V | 08:30:00 | 01:33:02 | 00:00:00 | |
| DL1XH-west | 2026-09-06 00:26:24 | 56.04816 | 5.00654 | 93° | 60km/h | 18259m | 4.9m/s | -53.7°C | 0.5% | 75.5hPa | 2.5V | 18:12:15 | 01:33:03 | 00:00:00 | |
| BIOWL1-15 | 2026-09-06 00:26:18 | 56.04824 | 5.00445 | 97° | 53km/h | 18221m | 5.2m/s | -53.4°C | 0.5% | 76hPa | 2.5V | 18:12:15 | 01:32:55 | 00:00:00 | |
| GOEST3-10 | 2026-09-06 00:26:18 | 56.04821 | 5.00495 | 95° | 55km/h | 18231m | 5.3m/s | -53.4°C | 4.1% | 75.9hPa | 2.6V | 00:00:00 | 00:00:00 | 00:00:00 | |
| DM0DOS-11 | 2026-09-06 00:26:16 | 56.04829 | 5.00375 | 97° | 51km/h | 18206m | 5.7m/s | -53.3°C | 4.1% | 76.2hPa | 2.6V | 08:30:00 | 01:32:52 | 00:00:00 | |
| DL1XH-west | 2026-09-06 00:26:14 | 56.04828 | 5.00398 | 99° | 51km/h | 18211m | 4.5m/s | -53.3°C | 0.5% | 76.2hPa | 2.6V | 18:12:15 | 01:32:53 | 00:00:00 | |
| GOEST3-10 | 2026-09-06 00:26:13 | 56.04829 | 5.00375 | 98° | 49km/h | 18206m | 5.6m/s | -53.2°C | 4.1% | 76.2hPa | 2.6V | 00:00:00 | 01:32:52 | 08:30:00 | |
| DJ2DS-15 | 2026-09-06 00:26:08 | 56.04835 | 5.00263 | 93° | 47km/h | 18181m | 4.6m/s | -53.1°C | 3.9% | 76.5hPa | 2.5V | 00:00:00 | 01:32:47 | 00:00:00 | |
| DM0DOS-11 | 2026-09-06 00:26:06 | 56.04842 | 5.00148 | 95° | 49km/h | 18156m | 4.3m/s | -53.2°C | 4% | 76.8hPa | 2.5V | 08:30:00 | 01:32:42 | 00:00:00 | |
| DL1XH-west | 2026-09-06 00:26:03 | 56.04842 | 5.00148 | 96° | 49km/h | 18156m | 4.3m/s | -53.2°C | 0.5% | 76.8hPa | 2.5V | 18:12:15 | 01:32:42 | 00:00:00 | |
| GOEST3-10 | 2026-09-06 00:26:03 | 56.04842 | 5.00148 | 96° | 49km/h | 18157m | 4.3m/s | -53.2°C | 4.0% | 76.7hPa | 2.5V | 00:00:00 | 01:32:42 | 00:00:00 | |
| GOEST3-10 | 2026-09-06 00:25:58 | 56.04848 | 5.00040 | 93° | 44km/h | 18132m | 5.4m/s | -53.3°C | 4.0% | 77.0hPa | 2.5V | 00:00:00 | 00:00:00 | 00:00:00 | |
| DM0DOS-11 | 2026-09-06 00:25:56 | 56.04851 | 4.99943 | 91° | 42km/h | 18106m | 5m/s | -53.6°C | 4% | 77.4hPa | 2.6V | 08:30:00 | 01:32:32 | 00:00:00 | |
| BIOWL1-15 | 2026-09-06 00:25:55 | 56.04850 | 4.99981 | 95° | 42km/h | 18117m | 3.8m/s | -53.6°C | 0.5% | 77.3hPa | 2.5V | 18:12:15 | 01:32:34 | 00:00:00 | |
| DL1XH-west | 2026-09-06 00:25:53 | 56.04852 | 4.99924 | 92° | 44km/h | 18101m | 4.4m/s | -53.6°C | 0.5% | 77.4hPa | 2.6V | 18:12:15 | 01:32:31 | 00:00:00 | |
| BIOWL9-15 | 2026-09-06 00:25:50 | 56.04854 | 4.99862 | 95° | 47km/h | 18087m | 3.7m/s | 0°C | -1.0% | -1.0hPa | 2.5V | 00:00:00 | 00:00:00 | 00:00:00 | |
| DJ2DS-15 | 2026-09-06 00:25:48 | 56.04855 | 4.99841 | 94° | 46km/h | 18083m | 6.2m/s | -53.8°C | 4.1% | 77.7hPa | 2.5V | 00:00:00 | 01:32:27 | 00:00:00 | |
| DM0DOS-11 | 2026-09-06 00:25:46 | 56.04859 | 4.99739 | 99° | 42km/h | 18056m | 5.3m/s | -54.1°C | 4.2% | 78hPa | 2.5V | 08:30:00 | 01:32:22 | 00:00:00 | |
| BIOWL1-15 | 2026-09-06 00:25:45 | 56.04859 | 4.99739 | 99° | 42km/h | 18056m | 5.3m/s | -54.1°C | 0.5% | 78hPa | 2.5V | 18:12:15 | 01:32:22 | 00:00:00 | |
| DL1XH-west | 2026-09-06 00:25:42 | 56.04861 | 4.99720 | 100° | 42km/h | 18051m | 3.9m/s | -54.1°C | 0.5% | 78.1hPa | 2.5V | 18:12:15 | 01:32:21 | 00:00:00 | |
| GOEST3-10 | 2026-09-06 00:25:38 | 56.04871 | 4.99642 | 101° | 47km/h | 18032m | 5.7m/s | -54.2°C | 4.2% | 78.2hPa | 2.6V | 00:00:00 | 00:00:00 | 00:00:00 | |
| DM0DOS-11 | 2026-09-06 00:25:36 | 56.04882 | 4.99539 | 99° | 46km/h | 18005m | 4.7m/s | -54.4°C | 4.2% | 78.6hPa | 2.6V | 08:30:00 | 01:32:12 | 00:00:00 | |
| BIOWL1-15 | 2026-09-06 00:25:33 | 56.04889 | 4.99476 | 104° | 49km/h | 17991m | 3.8m/s | -54.6°C | 0.7% | 78.8hPa | 2.5V | 18:12:15 | 01:32:09 | 00:00:00 | |
| DL1XH-west | 2026-09-06 00:25:32 | 56.04892 | 4.99455 | 102° | 49km/h | 17987m | 5.6m/s | -54.6°C | 0.7% | 78.8hPa | 2.5V | 18:12:15 | 01:32:08 | 00:00:00 | |
| GOEST3-10 | 2026-09-06 00:25:32 | 56.04894 | 4.99433 | 99° | 53km/h | 17982m | 4.5m/s | -54.5°C | 4.4% | 78.9hPa | 2.5V | 00:00:00 | 00:00:00 | 08:30:00 | |
| DJ2DS-15 | 2026-09-06 00:25:31 | 56.04894 | 4.99433 | 99° | 53km/h | 17982m | 4.5m/s | -54.5°C | 4.4% | 78.9hPa | 2.5V | 00:00:00 | 01:32:07 | 00:00:00 | |
| DM0DOS-11 | 2026-09-06 00:25:27 | 56.04902 | 4.99312 | 93° | 57km/h | 17956m | 5m/s | -54.6°C | 4.4% | 79.2hPa | 2.5V | 08:30:00 | 01:32:02 | 00:00:00 | |
| BIOWL1-15 | 2026-09-06 00:25:24 | 56.04903 | 4.99286 | 94° | 58km/h | 17950m | 5.8m/s | -54.6°C | 0.7% | 79.3hPa | 2.5V | 18:12:15 | 01:32:01 | 00:00:00 | |
| DL1XH-west | 2026-09-06 00:25:21 | 56.04905 | 4.99236 | 95° | 53km/h | 17939m | 5.6m/s | -54.5°C | 0.6% | 79.5hPa | 2.6V | 18:12:15 | 01:31:59 | 00:00:00 | |
| BIOWL1-15 | 2026-09-06 00:25:12 | 56.04912 | 4.98825 | 99° | 51km/h | 17847m | 4.5m/s | -54.1°C | 0.7% | 80.6hPa | 2.6V | 18:12:15 | 01:31:41 | 00:00:00 | |
| DL1XH-west | 2026-09-06 00:25:09 | 56.04906 | 4.98977 | 85° | 49km/h | 17882m | 4.8m/s | -54.3°C | 0.7% | 80.2hPa | 2.5V | 18:12:15 | 01:31:48 | 00:00:00 | |
| DL1XH-west | 2026-09-06 00:24:59 | 56.04915 | 4.98760 | 93° | 46km/h | 17834m | 3.7m/s | -54°C | 0.6% | 80.8hPa | 2.5V | 18:12:15 | 01:31:38 | 00:00:00 | |
| BIOWL1-15 | 2026-09-06 00:24:59 | 56.04917 | 4.98720 | 94° | 46km/h | 17824m | 5.1m/s | -54°C | 0.5% | 80.9hPa | 2.6V | 18:12:15 | 01:31:36 | 00:00:00 | |
| DL1XH-west | 2026-09-06 00:24:49 | 56.04923 | 4.98530 | 98° | 46km/h | 17781m | 4.1m/s | -53.6°C | 0.6% | 81.4hPa | 2.5V | 18:12:15 | 01:31:27 | 00:00:00 | |
| BIOWL1-15 | 2026-09-06 00:24:47 | 56.04925 | 4.98510 | 101° | 46km/h | 17776m | 4.6m/s | -53.6°C | 0.6% | 81.5hPa | 2.5V | 18:12:15 | 01:31:26 | 00:00:00 | |
| GOEST3-10 | 2026-09-06 00:24:47 | 56.04925 | 4.98510 | 102° | 46km/h | 17776m | 4.6m/s | -53.6°C | 4.2% | 81.5hPa | 2.6V | 00:00:00 | 00:00:00 | 00:00:00 | |
| DM0DOS-11 | 2026-09-06 00:24:46 | 56.04937 | 4.98429 | 104° | 46km/h | 17756m | 4.6m/s | -53.5°C | 4.1% | 81.7hPa | 2.6V | 08:30:00 | 01:31:22 | 00:00:00 | |
| DL1XH-west | 2026-09-06 00:24:37 | 56.04951 | 4.98303 | 100° | 49km/h | 17726m | 5.6m/s | -53.5°C | 0.5% | 82.1hPa | 2.5V | 18:12:15 | 01:31:16 | 00:00:00 | |
| GOEST3-10 | 2026-09-06 00:24:37 | 56.04951 | 4.98303 | 101° | 51km/h | 17727m | 5.5m/s | -53.5°C | 4.1% | 82.1hPa | 2.5V | 00:00:00 | 00:00:00 | 00:00:00 | |
| DM0DOS-11 | 2026-09-06 00:24:36 | 56.04961 | 4.98213 | 103° | 49km/h | 17706m | 3.9m/s | -53.5°C | 4.2% | 82.4hPa | 2.5V | 08:30:00 | 01:31:12 | 00:00:00 | |
| BIOWL1-15 | 2026-09-06 00:24:36 | 56.04959 | 4.98234 | 101° | 51km/h | 17711m | 5.4m/s | -53.5°C | 0.6% | 82.3hPa | 2.5V | 18:12:15 | 01:31:13 | 00:00:00 | |
| DL1XH-west | 2026-09-06 00:24:27 | 56.04991 | 4.98061 | 113° | 55km/h | 17673m | 5.7m/s | -53.4°C | 0.5% | 82.8hPa | 2.6V | 18:12:15 | 01:31:05 | 00:00:00 | |
| GOEST3-10 | 2026-09-06 00:24:27 | 56.04986 | 4.98082 | 114° | 53km/h | 17678m | 4.3m/s | -53.4°C | 4.1% | 82.7hPa | 2.5V | 00:00:00 | 00:00:00 | 00:00:00 | |
| DM0DOS-11 | 2026-09-06 00:24:26 | 56.05007 | 4.97993 | 113° | 51km/h | 17659m | 4.6m/s | -53.4°C | 4.2% | 83hPa | 2.5V | 08:30:00 | 01:31:02 | 00:00:00 | |
| BIOWL1-15 | 2026-09-06 00:24:23 | 56.05012 | 4.97972 | 113° | 49km/h | 17655m | 4m/s | -53.4°C | 0.5% | 83.1hPa | 2.5V | 18:12:15 | 01:31:01 | 00:00:00 | |
| GOEST3-10 | 2026-09-06 00:24:22 | 56.05012 | 4.97972 | 114° | 51km/h | 17655m | 3.9m/s | -53.3°C | 4.1% | 83.0hPa | 2.5V | 00:00:00 | 01:31:01 | 00:00:00 | |
| GOEST3-10 | 2026-09-06 00:24:17 | 56.05036 | 4.97865 | 110° | 55km/h | 17630m | 5.3m/s | -53.2°C | 4.1% | 83.3hPa | 2.5V | 00:00:00 | 00:00:00 | 00:00:00 | |
| DM0DOS-11 | 2026-09-06 00:24:16 | 56.05055 | 4.97771 | 110° | 57km/h | 17610m | 4.5m/s | -53.2°C | 4.1% | 83.6hPa | 2.5V | 08:30:00 | 01:30:52 | 00:00:00 | |
| DL1XH-west | 2026-09-06 00:24:16 | 56.05046 | 4.97818 | 109° | 57km/h | 17620m | 5m/s | -53.3°C | 0.5% | 83.5hPa | 2.6V | 18:12:15 | 01:30:54 | 00:00:00 | |
| BIOWL1-15 | 2026-09-06 00:24:11 | 56.05066 | 4.97722 | 111° | 57km/h | 17601m | 4.1m/s | -53.2°C | 0.5% | 83.8hPa | 2.5V | 18:12:15 | 01:30:50 | 00:00:00 | |
| DJ2DS-15 | 2026-09-06 00:24:08 | 56.05077 | 4.97653 | 105° | 55km/h | 17587m | 4.8m/s | -53.0°C | 4.1% | 83.9hPa | 2.6V | 00:00:00 | 01:30:47 | 00:00:00 | |
| GOEST3-10 | 2026-09-06 00:24:07 | 56.05081 | 4.97630 | 105° | 51km/h | 17582m | 4.2m/s | -53.0°C | 4.1% | 84.0hPa | 2.6V | 00:00:00 | 00:00:00 | 00:00:00 | |
| DM0DOS-11 | 2026-09-06 00:24:06 | 56.05093 | 4.97540 | 103° | 51km/h | 17563m | 4.4m/s | -53°C | 4.1% | 84.2hPa | 2.6V | 08:30:00 | 01:30:42 | 00:00:00 | |
| DL1XH-west | 2026-09-06 00:24:05 | 56.05090 | 4.97562 | 103° | 49km/h | 17568m | 4.2m/s | -53°C | 0.5% | 84.2hPa | 2.6V | 18:12:15 | 01:30:43 | 00:00:00 | |
| BIOWL1-15 | 2026-09-06 00:24:00 | 56.05106 | 4.97442 | 100° | 57km/h | 17545m | 4.4m/s | -52.8°C | 0.5% | 84.5hPa | 2.6V | 18:12:15 | 01:30:38 | 00:00:00 | |
| GOEST3-10 | 2026-09-06 00:23:57 | 56.05110 | 4.97392 | 99° | 55km/h | 17536m | 5.2m/s | -52.7°C | 4.0% | 84.5hPa | 2.5V | 00:00:00 | 00:00:00 | 08:30:00 | |
| DM0DOS-11 | 2026-09-06 00:23:56 | 56.05117 | 4.97293 | 96° | 55km/h | 17517m | 4.1m/s | -52.6°C | 4% | 84.8hPa | 2.6V | 08:30:00 | 01:30:32 | 00:00:00 | |
| DL1XH-west | 2026-09-06 00:23:54 | 56.05115 | 4.97317 | 95° | 53km/h | 17521m | 4m/s | -52.6°C | 0.5% | 84.8hPa | 2.6V | 18:12:15 | 01:30:33 | 00:00:00 | |
| BIOWL1-15 | 2026-09-06 00:23:49 | 56.05125 | 4.97196 | 99° | 53km/h | 17498m | 4m/s | -52.5°C | 0.4% | 85.1hPa | 2.5V | 18:12:15 | 01:30:28 | 00:00:00 | |
| DJ2DS-15 | 2026-09-06 00:23:48 | 56.05127 | 4.97172 | 100° | 53km/h | 17494m | 4.7m/s | -52.4°C | 3.9% | 85.1hPa | 2.6V | 00:00:00 | 01:30:27 | 00:00:00 | |
| GOEST3-10 | 2026-09-06 00:23:47 | 56.05129 | 4.97148 | 100° | 53km/h | 17489m | 4.9m/s | -52.4°C | 3.9% | 85.1hPa | 2.6V | 00:00:00 | 00:00:00 | 00:00:00 | |
| DM0DOS-11 | 2026-09-06 00:23:46 | 56.05137 | 4.97052 | 97° | 51km/h | 17471m | 4m/s | -52.3°C | 3.9% | 85.5hPa | 2.6V | 08:30:00 | 01:30:22 | 00:00:00 | |
| BIOWL9-15 | 2026-09-06 00:23:45 | 56.05136 | 4.97075 | 97° | 51km/h | 17475m | 3.9m/s | -52.3°C | 1.1% | 85.4hPa | 2.6V | 00:00:00 | 00:00:00 | 00:00:00 | |
| DL1XH-west | 2026-09-06 00:23:43 | 56.05137 | 4.97052 | 98° | 51km/h | 17471m | 4m/s | -52.3°C | 0.4% | 85.5hPa | 2.6V | 18:12:15 | 01:30:22 | 00:00:00 | |
| BIOWL1-15 | 2026-09-06 00:23:37 | 56.05152 | 4.96862 | 95° | 55km/h | 17435m | 5m/s | -52.2°C | 0.3% | 85.9hPa | 2.5V | 18:12:15 | 01:30:14 | 00:00:00 | |
| GOEST3-10 | 2026-09-06 00:23:37 | 56.05149 | 4.96912 | 99° | 55km/h | 17443m | 4.5m/s | -52.1°C | 3.8% | 85.7hPa | 2.5V | 00:00:00 | 00:00:00 | 00:00:00 | |
| DM0DOS-11 | 2026-09-06 00:23:36 | 56.05154 | 4.96813 | 93° | 55km/h | 17425m | 5m/s | -52.4°C | 3.9% | 86hPa | 2.5V | 08:30:00 | 01:30:12 | 00:00:00 | |
| DL1XH-west | 2026-09-06 00:23:33 | 56.05155 | 4.96788 | 93° | 57km/h | 17420m | 4.6m/s | -52.5°C | 0.4% | 86.1hPa | 2.6V | 18:12:15 | 01:30:11 | 00:00:00 | |
| BIOWL1-15 | 2026-09-06 00:23:27 | 56.05155 | 4.96637 | 86° | 57km/h | 17394m | 5m/s | -52.6°C | 0.4% | 86.5hPa | 2.6V | 18:12:15 | 01:30:05 | 00:00:00 | |
| DM0DOS-11 | 2026-09-06 00:23:26 | 56.05152 | 4.96566 | 86° | 53km/h | 17380m | 5.5m/s | -52.7°C | 3.9% | 86.7hPa | 2.5V | 08:30:00 | 01:30:02 | 00:00:00 | |
| DL1XH-west | 2026-09-06 00:23:22 | 56.05151 | 4.96517 | 90° | 53km/h | 17372m | 3.4m/s | -52.7°C | 0.4% | 86.8hPa | 2.6V | 18:12:15 | 01:30:00 | 00:00:00 | |
| GOEST3-10 | 2026-09-06 00:23:17 | 56.05151 | 4.96424 | 90° | 53km/h | 17355m | 4.5m/s | -52.7°C | 3.9% | 87.0hPa | 2.5V | 00:00:00 | 00:00:00 | 00:00:00 | |
| DM0DOS-11 | 2026-09-06 00:23:16 | 56.05149 | 4.96329 | 87° | 51km/h | 17338m | 3.3m/s | -52.7°C | 3.9% | 87.2hPa | 2.5V | 08:30:00 | 01:29:52 | 00:00:00 | |
| BIOWL1-15 | 2026-09-06 00:23:15 | 56.05149 | 4.96329 | 87° | 51km/h | 17338m | 3.3m/s | -52.7°C | 0.4% | 87.2hPa | 2.5V | 18:12:15 | 01:29:52 | 00:00:00 | |
| DL1XH-west | 2026-09-06 00:23:11 | 56.05149 | 4.96283 | 93° | 51km/h | 17330m | 3.7m/s | -52.7°C | 0.5% | 87.4hPa | 2.6V | 18:12:15 | 01:29:50 | 00:00:00 | |
| BIOWL1-15 | 2026-09-06 00:23:04 | 56.05165 | 4.96087 | 98° | 49km/h | 17289m | 4.5m/s | -52.8°C | 0.3% | 87.9hPa | 2.5V | 18:12:15 | 01:29:41 | 00:00:00 | |
| DM0DOS-11 | 2026-09-06 00:23:03 | 56.05172 | 4.95996 | 98° | 47km/h | 17271m | 4.3m/s | -53.1°C | 3.9% | 88.1hPa | 2.5V | 08:30:00 | 01:29:37 | 00:00:00 | |
| DL1XH-west | 2026-09-06 00:23:01 | 56.05167 | 4.96064 | 98° | 51km/h | 17284m | 5m/s | -52.9°C | 0.3% | 88hPa | 2.5V | 18:12:15 | 01:29:40 | 00:00:00 | |
| BIOWL1-15 | 2026-09-06 00:22:54 | 56.05182 | 4.95914 | 108° | 47km/h | 17255m | 3.7m/s | -53.2°C | 0.4% | 88.4hPa | 2.6V | 18:12:15 | 01:29:33 | 00:00:00 | |
| DL1XH-west | 2026-09-06 00:22:51 | 56.05194 | 4.95857 | 111° | 46km/h | 17241m | 4.6m/s | -53.3°C | 0.4% | 88.6hPa | 2.5V | 18:12:15 | 01:29:30 | 00:00:00 | |
| DJ2DS-15 | 2026-09-06 00:22:48 | 56.05206 | 4.95796 | 110° | 53km/h | 17229m | 5.2m/s | -53.4°C | 4.0% | 88.7hPa | 2.5V | 00:00:00 | 01:29:27 | 00:00:00 | |
| GOEST3-10 | 2026-09-06 00:22:47 | 56.05210 | 4.95776 | 112° | 47km/h | 17224m | 4.0m/s | -53.5°C | 4.1% | 88.7hPa | 2.5V | 00:00:00 | 00:00:00 | 00:00:00 | |
| DM0DOS-11 | 2026-09-06 00:22:46 | 56.05219 | 4.95737 | 113° | 46km/h | 17215m | 4.2m/s | -53.7°C | 4.1% | 88.9hPa | 2.5V | 08:30:00 | 01:29:24 | 00:00:00 | |
| DL1XH-west | 2026-09-06 00:22:41 | 56.05239 | 4.95661 | 119° | 47km/h | 17199m | 3.7m/s | -53.9°C | 0.5% | 89.1hPa | 2.5V | 18:12:15 | 01:29:20 | 00:00:00 | |
| BIOWL1-15 | 2026-09-06 00:22:31 | 56.05297 | 4.95432 | 117° | 55km/h | 17156m | 3.4m/s | -54.2°C | 0.5% | 89.7hPa | 2.5V | 18:12:15 | 01:29:10 | 00:00:00 | |
| DL1XH-west | 2026-09-06 00:22:30 | 56.05303 | 4.95411 | 117° | 53km/h | 17151m | 5m/s | -54.2°C | 0.4% | 89.8hPa | 2.6V | 18:12:15 | 01:29:09 | 00:00:00 | |
| BIOWL1-15 | 2026-09-06 00:22:20 | 56.05393 | 4.95122 | 114° | 64km/h | 17098m | 3.9m/s | -54.3°C | 0.6% | 90.5hPa | 2.5V | 18:12:15 | 01:28:57 | 00:00:00 | |
| DL1XH-west | 2026-09-06 00:22:19 | 56.05387 | 4.95148 | 116° | 64km/h | 17103m | 4.8m/s | -54.3°C | 0.6% | 90.5hPa | 2.5V | 18:12:15 | 01:28:58 | 00:00:00 | |
| DL1XH-west | 2026-09-06 00:22:09 | 56.05465 | 4.94884 | 118° | 68km/h | 17059m | 5.2m/s | -54.4°C | 0.7% | 91.1hPa | 2.6V | 18:12:15 | 01:28:48 | 00:00:00 | |
| BIOWL1-15 | 2026-09-06 00:22:07 | 56.05480 | 4.94830 | 116° | 68km/h | 17051m | 4.5m/s | -54.4°C | 0.6% | 91.2hPa | 2.5V | 18:12:15 | 01:28:46 | 00:00:00 | |
| DL1XH-west | 2026-09-06 00:21:59 | 56.05544 | 4.94614 | 118° | 68km/h | 17015m | 5.9m/s | -54.2°C | 0.6% | 91.7hPa | 2.6V | 18:12:15 | 01:28:38 | 00:00:00 | |
| BIOWL1-15 | 2026-09-06 00:21:56 | 56.05579 | 4.94478 | 113° | 66km/h | 16993m | 4.9m/s | -54.2°C | 0.6% | 92.1hPa | 2.6V | 18:12:15 | 01:28:33 | 00:00:00 | |
| DL1XH-west | 2026-09-06 00:21:48 | 56.05618 | 4.94317 | 112° | 66km/h | 16965m | 4.8m/s | -54.3°C | 0.6% | 92.5hPa | 2.6V | 18:12:15 | 01:28:27 | 00:00:00 | |
| DJ2DS-15 | 2026-09-06 00:21:48 | 56.05618 | 4.94317 | 112° | 66km/h | 16966m | 4.8m/s | -54.2°C | 4.3% | 92.4hPa | 2.6V | 00:00:00 | 01:28:27 | 00:00:00 | |
| GOEST3-10 | 2026-09-06 00:21:47 | 56.05625 | 4.94290 | 113° | 68km/h | 16961m | 4.8m/s | -54.2°C | 4.3% | 92.5hPa | 2.6V | 00:00:00 | 00:00:00 | 08:30:00 | |
| DM0DOS-11 | 2026-09-06 00:21:46 | 56.05649 | 4.94178 | 112° | 69km/h | 16942m | 4.9m/s | -54.2°C | 4.3% | 92.8hPa | 2.5V | 08:30:00 | 01:28:22 | 00:00:00 | |
| BIOWL1-15 | 2026-09-06 00:21:44 | 56.05643 | 4.94207 | 110° | 68km/h | 16947m | 4.2m/s | -54.2°C | 0.6% | 92.7hPa | 2.5V | 18:12:15 | 01:28:23 | 00:00:00 | |
| DL1XH-west | 2026-09-06 00:21:37 | 56.05686 | 4.94008 | 107° | 64km/h | 16914m | 4.5m/s | -54.1°C | 0.6% | 93.2hPa | 2.5V | 18:12:15 | 01:28:16 | 00:00:00 | |
| DM0DOS-11 | 2026-09-06 00:21:36 | 56.05703 | 4.93896 | 105° | 66km/h | 16896m | 4.8m/s | -53.9°C | 4.2% | 93.5hPa | 2.6V | 08:30:00 | 01:28:12 | 00:00:00 | |
| DL1XH-west | 2026-09-06 00:21:27 | 56.05740 | 4.93693 | 108° | 66km/h | 16864m | 4.6m/s | -53.9°C | 0.6% | 93.9hPa | 2.6V | 18:12:15 | 01:28:05 | 00:00:00 | |
| DM0DOS-11 | 2026-09-06 00:21:26 | 56.05752 | 4.93611 | 103° | 60km/h | 16851m | 4.3m/s | -54°C | 4.3% | 94.1hPa | 2.5V | 08:30:00 | 01:28:02 | 00:00:00 | |
| BIOWL1-15 | 2026-09-06 00:21:16 | 56.05805 | 4.93217 | 99° | 62km/h | 16787m | 3.9m/s | -53.9°C | 0.6% | 95.1hPa | 2.6V | 18:12:15 | 01:27:48 | 00:00:00 | |
| DM0DOS-11 | 2026-09-06 00:21:16 | 56.05791 | 4.93329 | 103° | 68km/h | 16807m | 3.9m/s | -53.9°C | 4.2% | 94.8hPa | 2.5V | 08:30:00 | 01:27:52 | 00:00:00 | |
| DL1XH-west | 2026-09-06 00:21:15 | 56.05787 | 4.93359 | 104° | 69km/h | 16811m | 4.2m/s | -54°C | 0.5% | 94.7hPa | 2.5V | 18:12:15 | 01:27:53 | 00:00:00 | |
| GOEST3-10 | 2026-09-06 00:21:15 | 56.05783 | 4.93388 | 107° | 66km/h | 16816m | 5.5m/s | -53.9°C | 4.2% | 94.6hPa | 2.5V | 00:00:00 | 00:00:00 | 00:00:00 | |
| GOEST3-10 | 2026-09-06 00:21:10 | 56.05802 | 4.93245 | 101° | 60km/h | 16793m | 5.4m/s | -53.8°C | 4.3% | 94.9hPa | 2.5V | 00:00:00 | 01:27:49 | 00:00:00 | |
| DJ2DS-15 | 2026-09-06 00:21:08 | 56.05807 | 4.93190 | 99° | 57km/h | 16783m | 4.9m/s | -53.8°C | 4.2% | 95.1hPa | 2.5V | 00:00:00 | 01:27:47 | 00:00:00 | |
| DM0DOS-11 | 2026-09-06 00:21:06 | 56.05821 | 4.93056 | 102° | 62km/h | 16760m | 3.8m/s | -53.9°C | 4.2% | 95.5hPa | 2.5V | 08:30:00 | 01:27:42 | 00:00:00 | |
| DL1XH-west | 2026-09-06 00:21:05 | 56.05818 | 4.93084 | 101° | 62km/h | 16764m | 3.4m/s | -53.9°C | 0.5% | 95.4hPa | 2.5V | 18:12:15 | 01:27:43 | 00:00:00 | |
| BIOWL1-15 | 2026-09-06 00:21:03 | 56.05841 | 4.92930 | 106° | 57km/h | 16737m | 4.3m/s | -53.9°C | 0.6% | 95.8hPa | 2.5V | 18:12:15 | 01:27:37 | 00:00:00 | |
| DL1XH-west | 2026-09-06 00:20:55 | 56.05850 | 4.92859 | 102° | 55km/h | 16723m | 5.3m/s | -53.9°C | 0.5% | 96hPa | 2.5V | 18:12:15 | 01:27:34 | 00:00:00 | |
| BIOWL1-15 | 2026-09-06 00:20:49 | 56.05865 | 4.92711 | 102° | 58km/h | 16695m | 4.2m/s | -53.9°C | 0.5% | 96.5hPa | 2.5V | 18:12:15 | 01:27:28 | 00:00:00 | |
| DJ2DS-15 | 2026-09-06 00:20:48 | 56.05869 | 4.92686 | 103° | 57km/h | 16690m | 4.5m/s | -53.8°C | 4.2% | 96.5hPa | 2.5V | 00:00:00 | 01:27:27 | 00:00:00 | |
| DM0DOS-11 | 2026-09-06 00:20:46 | 56.05887 | 4.92566 | 108° | 55km/h | 16667m | 5.2m/s | -53.9°C | 4.2% | 96.9hPa | 2.5V | 08:30:00 | 01:27:22 | 00:00:00 | |
| DL1XH-west | 2026-09-06 00:20:45 | 56.05879 | 4.92614 | 105° | 57km/h | 16677m | 4.9m/s | -53.9°C | 0.6% | 96.7hPa | 2.6V | 18:12:15 | 01:27:24 | 00:00:00 | |
| BIOWL1-15 | 2026-09-06 00:20:41 | 56.05912 | 4.92429 | 108° | 53km/h | 16638m | 3.4m/s | -53.8°C | 0.5% | 97.3hPa | 2.6V | 18:12:15 | 01:27:16 | 00:00:00 | |
| DL1XH-west | 2026-09-06 00:20:34 | 56.05926 | 4.92355 | 112° | 60km/h | 16623m | 5.7m/s | -53.9°C | 0.6% | 97.5hPa | 2.5V | 18:12:15 | 01:27:13 | 00:00:00 | |
| BIOWL1-15 | 2026-09-06 00:20:28 | 56.05974 | 4.92163 | 110° | 57km/h | 16584m | 5.1m/s | -54°C | 0.6% | 98.1hPa | 2.5V | 18:12:15 | 01:27:05 | 00:00:00 | |
| DL1XH-west | 2026-09-06 00:20:23 | 56.05988 | 4.92091 | 110° | 57km/h | 16570m | 3.3m/s | -54°C | 0.7% | 98.3hPa | 2.5V | 18:12:15 | 01:27:02 | 00:00:00 | |
| BIOWL1-15 | 2026-09-06 00:20:21 | 56.06024 | 4.91942 | 117° | 62km/h | 16541m | 5.6m/s | -53.9°C | 0.6% | 98.8hPa | 2.5V | 18:12:15 | 01:26:56 | 00:00:00 | |
| DL1XH-west | 2026-09-06 00:20:13 | 56.06053 | 4.91841 | 115° | 64km/h | 16522m | 5.1m/s | -53.9°C | 0.6% | 99.1hPa | 2.6V | 18:12:15 | 01:26:52 | 00:00:00 | |
| BIOWL1-15 | 2026-09-06 00:20:09 | 56.06090 | 4.91674 | 112° | 69km/h | 16492m | 4.2m/s | -53.9°C | 0.6% | 99.5hPa | 2.5V | 18:12:15 | 01:26:46 | 00:00:00 | |
| DL1XH-west | 2026-09-06 00:20:02 | 56.06128 | 4.91531 | 116° | 73km/h | 16467m | 4.8m/s | -54°C | 0.6% | 99.9hPa | 2.5V | 18:12:15 | 01:26:41 | 00:00:00 | |
| BIOWL1-15 | 2026-09-06 00:19:57 | 56.06168 | 4.91381 | 115° | 75km/h | 16442m | 3.9m/s | -54.3°C | 0.7% | 100.3hPa | 2.6V | 18:12:15 | 01:26:36 | 00:00:00 | |
| DM0DOS-11 | 2026-09-06 00:19:56 | 56.06199 | 4.91260 | 112° | 75km/h | 16423m | 5.2m/s | -54.3°C | 4.3% | 100.6hPa | 2.5V | 08:30:00 | 01:26:32 | 00:00:00 | |
| DL1XH-west | 2026-09-06 00:19:52 | 56.06206 | 4.91230 | 113° | 73km/h | 16418m | 4.2m/s | -54.3°C | 0.7% | 100.7hPa | 2.5V | 18:12:15 | 01:26:31 | 00:00:00 | |
| BIOWL1-15 | 2026-09-06 00:19:47 | 56.06240 | 4.91077 | 111° | 73km/h | 16394m | 4.6m/s | -54.2°C | 0.7% | 101.1hPa | 2.5V | 18:12:15 | 01:26:26 | 00:00:00 | |
| DM0DOS-11 | 2026-09-06 00:19:46 | 56.06266 | 4.90958 | 110° | 71km/h | 16375m | 4.1m/s | -54.4°C | 4.3% | 101.4hPa | 2.5V | 08:30:00 | 01:26:22 | 00:00:00 | |
| DL1XH-west | 2026-09-06 00:19:41 | 56.06279 | 4.90899 | 112° | 69km/h | 16365m | 4.5m/s | -54.4°C | 0.7% | 101.5hPa | 2.6V | 18:12:15 | 01:26:20 | 00:00:00 | |
| BIOWL1-15 | 2026-09-06 00:19:37 | 56.06323 | 4.90690 | 108° | 69km/h | 16331m | 3.9m/s | -54.5°C | 0.7% | 102.1hPa | 2.6V | 18:12:15 | 01:26:13 | 00:00:00 | |
| DM0DOS-11 | 2026-09-06 00:19:36 | 56.06328 | 4.90660 | 107° | 68km/h | 16326m | 5.7m/s | -54.6°C | 4.3% | 102.2hPa | 2.6V | 08:30:00 | 01:26:12 | 00:00:00 | |
| DL1XH-west | 2026-09-06 00:19:31 | 56.06339 | 4.90604 | 110° | 64km/h | 16317m | 4.5m/s | -54.8°C | 0.7% | 102.3hPa | 2.5V | 18:12:15 | 01:26:10 | 00:00:00 | |
| DJ2DS-15 | 2026-09-06 00:19:28 | 56.06356 | 4.90519 | 112° | 71km/h | 16303m | 4.9m/s | -54.9°C | 4.4% | 102.5hPa | 2.5V | 00:00:00 | 01:26:07 | 00:00:00 | |
| GOEST3-10 | 2026-09-06 00:19:27 | 56.06363 | 4.90490 | 114° | 71km/h | 16298m | 4.3m/s | 0°C | 0% | 0hPa | 2.5V | 00:00:00 | 00:00:00 | 00:00:00 | |
| DM0DOS-11 | 2026-09-06 00:19:26 | 56.06391 | 4.90374 | 112° | 71km/h | 16278m | 5.5m/s | -55.1°C | 4.5% | 102.9hPa | 2.5V | 08:30:00 | 01:26:02 | 00:00:00 | |
| BIOWL1-15 | 2026-09-06 00:19:24 | 56.06384 | 4.90404 | 113° | 73km/h | 16283m | 4m/s | -55.1°C | 0.8% | 102.8hPa | 2.6V | 18:12:15 | 01:26:03 | 00:00:00 | |
| DL1XH-west | 2026-09-06 00:19:20 | 56.06410 | 4.90288 | 109° | 68km/h | 16265m | 5.4m/s | -55.3°C | 0.8% | 103.1hPa | 2.5V | 18:12:15 | 01:25:59 | 00:00:00 | |
| DM0DOS-11 | 2026-09-06 00:19:16 | 56.06453 | 4.90077 | 112° | 73km/h | 16231m | 5.3m/s | -55.5°C | 4.5% | 103.7hPa | 2.5V | 08:30:00 | 01:25:52 | 00:00:00 | |
| BIOWL1-15 | 2026-09-06 00:19:14 | 56.06461 | 4.90047 | 113° | 73km/h | 16226m | 4.1m/s | -55.5°C | 0.8% | 103.8hPa | 2.5V | 18:12:15 | 01:25:51 | 00:00:00 | |
| DL1XH-west | 2026-09-06 00:19:10 | 56.06475 | 4.89985 | 111° | 75km/h | 16216m | 4.3m/s | -55.5°C | 0.8% | 103.9hPa | 2.6V | 18:12:15 | 01:25:49 | 00:00:00 | |
| DJ2DS-15 | 2026-09-06 00:19:08 | 56.06489 | 4.89922 | 113° | 71km/h | 16208m | 5.2m/s | -55.5°C | 4.6% | 104.0hPa | 2.5V | 00:00:00 | 01:25:47 | 00:00:00 | |
| DM0DOS-11 | 2026-09-06 00:19:04 | 56.06542 | 4.89640 | 104° | 71km/h | 16165m | 4.2m/s | -55.9°C | 4.7% | 104.7hPa | 2.5V | 08:30:00 | 01:25:38 | 00:00:00 | |
| BIOWL1-15 | 2026-09-06 00:18:59 | 56.06562 | 4.89521 | 108° | 69km/h | 16147m | 3.9m/s | -56.1°C | 0.9% | 105.1hPa | 2.5V | 18:12:15 | 01:25:34 | 00:00:00 | |
| DL1XH-west | 2026-09-06 00:18:59 | 56.06542 | 4.89640 | 105° | 71km/h | 16165m | 4.2m/s | -55.9°C | 0.8% | 104.7hPa | 2.5V | 18:12:15 | 01:25:38 | 00:00:00 | |
| GOEST3-10 | 2026-09-06 00:18:57 | 56.06551 | 4.89580 | 109° | 69km/h | 16156m | 4.0m/s | 0°C | 0% | 0hPa | 2.5V | 00:00:00 | 00:00:00 | 00:00:00 | |
| DM0DOS-11 | 2026-09-06 00:18:54 | 56.06598 | 4.89343 | 109° | 68km/h | 16119m | 3.4m/s | -56°C | 4.8% | 105.6hPa | 2.5V | 08:30:00 | 01:25:28 | 00:00:00 | |
| DL1XH-west | 2026-09-06 00:18:49 | 56.06598 | 4.89343 | 110° | 68km/h | 16119m | 3.4m/s | -56°C | 1% | 105.6hPa | 2.5V | 18:12:15 | 01:25:28 | 00:00:00 | |
| DJ2DS-15 | 2026-09-06 00:18:48 | 56.06604 | 4.89315 | 112° | 62km/h | 16115m | 5.0m/s | -55.9°C | 4.8% | 105.5hPa | 2.5V | 00:00:00 | 01:25:27 | 00:00:00 | |
| DM0DOS-11 | 2026-09-06 00:18:44 | 56.06665 | 4.89082 | 118° | 66km/h | 16073m | 5.1m/s | -55.8°C | 4.8% | 106.3hPa | 2.5V | 08:30:00 | 01:25:18 | 00:00:00 | |
| DL1XH-west | 2026-09-06 00:18:39 | 56.06665 | 4.89082 | 118° | 66km/h | 16073m | 5.1m/s | -55.8°C | 1% | 106.3hPa | 2.5V | 18:12:15 | 01:25:18 | 00:00:00 | |
| GOEST3-10 | 2026-09-06 00:18:37 | 56.06680 | 4.89030 | 118° | 68km/h | 16064m | 4.9m/s | 0°C | 0% | 0hPa | 2.6V | 00:00:00 | 00:00:00 | 00:00:00 | |
| DM0DOS-11 | 2026-09-06 00:18:34 | 56.06738 | 4.88839 | 123° | 57km/h | 16027m | 3.9m/s | -55.5°C | 4.7% | 107.1hPa | 2.6V | 08:30:00 | 01:25:08 | 00:00:00 | |
| DL1XH-west | 2026-09-06 00:18:29 | 56.06738 | 4.88839 | 123° | 57km/h | 16027m | 3.9m/s | -55.5°C | 1% | 107.1hPa | 2.6V | 18:12:15 | 01:25:08 | 00:00:00 | |
| DJ2DS-15 | 2026-09-06 00:18:28 | 56.06746 | 4.88818 | 124° | 64km/h | 16023m | 3.9m/s | -55.4°C | 4.7% | 107.1hPa | 2.6V | 00:00:00 | 01:25:07 | 08:30:00 | |
| DM0DOS-11 | 2026-09-06 00:18:24 | 56.06824 | 4.88602 | 122° | 62km/h | 15983m | 4.8m/s | -55.4°C | 4.6% | 107.8hPa | 2.5V | 08:30:00 | 01:24:58 | 00:00:00 | |
| DL1XH-west | 2026-09-06 00:18:19 | 56.06825 | 4.88602 | 122° | 62km/h | 15983m | 4.8m/s | -55.4°C | 0.9% | 107.8hPa | 2.5V | 18:12:15 | 01:24:58 | 00:00:00 | |
| DJ2DS-15 | 2026-09-06 00:18:16 | 56.06848 | 4.88531 | 119° | 60km/h | 15969m | 4.0m/s | -55.4°C | 1.5% | 108.0hPa | 2.5V | 00:00:00 | 00:00:00 | 00:00:00 | |
| DM0DOS-11 | 2026-09-06 00:18:14 | 56.06911 | 4.88361 | 126° | 68km/h | 15938m | 4.3m/s | -55.4°C | 4.7% | 108.6hPa | 2.5V | 08:30:00 | 01:24:48 | 00:00:00 | |
| DL1XH-west | 2026-09-06 00:18:08 | 56.06921 | 4.88336 | 126° | 69km/h | 15934m | 5.2m/s | -55.5°C | 0.9% | 108.7hPa | 2.5V | 18:12:15 | 01:24:47 | 00:00:00 | |
| DJ2DS-15 | 2026-09-06 00:18:08 | 56.06921 | 4.88336 | 126° | 69km/h | 15934m | 5.2m/s | -55.5°C | 4.7% | 108.6hPa | 2.5V | 00:00:00 | 01:24:47 | 00:00:00 | |
| DM0DOS-11 | 2026-09-06 00:18:02 | 56.07028 | 4.88070 | 127° | 69km/h | 15885m | 4.7m/s | -55.4°C | 4.7% | 109.5hPa | 2.5V | 08:30:00 | 01:24:36 | 00:00:00 | |
| DL1XH-west | 2026-09-06 00:17:57 | 56.07028 | 4.88070 | 128° | 69km/h | 15886m | 4.7m/s | -55.4°C | 1% | 109.5hPa | 2.5V | 18:12:15 | 01:24:36 | 00:00:00 | |
| DM0DOS-11 | 2026-09-06 00:17:52 | 56.07136 | 4.87796 | 126° | 71km/h | 15843m | 4.2m/s | -55.2°C | 4.5% | 110.2hPa | 2.6V | 08:30:00 | 01:24:26 | 00:00:00 | |
| DL1XH-west | 2026-09-06 00:17:46 | 56.07146 | 4.87771 | 126° | 71km/h | 15839m | 4m/s | -55.2°C | 0.9% | 110.3hPa | 2.5V | 18:12:15 | 01:24:25 | 00:00:00 | |
| BIOWL1-15 | 2026-09-06 00:17:42 | 56.07213 | 4.87605 | 125° | 77km/h | 15813m | 4.6m/s | -55.3°C | 0.9% | 110.8hPa | 2.5V | 18:12:15 | 01:24:19 | 00:00:00 | |
| DM0DOS-11 | 2026-09-06 00:17:42 | 56.07246 | 4.87520 | 124° | 77km/h | 15799m | 4.9m/s | -55.5°C | 4.5% | 111hPa | 2.6V | 08:30:00 | 01:24:16 | 00:00:00 | |
| DL1XH-west | 2026-09-06 00:17:35 | 56.07268 | 4.87461 | 123° | 80km/h | 15790m | 3.8m/s | -56°C | 1% | 111.1hPa | 2.5V | 18:12:15 | 01:24:14 | 00:00:00 | |
| BIOWL9-15 | 2026-09-06 00:17:33 | 56.07303 | 4.87367 | 124° | 86km/h | 15778m | 3.9m/s | -56.2°C | 1.6% | 111.3hPa | 2.5V | 00:00:00 | 00:00:00 | 00:00:00 | |
| DM0DOS-11 | 2026-09-06 00:17:32 | 56.07361 | 4.87197 | 119° | 86km/h | 15757m | 3.6m/s | -56.4°C | 5% | 111.7hPa | 2.5V | 08:30:00 | 01:24:06 | 00:00:00 | |
| BIOWL1-15 | 2026-09-06 00:17:29 | 56.07339 | 4.87265 | 121° | 89km/h | 15765m | 4.5m/s | -56.3°C | 1.1% | 111.6hPa | 2.5V | 18:12:15 | 01:24:08 | 00:00:00 | |
| DL1XH-west | 2026-09-06 00:17:24 | 56.07389 | 4.87095 | 116° | 82km/h | 15744m | 5.1m/s | -56.4°C | 1.2% | 111.9hPa | 2.6V | 18:12:15 | 01:24:03 | 00:00:00 | |
| BIOWL1-15 | 2026-09-06 00:17:18 | 56.07463 | 4.86827 | 120° | 88km/h | 15710m | 4m/s | -56.6°C | 1.2% | 112.5hPa | 2.6V | 18:12:15 | 01:23:55 | 00:00:00 | |
| DM0DOS-11 | 2026-09-06 00:17:16 | 56.07474 | 4.86793 | 120° | 86km/h | 15705m | 4.6m/s | -56.6°C | 5% | 112.6hPa | 2.5V | 08:30:00 | 01:23:54 | 00:00:00 | |
| DL1XH-west | 2026-09-06 00:17:13 | 56.07496 | 4.86727 | 120° | 84km/h | 15697m | 5m/s | -56.7°C | 1.2% | 112.8hPa | 2.5V | 18:12:15 | 01:23:52 | 00:00:00 | |
| BIOWL1-15 | 2026-09-06 00:17:08 | 56.07571 | 4.86471 | 118° | 77km/h | 15664m | 3.5m/s | -56.5°C | 1.2% | 113.3hPa | 2.5V | 18:12:15 | 01:23:44 | 00:00:00 | |
| DM0DOS-11 | 2026-09-06 00:17:06 | 56.07571 | 4.86471 | 118° | 77km/h | 15664m | 3.5m/s | -56.5°C | 5% | 113.3hPa | 2.5V | 08:30:00 | 01:23:44 | 00:00:00 | |
| DL1XH-west | 2026-09-06 00:17:03 | 56.07598 | 4.86377 | 118° | 80km/h | 15652m | 3.6m/s | -56.5°C | 1.1% | 113.6hPa | 2.6V | 18:12:15 | 01:23:41 | 00:00:00 | |
| BIOWL9-15 | 2026-09-06 00:17:02 | 56.07608 | 4.86345 | 118° | 78km/h | 15648m | 5.0m/s | -56.5°C | 1.6% | 113.6hPa | 2.5V | 00:00:00 | 00:00:00 | 00:00:00 | |
| DM0DOS-11 | 2026-09-06 00:16:56 | 56.07664 | 4.86149 | 116° | 82km/h | 15623m | 3m/s | -56.5°C | 4.9% | 114.1hPa | 2.5V | 08:30:00 | 01:23:34 | 00:00:00 | |
| BIOWL1-15 | 2026-09-06 00:16:55 | 56.07665 | 4.86149 | 117° | 82km/h | 15623m | 3m/s | -56.5°C | 1.1% | 114.1hPa | 2.5V | 18:12:15 | 01:23:34 | 00:00:00 | |
| DL1XH-west | 2026-09-06 00:16:51 | 56.07700 | 4.86015 | 117° | 78km/h | 15607m | 3.8m/s | -56.5°C | 1.2% | 114.4hPa | 2.5V | 18:12:15 | 01:23:30 | 00:00:00 | |
| DM0DOS-11 | 2026-09-06 00:16:47 | 56.07750 | 4.85826 | 116° | 78km/h | 15583m | 4.1m/s | -56.6°C | 5% | 114.8hPa | 2.6V | 08:30:00 | 01:23:24 | 00:00:00 | |
| BIOWL1-15 | 2026-09-06 00:16:45 | 56.07768 | 4.85761 | 116° | 82km/h | 15575m | 3.9m/s | -56.6°C | 1.3% | 115hPa | 2.5V | 18:12:15 | 01:23:22 | 00:00:00 | |
| DL1XH-west | 2026-09-06 00:16:41 | 56.07786 | 4.85696 | 117° | 78km/h | 15567m | 3.6m/s | -56.6°C | 1.2% | 115.1hPa | 2.5V | 18:12:15 | 01:23:20 | 00:00:00 | |
| BIOWL1-15 | 2026-09-06 00:16:35 | 56.07834 | 4.85520 | 116° | 69km/h | 15540m | 3.1m/s | -56.6°C | 1.2% | 115.6hPa | 2.5V | 18:12:15 | 01:23:14 | 00:00:00 | |
| DL1XH-west | 2026-09-06 00:16:30 | 56.07875 | 4.85375 | 117° | 75km/h | 15519m | 3.1m/s | -56.7°C | 1.2% | 116hPa | 2.5V | 18:12:15 | 01:23:09 | 00:00:00 | |
| DJ2DS-15 | 2026-09-06 00:16:28 | 56.07893 | 4.85316 | 119° | 73km/h | 15511m | 3.7m/s | -56.8°C | 1.7% | 116.1hPa | 2.6V | 00:00:00 | 00:00:00 | 00:00:00 | |
| DJ2DS-15 | 2026-09-06 00:16:27 | 56.07902 | 4.85287 | 120° | 73km/h | 15507m | 4.5m/s | -56.8°C | 5.1% | 116.2hPa | 2.6V | 00:00:00 | 01:23:06 | 00:00:00 | |
| DM0DOS-11 | 2026-09-06 00:16:26 | 56.07919 | 4.85230 | 118° | 69km/h | 15499m | 2.9m/s | -56.8°C | 5.1% | 116.3hPa | 2.5V | 08:30:00 | 01:23:04 | 00:00:00 | |
| BIOWL1-15 | 2026-09-06 00:16:24 | 56.07928 | 4.85203 | 119° | 68km/h | 15495m | 5m/s | -56.8°C | 1.2% | 116.4hPa | 2.5V | 18:12:15 | 01:23:03 | 00:00:00 | |
| DL1XH-west | 2026-09-06 00:16:19 | 56.07972 | 4.85068 | 120° | 71km/h | 15475m | 4m/s | -56.7°C | 1.2% | 116.8hPa | 2.5V | 18:12:15 | 01:22:58 | 00:00:00 | |
| DM0DOS-11 | 2026-09-06 00:16:16 | 56.08009 | 4.84954 | 119° | 75km/h | 15458m | 3.8m/s | -56.6°C | 5.1% | 117.1hPa | 2.5V | 08:30:00 | 01:22:54 | 00:00:00 | |
| DL1XH-west | 2026-09-06 00:16:08 | 56.08085 | 4.84754 | 127° | 77km/h | 15429m | 3.7m/s | -56.3°C | 1.2% | 117.6hPa | 2.5V | 18:12:15 | 01:22:47 | 00:00:00 | |
| DJ2DS-15 | 2026-09-06 00:16:07 | 56.08097 | 4.84726 | 128° | 80km/h | 15426m | 3.0m/s | -56.2°C | 5.0% | 117.7hPa | 2.5V | 00:00:00 | 01:22:46 | 00:00:00 | |
| GOEST3-10 | 2026-09-06 00:16:05 | 56.08120 | 4.84668 | 125° | 78km/h | 15417m | 4.1m/s | 0°C | 0% | 0hPa | 2.5V | 00:00:00 | 00:00:00 | 00:00:00 | |
| DM0DOS-11 | 2026-09-06 00:16:00 | 56.08230 | 4.84369 | 124° | 84km/h | 15373m | 4.6m/s | -55.9°C | 4.9% | 118.7hPa | 2.5V | 08:30:00 | 01:22:34 | 00:00:00 | |
| DL1XH-west | 2026-09-06 00:15:58 | 56.08195 | 4.84458 | 124° | 78km/h | 15387m | 4.2m/s | -56°C | 1.2% | 118.5hPa | 2.6V | 18:12:15 | 01:22:37 | 00:00:00 | |
| BIOWL1-15 | 2026-09-06 00:15:55 | 56.08301 | 4.84181 | 124° | 82km/h | 15347m | 4.9m/s | -55.7°C | 1.2% | 119.2hPa | 2.6V | 18:12:15 | 01:22:28 | 00:00:00 | |
| DL1XH-west | 2026-09-06 00:15:47 | 56.08324 | 4.84120 | 123° | 82km/h | 15337m | 5.5m/s | -55.9°C | 1.2% | 119.4hPa | 2.5V | 18:12:15 | 01:22:26 | 00:00:00 | |
| BIOWL1-15 | 2026-09-06 00:15:39 | 56.08471 | 4.83736 | 125° | 88km/h | 15283m | 3.7m/s | -55.8°C | 1.2% | 120.4hPa | 2.5V | 18:12:15 | 01:22:14 | 00:00:00 | |
| DL1XH-west | 2026-09-06 00:15:36 | 56.08459 | 4.83768 | 125° | 88km/h | 15288m | 5.4m/s | -55.8°C | 1.1% | 120.3hPa | 2.5V | 18:12:15 | 01:22:15 | 00:00:00 | |
| DM0DOS-11 | 2026-09-06 00:15:36 | 56.08471 | 4.83736 | 125° | 88km/h | 15283m | 3.6m/s | -55.8°C | 4.9% | 120.4hPa | 2.5V | 08:30:00 | 01:22:14 | 00:00:00 | |
| BIOWL1-15 | 2026-09-06 00:15:29 | 56.08548 | 4.83536 | 124° | 91km/h | 15256m | 4.9m/s | -55.8°C | 1.2% | 120.9hPa | 2.5V | 18:12:15 | 01:22:08 | 00:00:00 | |
| BIOWL9-15 | 2026-09-06 00:15:29 | 56.08561 | 4.83501 | 124° | 93km/h | 15252m | 4.1m/s | -55.9°C | 1.7% | 121.0hPa | 2.5V | 00:00:00 | 00:00:00 | 00:00:00 | |
| DJ2DS-15 | 2026-09-06 00:15:27 | 56.08575 | 4.83466 | 125° | 95km/h | 15248m | 4.0m/s | -55.8°C | 4.9% | 121.0hPa | 2.5V | 00:00:00 | 01:22:06 | 08:30:00 | |
| DM0DOS-11 | 2026-09-06 00:15:26 | 56.08614 | 4.83361 | 123° | 95km/h | 15234m | 5.5m/s | -55.8°C | 4.9% | 121.3hPa | 2.6V | 08:30:00 | 01:22:03 | 00:00:00 | |
| DL1XH-west | 2026-09-06 00:15:25 | 56.08601 | 4.83396 | 124° | 93km/h | 15238m | 3.8m/s | -55.8°C | 1.2% | 121.2hPa | 2.6V | 18:12:15 | 01:22:04 | 00:00:00 | |
| BIOWL1-15 | 2026-09-06 00:15:19 | 56.08746 | 4.82956 | 116° | 100km/h | 15183m | 4m/s | -55.9°C | 1.3% | 122.3hPa | 2.6V | 18:12:15 | 01:21:52 | 00:00:00 | |
| DM0DOS-11 | 2026-09-06 00:15:17 | 56.08735 | 4.82996 | 116° | 99km/h | 15187m | 5.1m/s | -55.8°C | 4.9% | 122.2hPa | 2.6V | 08:30:00 | 01:21:53 | 00:00:00 | |
| DL1XH-west | 2026-09-06 00:15:14 | 56.08735 | 4.82996 | 117° | 99km/h | 15187m | 5.1m/s | -55.8°C | 1.3% | 122.2hPa | 2.6V | 18:12:15 | 01:21:53 | 00:00:00 | |
| BIOWL1-15 | 2026-09-06 00:15:08 | 56.08825 | 4.82680 | 119° | 95km/h | 15150m | 5.3m/s | -56.1°C | 1.5% | 122.9hPa | 2.5V | 18:12:15 | 01:21:45 | 00:00:00 | |
| DJ2DS-15 | 2026-09-06 00:15:07 | 56.08813 | 4.82718 | 118° | 104km/h | 15155m | 4.1m/s | -56.1°C | 5.1% | 122.8hPa | 2.5V | 00:00:00 | 01:21:46 | 00:00:00 | |
| DM0DOS-11 | 2026-09-06 00:15:06 | 56.08849 | 4.82604 | 119° | 99km/h | 15142m | 4.1m/s | -56.1°C | 5.2% | 123.1hPa | 2.5V | 08:30:00 | 01:21:43 | 00:00:00 | |
| DL1XH-west | 2026-09-06 00:15:04 | 56.08849 | 4.82604 | 120° | 99km/h | 15142m | 4.1m/s | -56.1°C | 1.5% | 123.1hPa | 2.5V | 18:12:15 | 01:21:43 | 00:00:00 | |
| BIOWL1-15 | 2026-09-06 00:14:57 | 56.08964 | 4.82235 | 119° | 108km/h | 15102m | 4.1m/s | -56.2°C | 1.4% | 123.9hPa | 2.5V | 18:12:15 | 01:21:34 | 00:00:00 | |
| DM0DOS-11 | 2026-09-06 00:14:57 | 56.08977 | 4.82193 | 118° | 106km/h | 15097m | 5.1m/s | -56.1°C | 5.1% | 124hPa | 2.5V | 08:30:00 | 01:21:33 | 00:00:00 | |
| DL1XH-west | 2026-09-06 00:14:53 | 56.08990 | 4.82150 | 118° | 106km/h | 15092m | 4m/s | -56.1°C | 1.4% | 124hPa | 2.5V | 18:12:15 | 01:21:32 | 00:00:00 | |
| DJ2DS-15 | 2026-09-06 00:14:47 | 56.09064 | 4.81898 | 118° | 102km/h | 15065m | 4.5m/s | -55.9°C | 5.0% | 124.6hPa | 2.6V | 00:00:00 | 01:21:26 | 00:00:00 | |
| DM0DOS-11 | 2026-09-06 00:14:46 | 56.09101 | 4.81773 | 117° | 106km/h | 15052m | 4.9m/s | -56°C | 5% | 124.9hPa | 2.6V | 08:30:00 | 01:21:23 | 00:00:00 | |
| BIOWL1-15 | 2026-09-06 00:14:45 | 56.09089 | 4.81815 | 118° | 106km/h | 15056m | 3.7m/s | -56°C | 1.4% | 124.8hPa | 2.6V | 18:12:15 | 01:21:24 | 00:00:00 | |
| DL1XH-west | 2026-09-06 00:14:42 | 56.09126 | 4.81688 | 118° | 106km/h | 15042m | 5.5m/s | -56.1°C | 1.3% | 125hPa | 2.5V | 18:12:15 | 01:21:21 | 00:00:00 | |
| BIOWL1-15 | 2026-09-06 00:14:40 | 56.09218 | 4.81361 | 117° | 102km/h | 15004m | 4.9m/s | -56.3°C | 1.5% | 125.8hPa | 2.5V | 18:12:15 | 01:21:13 | 00:00:00 | |
| DJ2DS-15 | 2026-09-06 00:14:40 | 56.09161 | 4.81564 | 116° | 99km/h | 15028m | 3.9m/s | -56.1°C | 1.8% | 125.3hPa | 2.5V | 00:00:00 | 00:00:00 | 00:00:00 | |
| DM0DOS-11 | 2026-09-06 00:14:36 | 56.09218 | 4.81361 | 116° | 102km/h | 15004m | 4.9m/s | -56.3°C | 5.2% | 125.8hPa | 2.5V | 08:30:00 | 01:21:13 | 00:00:00 | |
| DL1XH-west | 2026-09-06 00:14:32 | 56.09242 | 4.81279 | 119° | 102km/h | 14995m | 3.5m/s | -56.5°C | 1.6% | 126hPa | 2.5V | 18:12:15 | 01:21:11 | 00:00:00 | |
| DJ2DS-15 | 2026-09-06 00:14:27 | 56.09299 | 4.81079 | 116° | 99km/h | 14972m | 4.5m/s | -56.5°C | 5.4% | 126.4hPa | 2.5V | 00:00:00 | 01:21:06 | 00:00:00 | |
| DM0DOS-11 | 2026-09-06 00:14:26 | 56.09330 | 4.80958 | 114° | 99km/h | 14957m | 5.4m/s | -56.5°C | 5.3% | 126.7hPa | 2.5V | 08:30:00 | 01:21:03 | 00:00:00 | |
| BIOWL1-15 | 2026-09-06 00:14:24 | 56.09330 | 4.80958 | 114° | 99km/h | 14957m | 5.4m/s | -56.5°C | 1.6% | 126.8hPa | 2.5V | 18:12:15 | 01:21:03 | 00:00:00 | |
| DL1XH-west | 2026-09-06 00:14:21 | 56.09362 | 4.80835 | 115° | 102km/h | 14943m | 4.4m/s | -56.5°C | 1.6% | 127hPa | 2.6V | 18:12:15 | 01:21:00 | 00:00:00 | |
| DM0DOS-11 | 2026-09-06 00:14:16 | 56.09443 | 4.80547 | 118° | 97km/h | 14910m | 3.6m/s | -56.4°C | 5.4% | 127.7hPa | 2.6V | 08:30:00 | 01:20:53 | 00:00:00 | |
| DL1XH-west | 2026-09-06 00:14:10 | 56.09486 | 4.80394 | 116° | 93km/h | 14893m | 5.6m/s | -56.4°C | 1.7% | 128hPa | 2.6V | 18:12:15 | 01:20:49 | 00:00:00 | |
| DJ2DS-15 | 2026-09-06 00:14:07 | 56.09519 | 4.80279 | 118° | 97km/h | 14878m | 4.6m/s | -56.4°C | 5.4% | 128.3hPa | 2.6V | 00:00:00 | 01:20:46 | 00:00:00 | |
| DM0DOS-11 | 2026-09-06 00:14:06 | 56.09556 | 4.80163 | 121° | 100km/h | 14864m | 4.6m/s | -56.4°C | 5.4% | 128.6hPa | 2.6V | 08:30:00 | 01:20:43 | 00:00:00 | |
| BIOWL1-15 | 2026-09-06 00:14:04 | 56.09556 | 4.80163 | 122° | 100km/h | 14864m | 4.6m/s | -56.4°C | 1.7% | 128.6hPa | 2.6V | 18:12:15 | 01:20:43 | 00:00:00 | |
| DL1XH-west | 2026-09-06 00:14:00 | 56.09607 | 4.80015 | 122° | 93km/h | 14845m | 4.8m/s | -56.2°C | 1.7% | 129hPa | 2.5V | 18:12:15 | 01:20:39 | 00:00:00 | |
| BIOWL1-15 | 2026-09-06 00:13:58 | 56.09674 | 4.79798 | 118° | 95km/h | 14815m | 4.2m/s | -55.9°C | 1.7% | 129.6hPa | 2.6V | 18:12:15 | 01:20:33 | 00:00:00 | |
| DL1XH-west | 2026-09-06 00:13:49 | 56.09738 | 4.79603 | 121° | 102km/h | 14792m | 3.9m/s | -55.9°C | 1.7% | 130.1hPa | 2.5V | 18:12:15 | 01:20:28 | 00:00:00 | |
| BIOWL1-15 | 2026-09-06 00:13:44 | 56.09825 | 4.79332 | 118° | 97km/h | 14760m | 5.5m/s | -56.2°C | 1.8% | 130.8hPa | 2.6V | 18:12:15 | 01:20:21 | 00:00:00 | |
| DL1XH-west | 2026-09-06 00:13:38 | 56.09872 | 4.79177 | 119° | 99km/h | 14740m | 4.9m/s | -56.3°C | 1.8% | 131.1hPa | 2.5V | 18:12:15 | 01:20:17 | 00:00:00 | |
| DM0DOS-11 | 2026-09-06 00:13:36 | 56.09922 | 4.79018 | 119° | 104km/h | 14722m | 4m/s | -56.6°C | 5.4% | 131.5hPa | 2.6V | 08:30:00 | 01:20:13 | 00:00:00 | |
| BIOWL1-15 | 2026-09-06 00:13:31 | 56.09959 | 4.78896 | 117° | 100km/h | 14708m | 5.6m/s | -56.8°C | 1.9% | 131.8hPa | 2.5V | 18:12:15 | 01:20:10 | 00:00:00 | |
| DL1XH-west | 2026-09-06 00:13:28 | 56.09991 | 4.78771 | 114° | 100km/h | 14695m | 4.5m/s | -57°C | 2% | 132.1hPa | 2.5V | 18:12:15 | 01:20:07 | 00:00:00 | |
| DJ2DS-15 | 2026-09-06 00:13:27 | 56.10001 | 4.78729 | 115° | 102km/h | 14691m | 3.8m/s | -57.0°C | 5.5% | 132.1hPa | 2.5V | 00:00:00 | 01:20:06 | 00:00:00 | |
| DM0DOS-11 | 2026-09-06 00:13:26 | 56.10034 | 4.78604 | 117° | 104km/h | 14676m | 5.2m/s | -57.3°C | 5.7% | 132.5hPa | 2.6V | 08:30:00 | 01:20:03 | 00:00:00 | |
| BIOWL1-15 | 2026-09-06 00:13:23 | 56.10071 | 4.78480 | 118° | 104km/h | 14662m | 4m/s | -57.6°C | 2.1% | 132.8hPa | 2.5V | 18:12:15 | 01:20:00 | 00:00:00 | |
| DL1XH-west | 2026-09-06 00:13:17 | 56.10120 | 4.78317 | 118° | 100km/h | 14645m | 4m/s | -57.6°C | 2.2% | 133.1hPa | 2.5V | 18:12:15 | 01:19:56 | 00:00:00 | |
| DM0DOS-11 | 2026-09-06 00:13:16 | 56.10154 | 4.78196 | 115° | 99km/h | 14631m | 5.1m/s | -57.7°C | 5.9% | 133.4hPa | 2.5V | 08:30:00 | 01:19:53 | 00:00:00 | |
| BIOWL1-15 | 2026-09-06 00:13:12 | 56.10196 | 4.78031 | 115° | 102km/h | 14614m | 4.4m/s | -57.8°C | 2.3% | 133.8hPa | 2.5V | 18:12:15 | 01:19:49 | 00:00:00 | |
| DM0DOS-11 | 2026-09-06 00:13:09 | 56.10260 | 4.77788 | 117° | 95km/h | 14587m | 4m/s | -57.7°C | 6% | 134.3hPa | 2.6V | 08:30:00 | 01:19:43 | 00:00:00 | |
| DL1XH-west | 2026-09-06 00:13:06 | 56.10239 | 4.77866 | 115° | 99km/h | 14597m | 3.7m/s | -57.8°C | 2.2% | 134.2hPa | 2.5V | 18:12:15 | 01:19:45 | 00:00:00 | |
| BIOWL1-15 | 2026-09-06 00:13:00 | 56.10306 | 4.77632 | 119° | 99km/h | 14569m | 4.4m/s | -57.8°C | 2.4% | 134.8hPa | 2.5V | 18:12:15 | 01:19:39 | 00:00:00 | |
| DM0DOS-11 | 2026-09-06 00:12:56 | 56.10386 | 4.77349 | 114° | 95km/h | 14539m | 4.7m/s | -57.7°C | 6.1% | 135.4hPa | 2.5V | 08:30:00 | 01:19:32 | 00:00:00 | |
| DL1XH-west | 2026-09-06 00:12:55 | 56.10364 | 4.77428 | 117° | 99km/h | 14547m | 4.3m/s | -57.7°C | 2.5% | 135.2hPa | 2.5V | 18:12:15 | 01:19:34 | 00:00:00 | |
| BIOWL1-15 | 2026-09-06 00:12:51 | 56.10427 | 4.77191 | 116° | 99km/h | 14522m | 3.5m/s | -57.6°C | 2.6% | 135.8hPa | 2.5V | 18:12:15 | 01:19:28 | 00:00:00 | |
| DJ2DS-15 | 2026-09-06 00:12:47 | 56.10449 | 4.77110 | 115° | 104km/h | 14513m | 3.6m/s | -57.6°C | 6.2% | 135.9hPa | 2.6V | 00:00:00 | 01:19:26 | 00:00:00 | |
| DM0DOS-11 | 2026-09-06 00:12:44 | 56.10493 | 4.76943 | 115° | 102km/h | 14496m | 4.5m/s | -57.6°C | 6.2% | 136.3hPa | 2.6V | 08:30:00 | 01:19:22 | 00:00:00 | |
| DL1XH-west | 2026-09-06 00:12:44 | 56.10482 | 4.76985 | 116° | 102km/h | 14500m | 3.9m/s | -57.6°C | 2.6% | 136.2hPa | 2.6V | 18:12:15 | 01:19:23 | 00:00:00 | |
| BIOWL1-15 | 2026-09-06 00:12:39 | 56.10537 | 4.76777 | 117° | 100km/h | 14480m | 2.7m/s | -57.8°C | 2.7% | 136.7hPa | 2.5V | 18:12:15 | 01:19:18 | 00:00:00 | |
| DL1XH-west | 2026-09-06 00:12:34 | 56.10596 | 4.76573 | 117° | 104km/h | 14458m | 5m/s | -57.9°C | 2.6% | 137.2hPa | 2.5V | 18:12:15 | 01:19:13 | 00:00:00 | |
| DJ2DS-15 | 2026-09-06 00:12:27 | 56.10674 | 4.76260 | 114° | 110km/h | 14428m | 4.8m/s | -58.0°C | 6.5% | 137.8hPa | 2.5V | 00:00:00 | 01:19:06 | 08:30:00 | |
| DM0DOS-11 | 2026-09-06 00:12:24 | 56.10719 | 4.76076 | 113° | 108km/h | 14412m | 3.5m/s | -58.1°C | 6.6% | 138.2hPa | 2.6V | 08:30:00 | 01:19:02 | 00:00:00 | |
| DL1XH-west | 2026-09-06 00:12:24 | 56.10708 | 4.76121 | 113° | 110km/h | 14416m | 4m/s | -58.1°C | 2.9% | 138.1hPa | 2.5V | 18:12:15 | 01:19:03 | 00:00:00 | |
| BIOWL1-15 | 2026-09-06 00:12:17 | 56.10788 | 4.75811 | 116° | 110km/h | 14387m | 3.7m/s | 0°C | 0% | 138.8hPa | 2.5V | 18:12:15 | 01:18:56 | 00:00:00 | |
| DM0DOS-11 | 2026-09-06 00:12:16 | 56.10834 | 4.75632 | 113° | 111km/h | 14369m | 5m/s | -58.1°C | 6.7% | 139.1hPa | 2.5V | 08:30:00 | 01:18:52 | 00:00:00 | |
| DL1XH-west | 2026-09-06 00:12:14 | 56.10823 | 4.75677 | 114° | 110km/h | 14373m | 3.7m/s | -58.1°C | 3.1% | 139hPa | 2.5V | 18:12:15 | 01:18:53 | 00:00:00 | |
| BIOWL1-15 | 2026-09-06 00:12:06 | 56.10930 | 4.75221 | 111° | 110km/h | 14330m | 4.3m/s | 0°C | 0% | 0hPa | 2.5V | 18:12:15 | 01:18:43 | 00:00:00 | |
| DM0DOS-11 | 2026-09-06 00:12:06 | 56.10939 | 4.75175 | 110° | 108km/h | 14326m | 3.5m/s | -58.1°C | 7% | 140.1hPa | 2.5V | 08:30:00 | 01:18:42 | 00:00:00 | |
| DL1XH-west | 2026-09-06 00:12:03 | 56.10939 | 4.75175 | 110° | 108km/h | 14326m | 3.5m/s | -58.1°C | 3.5% | 140.1hPa | 2.5V | 18:12:15 | 01:18:42 | 00:00:00 | |
| DM0DOS-11 | 2026-09-06 00:11:56 | 56.11034 | 4.74717 | 110° | 104km/h | 14284m | 5m/s | -57.9°C | 7.1% | 141hPa | 2.5V | 08:30:00 | 01:18:32 | 00:00:00 | |
| BIOWL1-15 | 2026-09-06 00:11:54 | 56.11024 | 4.74761 | 111° | 106km/h | 14288m | 3.6m/s | 0°C | 0% | 0hPa | 2.6V | 18:12:15 | 01:18:33 | 00:00:00 | |
| DL1XH-west | 2026-09-06 00:11:52 | 56.11043 | 4.74673 | 110° | 102km/h | 14280m | 3.7m/s | -57.9°C | 3.9% | 141.1hPa | 2.5V | 18:12:15 | 01:18:31 | 00:00:00 | |
| DJ2DS-15 | 2026-09-06 00:11:47 | 56.11088 | 4.74452 | 111° | 104km/h | 14260m | 3.4m/s | -57.8°C | 7.4% | 141.5hPa | 2.5V | 00:00:00 | 01:18:26 | 00:00:00 | |
| DM0DOS-11 | 2026-09-06 00:11:46 | 56.11129 | 4.74272 | 112° | 104km/h | 14244m | 3.6m/s | -57.8°C | 7.6% | 141.9hPa | 2.5V | 08:30:00 | 01:18:22 | 00:00:00 | |
| BIOWL1-15 | 2026-09-06 00:11:45 | 56.11129 | 4.74272 | 113° | 104km/h | 14244m | 3.6m/s | 0°C | 0% | 0hPa | 2.5V | 18:12:15 | 01:18:22 | 00:00:00 | |
| DL1XH-west | 2026-09-06 00:11:42 | 56.11150 | 4.74186 | 113° | 104km/h | 14237m | 4.7m/s | -57.9°C | 4.5% | 142.1hPa | 2.6V | 18:12:15 | 01:18:20 | 00:00:00 | |
| DJ2DS-15 | 2026-09-06 00:11:39 | 56.11170 | 4.74101 | 113° | 100km/h | 14228m | 5.1m/s | -57.9°C | 3.8% | 142.2hPa | 2.6V | 00:00:00 | 00:00:00 | 00:00:00 | |
| DM0DOS-11 | 2026-09-06 00:11:36 | 56.11231 | 4.73850 | 114° | 102km/h | 14202m | 3.8m/s | -58°C | 8.2% | 142.8hPa | 2.6V | 08:30:00 | 01:18:12 | 00:00:00 | |
| DL1XH-west | 2026-09-06 00:11:30 | 56.11264 | 4.73719 | 115° | 108km/h | 14189m | 4.7m/s | -58.1°C | 5.3% | 143.1hPa | 2.5V | 18:12:15 | 01:18:09 | 00:00:00 | |
| BIOWL1-15 | 2026-09-06 00:11:21 | 56.11364 | 4.73319 | 115° | 108km/h | 14152m | 3.4m/s | 0°C | 0% | 0hPa | 2.6V | 18:12:15 | 01:18:00 | 00:00:00 | |
| DL1XH-west | 2026-09-06 00:11:19 | 56.11386 | 4.73231 | 114° | 106km/h | 14145m | 3.4m/s | -58.4°C | 6% | 144.1hPa | 2.5V | 18:12:15 | 01:17:58 | 00:00:00 | |
| DM0DOS-11 | 2026-09-06 00:11:16 | 56.11449 | 4.72969 | 114° | 104km/h | 14121m | 4.2m/s | -58.6°C | 9.3% | 144.7hPa | 2.5V | 08:30:00 | 01:17:52 | 00:00:00 | |
| DL1XH-west | 2026-09-06 00:11:09 | 56.11496 | 4.72806 | 120° | 100km/h | 14104m | 3.8m/s | -58.9°C | 7% | 145.1hPa | 2.6V | 18:12:15 | 01:17:48 | 00:00:00 | |
| BIOWL1-15 | 2026-09-06 00:11:08 | 56.11522 | 4.72728 | 122° | 100km/h | 14094m | 4.3m/s | 0°C | 0% | 0hPa | 2.5V | 18:12:15 | 01:17:46 | 00:00:00 | |
| DJ2DS-15 | 2026-09-06 00:11:07 | 56.11522 | 4.72728 | 122° | 102km/h | 14094m | 4.2m/s | -58.9°C | 9.9% | 145.2hPa | 2.6V | 00:00:00 | 01:17:46 | 00:00:00 | |
| DM0DOS-11 | 2026-09-06 00:11:06 | 56.11569 | 4.72573 | 117° | 104km/h | 14059m | 5m/s | -59°C | 10.3% | 145.6hPa | 2.6V | 08:30:00 | 01:17:42 | 00:00:00 | |
| DL1XH-west | 2026-09-06 00:10:59 | 56.11620 | 4.72396 | 124° | 91km/h | 14060m | 8.3m/s | -59°C | 8.5% | 146hPa | 2.5V | 18:12:15 | 01:17:38 | 00:00:00 | |
| DL1XH-west | 2026-09-06 00:10:48 | 56.11759 | 4.71940 | 118° | 110km/h | 14006m | 4.3m/s | -59.7°C | 10.9% | 147.1hPa | 2.5V | 18:12:15 | 01:17:27 | 00:00:00 | |
| DL1XH-west | 2026-09-06 00:10:37 | 56.11919 | 4.71439 | 122° | 119km/h | 13971m | 3.8m/s | -60.8°C | 13.4% | 148.2hPa | 2.6V | 18:12:15 | 01:17:16 | 00:00:00 | |
| DL1XH-west | 2026-09-06 00:10:27 | 56.12067 | 4.70957 | 118° | 122km/h | 13929m | 3.8m/s | -60.9°C | 14.9% | 149.2hPa | 2.7V | 18:12:15 | 01:17:06 | 00:00:00 | |
| DJ2DS-15 | 2026-09-06 00:10:27 | 56.12067 | 4.70957 | 118° | 120km/h | 13929m | 3.7m/s | -60.8°C | 17.6% | 149.1hPa | 2.7V | 00:00:00 | 01:17:06 | 00:00:00 | |
| DM0DOS-11 | 2026-09-06 00:10:26 | 56.12122 | 4.70766 | 116° | 117km/h | 13911m | 3.4m/s | -61°C | 18.1% | 149.6hPa | 2.6V | 08:30:00 | 01:17:02 | 00:00:00 | |
| DL1XH-west | 2026-09-06 00:10:17 | 56.12202 | 4.70472 | 116° | 122km/h | 13886m | 3.3m/s | -60.9°C | 16.1% | 150.2hPa | 2.7V | 18:12:15 | 01:16:56 | 00:00:00 | |
| DM0DOS-11 | 2026-09-06 00:10:16 | 56.12259 | 4.70271 | 116° | 122km/h | 13867m | 3.6m/s | -60.8°C | 19% | 150.6hPa | 2.5V | 08:30:00 | 01:16:52 | 00:00:00 | |
| DJ2DS-15 | 2026-09-06 00:10:07 | 56.12340 | 4.69973 | 117° | 119km/h | 13838m | 4.2m/s | -60.7°C | 19.7% | 151.1hPa | 2.6V | 00:00:00 | 01:16:46 | 00:00:00 | |
| DM0DOS-11 | 2026-09-06 00:10:06 | 56.12394 | 4.69785 | 117° | 120km/h | 13826m | 4.5m/s | -60.8°C | 20.6% | 151.6hPa | 2.6V | 08:30:00 | 01:16:42 | 00:00:00 | |
| DL1XH-west | 2026-09-06 00:10:06 | 56.12354 | 4.69924 | 117° | 120km/h | 13833m | 4.2m/s | -60.8°C | 17.6% | 151.3hPa | 2.5V | 18:12:15 | 01:16:45 | 00:00:00 | |
| DM0DOS-11 | 2026-09-06 00:09:56 | 56.12520 | 4.69295 | 115° | 120km/h | 13784m | 3.8m/s | -60.8°C | 22.1% | 152.7hPa | 2.7V | 08:30:00 | 01:16:32 | 00:00:00 | |
| DL1XH-west | 2026-09-06 00:09:55 | 56.12494 | 4.69394 | 114° | 119km/h | 13792m | 4.7m/s | -60.7°C | 19.4% | 152.4hPa | 2.6V | 18:12:15 | 01:16:34 | 00:00:00 | |
| DJ2DS-15 | 2026-09-06 00:09:47 | 56.12599 | 4.69001 | 117° | 119km/h | 13758m | 4.4m/s | -61.0°C | 23.7% | 153.3hPa | 2.6V | 00:00:00 | 01:16:26 | 00:00:00 | |
| DM0DOS-11 | 2026-09-06 00:09:46 | 56.12654 | 4.68812 | 118° | 115km/h | 13740m | 4.6m/s | -61.1°C | 23.9% | 153.8hPa | 2.6V | 08:30:00 | 01:16:22 | 00:00:00 | |
| DL1XH-west | 2026-09-06 00:09:44 | 56.12640 | 4.68858 | 117° | 115km/h | 13745m | 4.1m/s | -61.1°C | 21% | 153.7hPa | 2.7V | 18:12:15 | 01:16:23 | 00:00:00 | |
| DM0DOS-11 | 2026-09-06 00:09:36 | 56.12801 | 4.68349 | 120° | 122km/h | 13698m | 3.6m/s | -60.8°C | 25.5% | 154.9hPa | 2.6V | 08:30:00 | 01:16:12 | 00:00:00 | |
| DL1XH-west | 2026-09-06 00:09:34 | 56.12800 | 4.68349 | 121° | 122km/h | 13698m | 3.6m/s | -60.8°C | 22.6% | 154.9hPa | 2.6V | 18:12:15 | 01:16:12 | 00:00:00 | |
| DJ2DS-15 | 2026-09-06 00:09:27 | 56.12896 | 4.68068 | 121° | 128km/h | 13671m | 5.0m/s | -60.6°C | 26.5% | 155.5hPa | 2.5V | 00:00:00 | 01:16:06 | 08:30:00 | |
| DM0DOS-11 | 2026-09-06 00:09:26 | 56.12960 | 4.67874 | 119° | 124km/h | 13653m | 5.5m/s | -60.5°C | 27.3% | 156hPa | 2.7V | 08:30:00 | 01:16:02 | 00:00:00 | |
| DL1XH-west | 2026-09-06 00:09:23 | 56.12960 | 4.67874 | 119° | 124km/h | 13653m | 5.5m/s | -60.5°C | 24.8% | 156hPa | 2.7V | 18:12:15 | 01:16:02 | 00:00:00 | |
| DM0DOS-11 | 2026-09-06 00:09:16 | 56.13117 | 4.67373 | 119° | 130km/h | 13604m | 5.2m/s | -60.3°C | 30.2% | 157.2hPa | 2.7V | 08:30:00 | 01:15:52 | 00:00:00 | |
| DL1XH-west | 2026-09-06 00:09:12 | 56.13134 | 4.67322 | 120° | 131km/h | 13600m | 4.4m/s | -60.2°C | 28.7% | 157.2hPa | 2.6V | 18:12:15 | 01:15:51 | 00:00:00 | |
| DL1XH-west | 2026-09-06 00:09:02 | 56.13305 | 4.66739 | 117° | 133km/h | 13547m | 4.5m/s | -60.7°C | 33.6% | 158.6hPa | 2.6V | 18:12:15 | 01:15:40 | 00:00:00 | |
| DM0DOS-11 | 2026-09-06 00:09:02 | 56.13366 | 4.66522 | 115° | 137km/h | 13530m | 4.7m/s | -60.7°C | 35.6% | 159.1hPa | 2.6V | 00:00:00 | 01:15:36 | 00:00:00 | |
| DL1XH-west | 2026-09-06 00:08:51 | 56.13448 | 4.66178 | 112° | 135km/h | 13502m | 3.6m/s | -60.9°C | 38.6% | 159.8hPa | 2.6V | 18:12:15 | 01:15:30 | 00:00:00 | |
| DM0DOS-11 | 2026-09-06 00:08:51 | 56.13519 | 4.65892 | 114° | 141km/h | 13481m | 3.6m/s | -61.8°C | 43.6% | 160.3hPa | 2.6V | 00:00:00 | 01:15:25 | 00:00:00 | |
| DL1XH-west | 2026-09-06 00:08:41 | 56.13606 | 4.65538 | 114° | 146km/h | 13456m | 4.3m/s | -62.6°C | 44.9% | 161hPa | 2.6V | 18:12:15 | 01:15:19 | 00:00:00 | |
| DM0DOS-11 | 2026-09-06 00:08:36 | 56.13692 | 4.65172 | 111° | 146km/h | 13431m | 4.5m/s | -63.1°C | 51.6% | 161.6hPa | 2.6V | 00:00:00 | 01:15:13 | 00:00:00 | |
| DL1XH-west | 2026-09-06 00:08:29 | 56.13756 | 4.64865 | 110° | 144km/h | 13409m | 5.9m/s | -63.4°C | 48.3% | 162.2hPa | 2.6V | 18:12:15 | 01:15:08 | 00:00:00 | |
| DM0DOS-11 | 2026-09-06 00:08:27 | 56.13814 | 4.64555 | 106° | 144km/h | 13386m | 3.7m/s | -63.6°C | 0% | 162.8hPa | 2.6V | 00:00:00 | 01:15:03 | 00:00:00 | |
| DL1XH-west | 2026-09-06 00:08:19 | 56.13862 | 4.64240 | 105° | 142km/h | 13364m | 4.3m/s | -63.6°C | 49.7% | 163.4hPa | 2.6V | 18:12:15 | 01:14:58 | 00:00:00 | |
| DL1XH-west | 2026-09-06 00:08:09 | 56.13954 | 4.63624 | 103° | 139km/h | 13320m | 4.1m/s | -63.9°C | 50.4% | 164.5hPa | 2.7V | 18:12:15 | 01:14:48 | 00:00:00 | |
| DM0DOS-11 | 2026-09-06 00:08:07 | 56.13994 | 4.63322 | 104° | 137km/h | 13298m | 4.2m/s | 0°C | 0% | 0hPa | 2.7V | 00:00:00 | 01:14:43 | 00:00:00 | |
| DL1XH-west | 2026-09-06 00:07:58 | 56.14045 | 4.62962 | 103° | 137km/h | 13273m | 4.8m/s | -63.9°C | 51.1% | 165.8hPa | 2.7V | 18:12:15 | 01:14:37 | 00:00:00 | |
| DM0DOS-11 | 2026-09-06 00:07:56 | 56.14075 | 4.62727 | 103° | 135km/h | 13256m | 4m/s | 0°C | 0% | 0hPa | 2.6V | 00:00:00 | 01:14:33 | 00:00:00 | |
| DL1XH-west | 2026-09-06 00:07:48 | 56.14129 | 4.62317 | 103° | 131km/h | 13225m | 4.1m/s | -63.9°C | 52% | 167.1hPa | 2.6V | 18:12:15 | 01:14:26 | 00:00:00 | |
| DJ2DS-15 | 2026-09-06 00:07:47 | 56.14129 | 4.62317 | 104° | 131km/h | 13226m | 4.0m/s | -63.8°C | 60.1% | 167.1hPa | 2.7V | 00:00:00 | 01:14:26 | 00:00:00 | |
| DM0DOS-11 | 2026-09-06 00:07:46 | 56.14153 | 4.62143 | 104° | 130km/h | 13213m | 4.5m/s | 0°C | 0% | 0hPa | 2.7V | 00:00:00 | 01:14:23 | 00:00:00 | |
| DL1XH-west | 2026-09-06 00:07:37 | 56.14229 | 4.61689 | 107° | 131km/h | 13178m | 5.7m/s | -63.7°C | 52.8% | 168.4hPa | 2.7V | 18:12:15 | 01:14:15 | 00:00:00 | |
| DM0DOS-11 | 2026-09-06 00:07:36 | 56.14249 | 4.61577 | 106° | 130km/h | 13167m | 4.7m/s | 0°C | 0% | 0hPa | 2.6V | 00:00:00 | 01:14:13 | 00:00:00 | |
| DL1XH-west | 2026-09-06 00:07:26 | 56.14326 | 4.61127 | 110° | 130km/h | 13131m | 4.2m/s | -63.7°C | 53.9% | 169.7hPa | 2.6V | 18:12:15 | 01:14:05 | 00:00:00 | |
| DM0DOS-11 | 2026-09-06 00:07:23 | 56.14418 | 4.60685 | 111° | 131km/h | 13092m | 5.5m/s | 0°C | 0% | 0hPa | 2.6V | 00:00:00 | 01:13:57 | 00:00:00 | |
| DL1XH-west | 2026-09-06 00:07:16 | 56.14456 | 4.60522 | 113° | 126km/h | 13078m | 4.4m/s | -63.9°C | 54.4% | 171.2hPa | 2.7V | 18:12:15 | 01:13:54 | 00:00:00 | |
| DL1XH-west | 2026-09-06 00:07:04 | 56.14605 | 4.59943 | 117° | 130km/h | 13029m | 5.1m/s | -63.6°C | 53.9% | 172.6hPa | 2.6V | 18:12:15 | 01:13:43 | 00:00:00 | |
| DL1XH-west | 2026-09-06 00:06:54 | 56.14768 | 4.59358 | 117° | 131km/h | 12981m | 4.7m/s | -63.4°C | 53.9% | 173.9hPa | 2.6V | 18:12:15 | 01:13:32 | 00:00:00 | |
| DL1XH-west | 2026-09-06 00:06:42 | 56.14949 | 4.58785 | 119° | 135km/h | 12933m | 4.3m/s | -63.1°C | 53.8% | 175.3hPa | 2.6V | 18:12:15 | 01:13:21 | 00:00:00 | |
| DL1XH-west | 2026-09-06 00:06:32 | 56.15352 | 4.57618 | 120° | 131km/h | 12827m | 3.4m/s | -62.5°C | 53.8% | 178.3hPa | 2.7V | 18:12:15 | 01:12:58 | 00:00:00 | |
| DL1XH-west | 2026-09-06 00:06:11 | 56.15491 | 4.57215 | 124° | 133km/h | 12791m | 5.1m/s | -62.2°C | 53.8% | 179.3hPa | 2.7V | 18:12:15 | 01:12:50 | 00:00:00 | |
| DL1XH-west | 2026-09-06 00:06:01 | 56.15678 | 4.56701 | 123° | 131km/h | 12745m | 5.2m/s | -62°C | 54.3% | 180.7hPa | 2.7V | 18:12:15 | 01:12:40 | 00:00:00 | |
| DL1XH-west | 2026-09-06 00:05:51 | 56.15936 | 4.55962 | 119° | 141km/h | 12674m | 5m/s | -61.9°C | 55.4% | 182.8hPa | 2.6V | 18:12:15 | 01:12:26 | 00:00:00 | |
| DL1XH-west | 2026-09-06 00:05:40 | 56.16084 | 4.55499 | 122° | 148km/h | 12631m | 6m/s | -61.7°C | 55.8% | 184.1hPa | 2.6V | 18:12:15 | 01:12:18 | 00:00:00 | |
| DL1XH-west | 2026-09-06 00:05:29 | 56.16310 | 4.54852 | 122° | 155km/h | 12571m | 8.5m/s | -61.5°C | 56.2% | 185.9hPa | 2.6V | 18:12:15 | 01:12:07 | 00:00:00 | |
| DL1XH-west | 2026-09-06 00:05:19 | 56.16544 | 4.54156 | 122° | 166km/h | 12506m | 5.8m/s | -61.3°C | 57% | 187.8hPa | 2.6V | 18:12:15 | 01:11:56 | 00:00:00 | |
| DL1XH-west | 2026-09-06 00:05:08 | 56.16762 | 4.53511 | 122° | 170km/h | 12452m | 4.5m/s | -61°C | 55.6% | 189.4hPa | 2.6V | 18:12:15 | 01:11:46 | 00:00:00 | |
| DL1XH-west | 2026-09-06 00:04:59 | 56.16963 | 4.52908 | 121° | 173km/h | 12409m | 5.1m/s | -60.7°C | 53.8% | 190.8hPa | 2.6V | 18:12:15 | 01:11:37 | 00:00:00 | |
| DL1XH-west | 2026-09-06 00:04:47 | 56.17207 | 4.52160 | 120° | 175km/h | 12359m | 4.2m/s | -60.2°C | 52.1% | 192.3hPa | 2.6V | 18:12:15 | 01:11:26 | 00:00:00 | |
| DL1XH-west | 2026-09-06 00:04:37 | 56.17430 | 4.51480 | 121° | 175km/h | 12313m | 4.9m/s | -59.9°C | 51.4% | 193.8hPa | 2.7V | 18:12:15 | 01:11:16 | 00:00:00 | |
| DL1XH-west | 2026-09-06 00:04:26 | 56.17680 | 4.50729 | 120° | 177km/h | 12264m | 4.2m/s | -59.6°C | 49.9% | 195.2hPa | 2.7V | 18:12:15 | 01:11:05 | 00:00:00 | |
| DL1XH-west | 2026-09-06 00:04:15 | 56.17982 | 4.49825 | 120° | 181km/h | 12207m | 4m/s | -59.1°C | 47.9% | 197hPa | 2.6V | 18:12:15 | 01:10:52 | 00:00:00 | |
| DL1XH-west | 2026-09-06 00:04:05 | 56.18170 | 4.49267 | 121° | 181km/h | 12172m | 4.4m/s | -58.9°C | 46.8% | 198.1hPa | 2.7V | 18:12:15 | 01:10:44 | 00:00:00 | |
| DL1XH-west | 2026-09-06 00:03:55 | 56.18450 | 4.48409 | 121° | 183km/h | 12120m | 5.3m/s | -58.4°C | 46.4% | 199.8hPa | 2.6V | 18:12:15 | 01:10:32 | 00:00:00 | |
| DL1XH-west | 2026-09-06 00:03:44 | 56.18660 | 4.47765 | 120° | 181km/h | 12080m | 4.3m/s | -58.1°C | 47.2% | 201.1hPa | 2.7V | 18:12:15 | 01:10:23 | 00:00:00 | |
| DL1XH-west | 2026-09-06 00:03:33 | 56.18917 | 4.46990 | 121° | 186km/h | 12033m | 4.5m/s | -57.8°C | 48.1% | 202.6hPa | 2.6V | 18:12:15 | 01:10:12 | 00:00:00 | |
| DL1XH-west | 2026-09-06 00:03:23 | 56.19149 | 4.46275 | 120° | 181km/h | 11991m | 5.4m/s | -57.6°C | 48.6% | 203.9hPa | 2.7V | 18:12:15 | 01:10:02 | 00:00:00 | |
| DL1XH-west | 2026-09-06 00:03:12 | 56.19421 | 4.45420 | 119° | 179km/h | 11938m | 4.9m/s | -57.2°C | 49.6% | 205.6hPa | 2.7V | 18:12:15 | 01:09:50 | 00:00:00 | |
| DM0DOS-11 | 2026-09-06 00:03:07 | 56.19639 | 4.44704 | 117° | 181km/h | 11896m | 4.1m/s | 0°C | 0% | 0hPa | 2.7V | 00:00:00 | 01:09:40 | 00:00:00 | |
| DL1XH-west | 2026-09-06 00:03:02 | 56.19618 | 4.44777 | 118° | 183km/h | 11900m | 3.6m/s | -56.9°C | 52.2% | 206.9hPa | 2.6V | 18:12:15 | 01:09:41 | 00:00:00 | |
| DJ2DS-15 | 2026-09-06 00:02:55 | 56.19954 | 4.43616 | 118° | 181km/h | 11832m | 4.7m/s | -56.5°C | 58.8% | 209.0hPa | 2.6V | 00:00:00 | 01:09:25 | 00:00:00 | |
| DL1XH-west | 2026-09-06 00:02:52 | 56.19831 | 4.44052 | 117° | 183km/h | 11857m | 3.8m/s | -56.6°C | 53.3% | 208.2hPa | 2.6V | 18:12:15 | 01:09:31 | 00:00:00 | |
| DM0DOS-11 | 2026-09-06 00:02:50 | 56.19894 | 4.43831 | 117° | 179km/h | 11846m | 4.2m/s | 0°C | 0% | 0hPa | 2.7V | 00:00:00 | 01:09:28 | 00:00:00 | |
| DM0DOS-11 | 2026-09-06 00:02:45 | 56.20095 | 4.43108 | 115° | 181km/h | 11803m | 4.2m/s | 0°C | 0% | 0hPa | 2.6V | 00:00:00 | 01:09:18 | 00:00:00 | |
| DL1XH-west | 2026-09-06 00:02:41 | 56.20075 | 4.43182 | 116° | 181km/h | 11808m | 5m/s | -56.4°C | 50.4% | 209.9hPa | 2.6V | 18:12:15 | 01:09:19 | 00:00:00 | |
| DL1XH-west | 2026-09-06 00:02:29 | 56.20289 | 4.42365 | 116° | 179km/h | 11762m | 3.6m/s | -56.1°C | 50% | 211.4hPa | 2.7V | 18:12:15 | 01:09:08 | 00:00:00 | |
| DJ2DS-15 | 2026-09-06 00:02:28 | 56.20346 | 4.42145 | 116° | 177km/h | 11749m | 4.7m/s | -56.0°C | 55.4% | 211.8hPa | 2.6V | 00:00:00 | 01:09:05 | 00:00:00 | |
| DL1XH-west | 2026-09-06 00:02:19 | 56.20480 | 4.41627 | 115° | 179km/h | 11720m | 4.3m/s | -55.9°C | 49.3% | 212.8hPa | 2.7V | 18:12:15 | 01:08:58 | 00:00:00 | |
| DL1XH-west | 2026-09-06 00:02:08 | 56.20687 | 4.40827 | 116° | 177km/h | 11677m | 3.8m/s | -55.5°C | 49% | 214.2hPa | 2.6V | 18:12:15 | 01:08:47 | 00:00:00 | |
| DJ2DS-15 | 2026-09-06 00:02:06 | 56.20725 | 4.40684 | 117° | 175km/h | 11669m | 3.8m/s | -55.4°C | 55.8% | 214.5hPa | 2.6V | 00:00:00 | 01:08:45 | 00:00:00 | |
| DL1XH-west | 2026-09-06 00:01:58 | 56.20881 | 4.40115 | 116° | 175km/h | 11636m | 3.7m/s | -55.2°C | 49.3% | 215.6hPa | 2.6V | 18:12:15 | 01:08:37 | 00:00:00 | |
| DJ2DS-15 | 2026-09-06 00:01:50 | 56.21115 | 4.39264 | 118° | 173km/h | 11588m | 4.0m/s | -54.7°C | 55.1% | 217.2hPa | 2.7V | 00:00:00 | 01:08:25 | 00:00:00 | |
| DL1XH-west | 2026-09-06 00:01:47 | 56.21095 | 4.39334 | 118° | 173km/h | 11592m | 4.4m/s | -54.8°C | 50% | 217.1hPa | 2.7V | 18:12:15 | 01:08:26 | 00:00:00 | |
| DL1XH-west | 2026-09-06 00:01:36 | 56.21314 | 4.38566 | 117° | 173km/h | 11549m | 4.3m/s | -54.5°C | 48.7% | 218.6hPa | 2.6V | 18:12:15 | 01:08:15 | 00:00:00 | |
| DJ2DS-15 | 2026-09-06 00:01:29 | 56.21535 | 4.37799 | 116° | 172km/h | 11505m | 4.7m/s | -54.2°C | 40.1% | 220.1hPa | 2.6V | 00:00:00 | 00:00:00 | 00:00:00 | |
| DJ2DS-15 | 2026-09-06 00:01:28 | 56.21515 | 4.37869 | 117° | 170km/h | 11509m | 3.6m/s | -54.1°C | 49.9% | 219.9hPa | 2.6V | 00:00:00 | 01:08:05 | 00:00:00 | |
| DL1XH-west | 2026-09-06 00:01:25 | 56.21535 | 4.37799 | 116° | 172km/h | 11505m | 4.7m/s | -54.2°C | 46.2% | 220.1hPa | 2.6V | 18:12:15 | 01:08:04 | 00:00:00 | |
| DL1XH-west | 2026-09-06 00:01:14 | 56.21813 | 4.36841 | 117° | 170km/h | 11449m | 4.2m/s | -53.9°C | 43.3% | 222hPa | 2.7V | 18:12:15 | 01:07:50 | 00:00:00 | |
| DJ2DS-15 | 2026-09-06 00:01:09 | 56.21910 | 4.36497 | 118° | 168km/h | 11429m | 3.4m/s | -53.8°C | 47.4% | 222.7hPa | 2.7V | 00:00:00 | 00:00:00 | 00:00:00 | |
| DL1XH-west | 2026-09-06 00:01:04 | 56.21969 | 4.36291 | 117° | 172km/h | 11418m | 4.3m/s | -53.8°C | 45.9% | 223.1hPa | 2.7V | 18:12:15 | 01:07:42 | 00:00:00 | |
| DL1XH-west | 2026-09-06 00:00:53 | 56.22157 | 4.35605 | 115° | 166km/h | 11378m | 4.2m/s | -53.9°C | 52.7% | 224.4hPa | 2.6V | 18:12:15 | 01:07:32 | 00:00:00 | |
| DJ2DS-15 | 2026-09-06 00:00:51 | 56.22228 | 4.35334 | 115° | 161km/h | 11361m | 4.9m/s | -53.9°C | 48.9% | 225.0hPa | 2.7V | 00:00:00 | 00:00:00 | 00:00:00 | |
| DJ2DS-15 | 2026-09-06 00:00:47 | 56.22281 | 4.35136 | 116° | 161km/h | 11350m | 3.0m/s | -53.8°C | 60.0% | 225.4hPa | 2.7V | 00:00:00 | 01:07:25 | 00:00:00 | |
| DL1XH-west | 2026-09-06 00:00:42 | 56.22351 | 4.34873 | 116° | 161km/h | 11334m | 3.5m/s | -53.8°C | 54.8% | 226hPa | 2.7V | 18:12:15 | 01:07:21 | 00:00:00 | |
| DL1XH-west | 2026-09-06 00:00:32 | 56.22572 | 4.34021 | 114° | 162km/h | 11284m | 4.1m/s | -53.4°C | 52.5% | 227.8hPa | 2.6V | 18:12:15 | 01:07:08 | 00:00:00 | |
| DJ2DS-15 | 2026-09-06 00:00:27 | 56.22622 | 4.33821 | 115° | 159km/h | 11272m | 3.3m/s | -53.3°C | 56.9% | 228.1hPa | 2.7V | 00:00:00 | 01:07:05 | 08:30:00 | |
| DL1XH-west | 2026-09-06 00:00:19 | 56.22785 | 4.33155 | 113° | 159km/h | 11234m | 3.5m/s | -53°C | 49.7% | 229.6hPa | 2.7V | 18:12:15 | 01:06:55 | 00:00:00 | |
| DL1XH-west | 2026-09-06 00:00:08 | 56.22944 | 4.32498 | 113° | 159km/h | 11194m | 4.2m/s | -52.7°C | 50.8% | 231hPa | 2.7V | 18:12:15 | 01:06:45 | 00:00:00 | |
| DL1XH-west | 2026-09-05 23:59:56 | 56.23097 | 4.31845 | 111° | 155km/h | 11155m | 5m/s | -52.4°C | 50.9% | 232.3hPa | 2.7V | 18:12:15 | 01:06:35 | 00:00:00 | |
| DL1XH-west | 2026-09-05 23:59:46 | 56.23243 | 4.31184 | 112° | 157km/h | 11116m | 4.4m/s | -52.1°C | 51.3% | 233.8hPa | 2.7V | 18:12:15 | 01:06:25 | 00:00:00 | |
| DJ2DS-15 | 2026-09-05 23:59:46 | 56.23242 | 4.31184 | 112° | 159km/h | 11116m | 4.3m/s | -52.1°C | 55.6% | 233.7hPa | 2.6V | 00:00:00 | 01:06:25 | 00:00:00 | |
| DL1XH-west | 2026-09-05 23:59:36 | 56.23390 | 4.30515 | 112° | 159km/h | 11076m | 4.3m/s | -51.8°C | 51.9% | 235.2hPa | 2.6V | 18:12:15 | 01:06:15 | 00:00:00 | |
| DJ2DS-15 | 2026-09-05 23:59:26 | 56.23537 | 4.29848 | 113° | 159km/h | 11038m | 4.7m/s | -51.5°C | 55.5% | 236.6hPa | 2.6V | 00:00:00 | 01:06:05 | 00:00:00 | |
| DL1XH-west | 2026-09-05 23:59:25 | 56.23552 | 4.29780 | 112° | 161km/h | 11033m | 3.1m/s | -51.5°C | 50.8% | 236.8hPa | 2.6V | 18:12:15 | 01:06:04 | 00:00:00 | |
| DL1XH-west | 2026-09-05 23:59:14 | 56.23712 | 4.29045 | 111° | 157km/h | 10994m | 3.6m/s | -51.1°C | 49% | 0hPa | 2.6V | 18:12:15 | 01:05:53 | 00:00:00 | |
| DJ2DS-15 | 2026-09-05 23:59:06 | 56.23834 | 4.28512 | 114° | 157km/h | 10966m | 3.3m/s | -50.8°C | 53.5% | 239.2hPa | 2.6V | 00:00:00 | 01:05:45 | 00:00:00 | |
| DL1XH-west | 2026-09-05 23:59:03 | 56.23881 | 4.28316 | 113° | 159km/h | 10955m | 3.9m/s | -50.8°C | 49% | 0hPa | 2.6V | 18:12:15 | 01:05:42 | 00:00:00 | |
| DL1XH-west | 2026-09-05 23:58:52 | 56.24050 | 4.27587 | 113° | 155km/h | 10914m | 4.3m/s | 0°C | 0% | 0hPa | 2.6V | 18:12:15 | 01:05:31 | 00:00:00 | |
| DL1XH-west | 2026-09-05 23:58:41 | 56.24223 | 4.26868 | 114° | 155km/h | 10873m | 4.4m/s | 0°C | 0% | 0hPa | 2.7V | 18:12:15 | 01:05:20 | 00:00:00 | |
| DL1XH-west | 2026-09-05 23:58:30 | 56.24395 | 4.26159 | 114° | 155km/h | 10830m | 4.2m/s | 0°C | 0% | 0hPa | 2.7V | 18:12:15 | 01:05:09 | 00:00:00 | |
| DJ2DS-15 | 2026-09-05 23:58:26 | 56.24456 | 4.25900 | 113° | 153km/h | 10816m | 3.0m/s | -49.6°C | 61.5% | 244.8hPa | 2.6V | 00:00:00 | 01:05:05 | 00:00:00 | |
| DL1XH-west | 2026-09-05 23:58:05 | 56.24779 | 4.24559 | 113° | 151km/h | 10736m | 3.9m/s | 0°C | 0% | 0hPa | 2.6V | 18:12:15 | 01:04:44 | 00:00:00 | |
| DL1XH-west | 2026-09-05 23:57:42 | 56.25122 | 4.23086 | 113° | 151km/h | 10651m | 4.1m/s | 0°C | 0% | 0hPa | 2.7V | 18:12:15 | 01:04:21 | 00:00:00 | |
| DJ2DS-15 | 2026-09-05 23:57:26 | 56.25372 | 4.22073 | 114° | 150km/h | 10587m | 3.1m/s | -47.9°C | 67.8% | 253.5hPa | 2.6V | 00:00:00 | 01:04:05 | 08:30:00 | |
| DJ2DS-15 | 2026-09-05 23:57:13 | 56.25563 | 4.21262 | 112° | 150km/h | 10534m | 4.5m/s | -47.5°C | 57.0% | 255.6hPa | 2.6V | 00:00:00 | 00:00:00 | 00:00:00 | |
| DJ2DS-15 | 2026-09-05 23:57:06 | 56.25662 | 4.20827 | 113° | 146km/h | 10506m | 4.0m/s | -47.2°C | 66.1% | 256.6hPa | 2.6V | 00:00:00 | 01:03:45 | 00:00:00 | |
| DJ2DS-15 | 2026-09-05 23:56:46 | 56.25947 | 4.19600 | 113° | 144km/h | 10429m | 4.4m/s | -46.6°C | 64.2% | 259.6hPa | 2.6V | 00:00:00 | 01:03:25 | 00:00:00 | |
| DJ2DS-15 | 2026-09-05 23:56:26 | 56.26230 | 4.18399 | 114° | 141km/h | 10351m | 4.7m/s | -45.9°C | 60.7% | 262.6hPa | 2.6V | 00:00:00 | 01:03:05 | 00:00:00 | |
| DJ2DS-15 | 2026-09-05 23:56:06 | 56.26514 | 4.17236 | 115° | 137km/h | 10275m | 2.7m/s | -45.3°C | 59.8% | 265.7hPa | 2.6V | 00:00:00 | 01:02:45 | 00:00:00 | |
| DJ2DS-15 | 2026-09-05 23:56:01 | 56.26588 | 4.16948 | 115° | 137km/h | 10255m | 3.7m/s | -45.2°C | 50.6% | 266.5hPa | 2.6V | 00:00:00 | 00:00:00 | 00:00:00 | |
| DJ2DS-15 | 2026-09-05 23:55:46 | 56.26810 | 4.16106 | 116° | 135km/h | 10195m | 2.5m/s | -44.6°C | 56.8% | 268.8hPa | 2.6V | 00:00:00 | 01:02:25 | 00:00:00 | |
| DJ2DS-15 | 2026-09-05 23:55:26 | 56.27111 | 4.14995 | 116° | 137km/h | 10118m | 3.3m/s | -43.9°C | 55.9% | 271.9hPa | 2.6V | 00:00:00 | 01:02:05 | 00:00:00 | |
| DJ2DS-15 | 2026-09-05 23:55:06 | 56.27408 | 4.13878 | 115° | 137km/h | 10040m | 3.7m/s | -43.2°C | 56.4% | 275.1hPa | 2.7V | 00:00:00 | 01:01:45 | 00:00:00 | |
| DJ2DS-15 | 2026-09-05 23:54:46 | 56.27707 | 4.12765 | 117° | 137km/h | 9963m | 4.0m/s | -42.6°C | 61.3% | 278.3hPa | 2.7V | 00:00:00 | 01:01:25 | 00:00:00 | |
| DJ2DS-15 | 2026-09-05 23:54:26 | 56.28001 | 4.11638 | 116° | 137km/h | 9885m | 3.5m/s | -41.9°C | 56.7% | 281.5hPa | 2.7V | 00:00:00 | 01:01:05 | 08:30:00 | |
| DJ2DS-15 | 2026-09-05 23:54:05 | 56.28318 | 4.10460 | 114° | 135km/h | 9805m | 3.6m/s | -41.2°C | 58.2% | 284.9hPa | 2.7V | 00:00:00 | 01:00:44 | 00:00:00 | |
| DJ2DS-15 | 2026-09-05 23:53:45 | 56.28606 | 4.09349 | 116° | 133km/h | 9730m | 3.7m/s | -40.5°C | 63.6% | 288.1hPa | 2.7V | 00:00:00 | 01:00:24 | 00:00:00 | |
| DJ2DS-15 | 2026-09-05 23:53:25 | 56.28893 | 4.08249 | 117° | 135km/h | 9654m | 4.7m/s | -39.9°C | 66.7% | 291.3hPa | 2.7V | 00:00:00 | 01:00:04 | 00:00:00 | |
| DJ2DS-15 | 2026-09-05 23:53:05 | 56.29190 | 4.07149 | 115° | 135km/h | 9578m | 3.3m/s | -39.3°C | 68.7% | 294.5hPa | 0V | 00:00:00 | 00:59:44 | 00:00:00 | |
| DJ2DS-15 | 2026-09-05 23:52:46 | 56.29481 | 4.06046 | 117° | 133km/h | 9503m | 3.3m/s | -38.6°C | 65.1% | 297.7hPa | 0V | 00:00:00 | 00:59:24 | 00:00:00 | |
| DJ2DS-15 | 2026-09-05 23:52:25 | 56.29789 | 4.04892 | 116° | 133km/h | 9422m | 3.7m/s | -38.0°C | 53.3% | 301.3hPa | 0V | 00:00:00 | 00:00:00 | 00:00:00 |